<?xml version="1.0" encoding="UTF-8" standalone="no" ?>
<gpx xmlns="http://www.topografix.com/GPX/1/1" xmlns:xsi="http://www.w3.org/2001/XMLSchema-instance" xsi:schemaLocation="http://www.topografix.com/GPX/1/1 http://www.topografix.com/GPX/1/1/gpx.xsd" version="1.1" creator="VisuGPX - https://www.visugpx.com">
  <metadata>
    <name>CYCLO Entre baronnies et Hautes Alpes</name>
    <desc><![CDATA[Très jolicircuit entre Baronnies provencales et hautes Alpes au départ de l4epine avec deux courts mais rudes petits cols ; Le retour à partir de Rosans est en monttagnes russes pénibles sur  route à grande circulation]]></desc>
  </metadata>
  <trk>
    <name><![CDATA[ACTIVE LOG 005]]></name>
    <trkseg>
      <trkpt lat="44.41562" lon="5.61443">
        <ele>747.5622559</ele>
        <time>2016-06-28T07:24:33Z</time>
      </trkpt>
      <trkpt lat="44.41564" lon="5.61444">
        <ele>752.3688965</ele>
        <time>2016-06-28T07:24:40Z</time>
      </trkpt>
      <trkpt lat="44.41564" lon="5.61444">
        <ele>757.1755371</ele>
        <time>2016-06-28T07:24:42Z</time>
      </trkpt>
      <trkpt lat="44.41564" lon="5.61444">
        <ele>761.9821777</ele>
        <time>2016-06-28T07:24:44Z</time>
      </trkpt>
      <trkpt lat="44.41563" lon="5.61444">
        <ele>765.8276367</ele>
        <time>2016-06-28T07:24:46Z</time>
      </trkpt>
      <trkpt lat="44.41563" lon="5.61444">
        <ele>769.6728516</ele>
        <time>2016-06-28T07:24:48Z</time>
      </trkpt>
      <trkpt lat="44.41563" lon="5.61444">
        <ele>773.0373535</ele>
        <time>2016-06-28T07:24:50Z</time>
      </trkpt>
      <trkpt lat="44.41563" lon="5.61443">
        <ele>776.4018555</ele>
        <time>2016-06-28T07:24:52Z</time>
      </trkpt>
      <trkpt lat="44.41563" lon="5.61443">
        <ele>779.7663574</ele>
        <time>2016-06-28T07:24:54Z</time>
      </trkpt>
      <trkpt lat="44.41563" lon="5.61443">
        <ele>783.1311035</ele>
        <time>2016-06-28T07:24:56Z</time>
      </trkpt>
      <trkpt lat="44.41562" lon="5.61442">
        <ele>786.9763184</ele>
        <time>2016-06-28T07:24:59Z</time>
      </trkpt>
      <trkpt lat="44.41562" lon="5.61442">
        <ele>790.8215332</ele>
        <time>2016-06-28T07:25:02Z</time>
      </trkpt>
      <trkpt lat="44.41562" lon="5.61442">
        <ele>794.1862793</ele>
        <time>2016-06-28T07:25:05Z</time>
      </trkpt>
      <trkpt lat="44.41562" lon="5.61442">
        <ele>797.5510254</ele>
        <time>2016-06-28T07:25:08Z</time>
      </trkpt>
      <trkpt lat="44.41562" lon="5.61442">
        <ele>800.9155273</ele>
        <time>2016-06-28T07:25:12Z</time>
      </trkpt>
      <trkpt lat="44.41562" lon="5.61442">
        <ele>804.2802734</ele>
        <time>2016-06-28T07:25:16Z</time>
      </trkpt>
      <trkpt lat="44.41562" lon="5.61442">
        <ele>807.6447754</ele>
        <time>2016-06-28T07:25:21Z</time>
      </trkpt>
      <trkpt lat="44.41562" lon="5.61442">
        <ele>811.0092773</ele>
        <time>2016-06-28T07:25:26Z</time>
      </trkpt>
      <trkpt lat="44.41562" lon="5.61442">
        <ele>811.0092773</ele>
        <time>2016-06-28T07:25:27Z</time>
      </trkpt>
      <trkpt lat="44.41562" lon="5.61442">
        <ele>812.9321289</ele>
        <time>2016-06-28T07:25:31Z</time>
      </trkpt>
      <trkpt lat="44.41562" lon="5.61442">
        <ele>816.2966309</ele>
        <time>2016-06-28T07:25:39Z</time>
      </trkpt>
      <trkpt lat="44.41562" lon="5.61442">
        <ele>819.661377</ele>
        <time>2016-06-28T07:25:50Z</time>
      </trkpt>
      <trkpt lat="44.41562" lon="5.61442">
        <ele>822.545166</ele>
        <time>2016-06-28T07:26:10Z</time>
      </trkpt>
      <trkpt lat="44.41562" lon="5.61443">
        <ele>825.4289551</ele>
        <time>2016-06-28T07:28:25Z</time>
      </trkpt>
      <trkpt lat="44.41563" lon="5.61442">
        <ele>825.4289551</ele>
        <time>2016-06-28T07:29:20Z</time>
      </trkpt>
      <trkpt lat="44.41561" lon="5.6144">
        <ele>824.9484863</ele>
        <time>2016-06-28T07:29:35Z</time>
      </trkpt>
      <trkpt lat="44.41562" lon="5.61434">
        <ele>825.4289551</ele>
        <time>2016-06-28T07:29:44Z</time>
      </trkpt>
      <trkpt lat="44.4156" lon="5.61425">
        <ele>825.4289551</ele>
        <time>2016-06-28T07:29:48Z</time>
      </trkpt>
      <trkpt lat="44.41555" lon="5.614">
        <ele>825.909668</ele>
        <time>2016-06-28T07:30:02Z</time>
      </trkpt>
      <trkpt lat="44.41556" lon="5.61402">
        <ele>824.9484863</ele>
        <time>2016-06-28T07:30:15Z</time>
      </trkpt>
      <trkpt lat="44.41556" lon="5.61403">
        <ele>825.4289551</ele>
        <time>2016-06-28T07:30:42Z</time>
      </trkpt>
      <trkpt lat="44.4156" lon="5.61404">
        <ele>825.909668</ele>
        <time>2016-06-28T07:31:14Z</time>
      </trkpt>
      <trkpt lat="44.41563" lon="5.61403">
        <ele>825.4289551</ele>
        <time>2016-06-28T07:31:17Z</time>
      </trkpt>
      <trkpt lat="44.41568" lon="5.61396">
        <ele>825.909668</ele>
        <time>2016-06-28T07:31:22Z</time>
      </trkpt>
      <trkpt lat="44.41562" lon="5.61345">
        <ele>826.3903809</ele>
        <time>2016-06-28T07:31:34Z</time>
      </trkpt>
      <trkpt lat="44.41553" lon="5.61288">
        <ele>827.3518066</ele>
        <time>2016-06-28T07:31:49Z</time>
      </trkpt>
      <trkpt lat="44.41555" lon="5.61211">
        <ele>829.755127</ele>
        <time>2016-06-28T07:32:09Z</time>
      </trkpt>
      <trkpt lat="44.41564" lon="5.61133">
        <ele>831.6777344</ele>
        <time>2016-06-28T07:32:29Z</time>
      </trkpt>
      <trkpt lat="44.41572" lon="5.6104">
        <ele>834.5617676</ele>
        <time>2016-06-28T07:32:54Z</time>
      </trkpt>
      <trkpt lat="44.41575" lon="5.60948">
        <ele>836.9648438</ele>
        <time>2016-06-28T07:33:19Z</time>
      </trkpt>
      <trkpt lat="44.41577" lon="5.6086">
        <ele>838.8876953</ele>
        <time>2016-06-28T07:33:43Z</time>
      </trkpt>
      <trkpt lat="44.41577" lon="5.60763">
        <ele>840.8100586</ele>
        <time>2016-06-28T07:34:09Z</time>
      </trkpt>
      <trkpt lat="44.41578" lon="5.60678">
        <ele>843.2133789</ele>
        <time>2016-06-28T07:34:32Z</time>
      </trkpt>
      <trkpt lat="44.41581" lon="5.60596">
        <ele>845.1362305</ele>
        <time>2016-06-28T07:34:54Z</time>
      </trkpt>
      <trkpt lat="44.41592" lon="5.60519">
        <ele>847.0588379</ele>
        <time>2016-06-28T07:35:15Z</time>
      </trkpt>
      <trkpt lat="44.41611" lon="5.60412">
        <ele>848.9814453</ele>
        <time>2016-06-28T07:35:43Z</time>
      </trkpt>
      <trkpt lat="44.41629" lon="5.60316">
        <ele>850.423584</ele>
        <time>2016-06-28T07:36:08Z</time>
      </trkpt>
      <trkpt lat="44.41652" lon="5.60184">
        <ele>852.3459473</ele>
        <time>2016-06-28T07:36:42Z</time>
      </trkpt>
      <trkpt lat="44.41673" lon="5.60064">
        <ele>854.2687988</ele>
        <time>2016-06-28T07:37:13Z</time>
      </trkpt>
      <trkpt lat="44.41691" lon="5.59954">
        <ele>856.671875</ele>
        <time>2016-06-28T07:37:42Z</time>
      </trkpt>
      <trkpt lat="44.41706" lon="5.59857">
        <ele>858.5944824</ele>
        <time>2016-06-28T07:38:08Z</time>
      </trkpt>
      <trkpt lat="44.41715" lon="5.59765">
        <ele>860.517334</ele>
        <time>2016-06-28T07:38:32Z</time>
      </trkpt>
      <trkpt lat="44.41722" lon="5.59663">
        <ele>861.9594727</ele>
        <time>2016-06-28T07:38:58Z</time>
      </trkpt>
      <trkpt lat="44.41723" lon="5.59591">
        <ele>862.9206543</ele>
        <time>2016-06-28T07:39:16Z</time>
      </trkpt>
      <trkpt lat="44.41722" lon="5.59512">
        <ele>864.3625488</ele>
        <time>2016-06-28T07:39:35Z</time>
      </trkpt>
      <trkpt lat="44.41706" lon="5.59406">
        <ele>867.7270508</ele>
        <time>2016-06-28T07:40:02Z</time>
      </trkpt>
      <trkpt lat="44.41691" lon="5.59337">
        <ele>870.611084</ele>
        <time>2016-06-28T07:40:23Z</time>
      </trkpt>
      <trkpt lat="44.41675" lon="5.59247">
        <ele>873.4951172</ele>
        <time>2016-06-28T07:40:48Z</time>
      </trkpt>
      <trkpt lat="44.4166" lon="5.59146">
        <ele>875.4174805</ele>
        <time>2016-06-28T07:41:14Z</time>
      </trkpt>
      <trkpt lat="44.41647" lon="5.59049">
        <ele>875.8981934</ele>
        <time>2016-06-28T07:41:38Z</time>
      </trkpt>
      <trkpt lat="44.41635" lon="5.58963">
        <ele>876.3791504</ele>
        <time>2016-06-28T07:41:58Z</time>
      </trkpt>
      <trkpt lat="44.41618" lon="5.58853">
        <ele>876.8598633</ele>
        <time>2016-06-28T07:42:23Z</time>
      </trkpt>
      <trkpt lat="44.41603" lon="5.58752">
        <ele>877.8210449</ele>
        <time>2016-06-28T07:42:46Z</time>
      </trkpt>
      <trkpt lat="44.41592" lon="5.58674">
        <ele>880.7050781</ele>
        <time>2016-06-28T07:43:05Z</time>
      </trkpt>
      <trkpt lat="44.41579" lon="5.58592">
        <ele>882.1469727</ele>
        <time>2016-06-28T07:43:26Z</time>
      </trkpt>
      <trkpt lat="44.41575" lon="5.58558">
        <ele>883.1081543</ele>
        <time>2016-06-28T07:43:34Z</time>
      </trkpt>
      <trkpt lat="44.41585" lon="5.58517">
        <ele>884.0695801</ele>
        <time>2016-06-28T07:43:45Z</time>
      </trkpt>
      <trkpt lat="44.41644" lon="5.58484">
        <ele>885.0310059</ele>
        <time>2016-06-28T07:44:08Z</time>
      </trkpt>
      <trkpt lat="44.41686" lon="5.5846">
        <ele>888.3955078</ele>
        <time>2016-06-28T07:44:26Z</time>
      </trkpt>
      <trkpt lat="44.41709" lon="5.58448">
        <ele>889.8374023</ele>
        <time>2016-06-28T07:44:36Z</time>
      </trkpt>
      <trkpt lat="44.41741" lon="5.58429">
        <ele>892.2409668</ele>
        <time>2016-06-28T07:44:52Z</time>
      </trkpt>
      <trkpt lat="44.41764" lon="5.584">
        <ele>895.1247559</ele>
        <time>2016-06-28T07:45:07Z</time>
      </trkpt>
      <trkpt lat="44.41782" lon="5.58368">
        <ele>897.5280762</ele>
        <time>2016-06-28T07:45:23Z</time>
      </trkpt>
      <trkpt lat="44.41803" lon="5.5834">
        <ele>899.9313965</ele>
        <time>2016-06-28T07:45:38Z</time>
      </trkpt>
      <trkpt lat="44.41831" lon="5.5831">
        <ele>901.8540039</ele>
        <time>2016-06-28T07:45:54Z</time>
      </trkpt>
      <trkpt lat="44.4185" lon="5.58315">
        <ele>904.2573242</ele>
        <time>2016-06-28T07:46:05Z</time>
      </trkpt>
      <trkpt lat="44.41851" lon="5.58332">
        <ele>905.6992188</ele>
        <time>2016-06-28T07:46:11Z</time>
      </trkpt>
      <trkpt lat="44.41866" lon="5.58372">
        <ele>907.6218262</ele>
        <time>2016-06-28T07:46:25Z</time>
      </trkpt>
      <trkpt lat="44.41894" lon="5.58365">
        <ele>910.0251465</ele>
        <time>2016-06-28T07:46:39Z</time>
      </trkpt>
      <trkpt lat="44.41919" lon="5.58355">
        <ele>912.4284668</ele>
        <time>2016-06-28T07:46:52Z</time>
      </trkpt>
      <trkpt lat="44.41943" lon="5.58349">
        <ele>915.3125</ele>
        <time>2016-06-28T07:47:07Z</time>
      </trkpt>
      <trkpt lat="44.41946" lon="5.58347">
        <ele>915.3125</ele>
        <time>2016-06-28T07:47:09Z</time>
      </trkpt>
      <trkpt lat="44.41975" lon="5.58339">
        <ele>918.1962891</ele>
        <time>2016-06-28T07:47:28Z</time>
      </trkpt>
      <trkpt lat="44.42004" lon="5.58332">
        <ele>921.560791</ele>
        <time>2016-06-28T07:47:47Z</time>
      </trkpt>
      <trkpt lat="44.42029" lon="5.58323">
        <ele>923.4836426</ele>
        <time>2016-06-28T07:48:03Z</time>
      </trkpt>
      <trkpt lat="44.4206" lon="5.58312">
        <ele>926.3676758</ele>
        <time>2016-06-28T07:48:22Z</time>
      </trkpt>
      <trkpt lat="44.4209" lon="5.58303">
        <ele>928.2902832</ele>
        <time>2016-06-28T07:48:41Z</time>
      </trkpt>
      <trkpt lat="44.42093" lon="5.58302">
        <ele>928.7709961</ele>
        <time>2016-06-28T07:48:43Z</time>
      </trkpt>
      <trkpt lat="44.42117" lon="5.58296">
        <ele>931.1743164</ele>
        <time>2016-06-28T07:49:00Z</time>
      </trkpt>
      <trkpt lat="44.42143" lon="5.58286">
        <ele>933.5773926</ele>
        <time>2016-06-28T07:49:17Z</time>
      </trkpt>
      <trkpt lat="44.42171" lon="5.58277">
        <ele>936.9418945</ele>
        <time>2016-06-28T07:49:36Z</time>
      </trkpt>
      <trkpt lat="44.42208" lon="5.58266">
        <ele>940.3068848</ele>
        <time>2016-06-28T07:49:59Z</time>
      </trkpt>
      <trkpt lat="44.42237" lon="5.58259">
        <ele>942.2294922</ele>
        <time>2016-06-28T07:50:18Z</time>
      </trkpt>
      <trkpt lat="44.42251" lon="5.58252">
        <ele>943.6713867</ele>
        <time>2016-06-28T07:50:27Z</time>
      </trkpt>
      <trkpt lat="44.42268" lon="5.58246">
        <ele>945.5939941</ele>
        <time>2016-06-28T07:50:39Z</time>
      </trkpt>
      <trkpt lat="44.42286" lon="5.58239">
        <ele>947.0358887</ele>
        <time>2016-06-28T07:50:51Z</time>
      </trkpt>
      <trkpt lat="44.42307" lon="5.58225">
        <ele>949.439209</ele>
        <time>2016-06-28T07:51:09Z</time>
      </trkpt>
      <trkpt lat="44.42315" lon="5.5821">
        <ele>950.8811035</ele>
        <time>2016-06-28T07:51:19Z</time>
      </trkpt>
      <trkpt lat="44.42319" lon="5.58206">
        <ele>951.8425293</ele>
        <time>2016-06-28T07:51:22Z</time>
      </trkpt>
      <trkpt lat="44.42322" lon="5.58196">
        <ele>952.322998</ele>
        <time>2016-06-28T07:51:27Z</time>
      </trkpt>
      <trkpt lat="44.42333" lon="5.58182">
        <ele>953.7651367</ele>
        <time>2016-06-28T07:51:37Z</time>
      </trkpt>
      <trkpt lat="44.42352" lon="5.58172">
        <ele>955.6877441</ele>
        <time>2016-06-28T07:51:51Z</time>
      </trkpt>
      <trkpt lat="44.4238" lon="5.58166">
        <ele>958.0913086</ele>
        <time>2016-06-28T07:52:09Z</time>
      </trkpt>
      <trkpt lat="44.42404" lon="5.58148">
        <ele>960.0136719</ele>
        <time>2016-06-28T07:52:27Z</time>
      </trkpt>
      <trkpt lat="44.42429" lon="5.58125">
        <ele>963.378418</ele>
        <time>2016-06-28T07:52:46Z</time>
      </trkpt>
      <trkpt lat="44.42451" lon="5.58117">
        <ele>964.8203125</ele>
        <time>2016-06-28T07:53:01Z</time>
      </trkpt>
      <trkpt lat="44.42471" lon="5.58104">
        <ele>966.7429199</ele>
        <time>2016-06-28T07:53:16Z</time>
      </trkpt>
      <trkpt lat="44.42478" lon="5.58077">
        <ele>968.1848145</ele>
        <time>2016-06-28T07:53:30Z</time>
      </trkpt>
      <trkpt lat="44.42479" lon="5.58073">
        <ele>968.6655273</ele>
        <time>2016-06-28T07:53:32Z</time>
      </trkpt>
      <trkpt lat="44.42484" lon="5.58069">
        <ele>969.1462402</ele>
        <time>2016-06-28T07:53:36Z</time>
      </trkpt>
      <trkpt lat="44.42495" lon="5.58077">
        <ele>971.0688477</ele>
        <time>2016-06-28T07:53:45Z</time>
      </trkpt>
      <trkpt lat="44.42496" lon="5.5808">
        <ele>971.5493164</ele>
        <time>2016-06-28T07:53:47Z</time>
      </trkpt>
      <trkpt lat="44.42499" lon="5.58086">
        <ele>972.0302734</ele>
        <time>2016-06-28T07:53:50Z</time>
      </trkpt>
      <trkpt lat="44.42503" lon="5.58136">
        <ele>974.9143066</ele>
        <time>2016-06-28T07:54:12Z</time>
      </trkpt>
      <trkpt lat="44.42502" lon="5.58166">
        <ele>976.3562012</ele>
        <time>2016-06-28T07:54:26Z</time>
      </trkpt>
      <trkpt lat="44.425" lon="5.58173">
        <ele>977.317627</ele>
        <time>2016-06-28T07:54:30Z</time>
      </trkpt>
      <trkpt lat="44.42509" lon="5.58207">
        <ele>978.7595215</ele>
        <time>2016-06-28T07:54:47Z</time>
      </trkpt>
      <trkpt lat="44.42533" lon="5.5822">
        <ele>981.1628418</ele>
        <time>2016-06-28T07:55:04Z</time>
      </trkpt>
      <trkpt lat="44.42562" lon="5.58227">
        <ele>983.0852051</ele>
        <time>2016-06-28T07:55:23Z</time>
      </trkpt>
      <trkpt lat="44.42574" lon="5.58232">
        <ele>984.5273438</ele>
        <time>2016-06-28T07:55:33Z</time>
      </trkpt>
      <trkpt lat="44.42593" lon="5.58231">
        <ele>985.9692383</ele>
        <time>2016-06-28T07:55:45Z</time>
      </trkpt>
      <trkpt lat="44.4261" lon="5.58229">
        <ele>987.4111328</ele>
        <time>2016-06-28T07:55:57Z</time>
      </trkpt>
      <trkpt lat="44.42627" lon="5.58223">
        <ele>989.8146973</ele>
        <time>2016-06-28T07:56:09Z</time>
      </trkpt>
      <trkpt lat="44.42649" lon="5.58212">
        <ele>990.7758789</ele>
        <time>2016-06-28T07:56:23Z</time>
      </trkpt>
      <trkpt lat="44.42666" lon="5.58202">
        <ele>992.2180176</ele>
        <time>2016-06-28T07:56:37Z</time>
      </trkpt>
      <trkpt lat="44.42667" lon="5.58201">
        <ele>993.1791992</ele>
        <time>2016-06-28T07:56:38Z</time>
      </trkpt>
      <trkpt lat="44.42679" lon="5.58181">
        <ele>994.6210938</ele>
        <time>2016-06-28T07:56:51Z</time>
      </trkpt>
      <trkpt lat="44.42707" lon="5.58155">
        <ele>997.0244141</ele>
        <time>2016-06-28T07:57:11Z</time>
      </trkpt>
      <trkpt lat="44.42728" lon="5.58147">
        <ele>998.9470215</ele>
        <time>2016-06-28T07:57:26Z</time>
      </trkpt>
      <trkpt lat="44.42751" lon="5.58136">
        <ele>1001.3503418</ele>
        <time>2016-06-28T07:57:41Z</time>
      </trkpt>
      <trkpt lat="44.42752" lon="5.58133">
        <ele>1001.8310547</ele>
        <time>2016-06-28T07:57:43Z</time>
      </trkpt>
      <trkpt lat="44.42753" lon="5.58129">
        <ele>1002.3115234</ele>
        <time>2016-06-28T07:57:46Z</time>
      </trkpt>
      <trkpt lat="44.42752" lon="5.58125">
        <ele>1002.3115234</ele>
        <time>2016-06-28T07:57:48Z</time>
      </trkpt>
      <trkpt lat="44.42749" lon="5.58092">
        <ele>1004.2346191</ele>
        <time>2016-06-28T07:58:04Z</time>
      </trkpt>
      <trkpt lat="44.42751" lon="5.5806">
        <ele>1006.1569824</ele>
        <time>2016-06-28T07:58:21Z</time>
      </trkpt>
      <trkpt lat="44.42751" lon="5.58058">
        <ele>1006.6376953</ele>
        <time>2016-06-28T07:58:22Z</time>
      </trkpt>
      <trkpt lat="44.42752" lon="5.58054">
        <ele>1006.6376953</ele>
        <time>2016-06-28T07:58:24Z</time>
      </trkpt>
      <trkpt lat="44.42758" lon="5.58042">
        <ele>1008.079834</ele>
        <time>2016-06-28T07:58:32Z</time>
      </trkpt>
      <trkpt lat="44.42766" lon="5.58031">
        <ele>1008.5603027</ele>
        <time>2016-06-28T07:58:40Z</time>
      </trkpt>
      <trkpt lat="44.42778" lon="5.58021">
        <ele>1010.4829102</ele>
        <time>2016-06-28T07:58:50Z</time>
      </trkpt>
      <trkpt lat="44.42787" lon="5.58019">
        <ele>1011.4443359</ele>
        <time>2016-06-28T07:58:56Z</time>
      </trkpt>
      <trkpt lat="44.42801" lon="5.58011">
        <ele>1012.4055176</ele>
        <time>2016-06-28T07:59:06Z</time>
      </trkpt>
      <trkpt lat="44.42812" lon="5.57992">
        <ele>1014.328125</ele>
        <time>2016-06-28T07:59:18Z</time>
      </trkpt>
      <trkpt lat="44.42818" lon="5.57975">
        <ele>1015.2895508</ele>
        <time>2016-06-28T07:59:28Z</time>
      </trkpt>
      <trkpt lat="44.4282" lon="5.57967">
        <ele>1015.7702637</ele>
        <time>2016-06-28T07:59:32Z</time>
      </trkpt>
      <trkpt lat="44.42826" lon="5.57953">
        <ele>1017.2121582</ele>
        <time>2016-06-28T07:59:41Z</time>
      </trkpt>
      <trkpt lat="44.42827" lon="5.57949">
        <ele>1017.2121582</ele>
        <time>2016-06-28T07:59:43Z</time>
      </trkpt>
      <trkpt lat="44.42832" lon="5.57937">
        <ele>1018.1733398</ele>
        <time>2016-06-28T07:59:50Z</time>
      </trkpt>
      <trkpt lat="44.42844" lon="5.57915">
        <ele>1020.0961914</ele>
        <time>2016-06-28T08:00:03Z</time>
      </trkpt>
      <trkpt lat="44.42854" lon="5.57898">
        <ele>1021.5380859</ele>
        <time>2016-06-28T08:00:14Z</time>
      </trkpt>
      <trkpt lat="44.42855" lon="5.57894">
        <ele>1021.5380859</ele>
        <time>2016-06-28T08:00:16Z</time>
      </trkpt>
      <trkpt lat="44.42862" lon="5.57885">
        <ele>1022.9802246</ele>
        <time>2016-06-28T08:00:22Z</time>
      </trkpt>
      <trkpt lat="44.42864" lon="5.5788">
        <ele>1022.9802246</ele>
        <time>2016-06-28T08:00:25Z</time>
      </trkpt>
      <trkpt lat="44.42868" lon="5.57873">
        <ele>1023.4609375</ele>
        <time>2016-06-28T08:00:30Z</time>
      </trkpt>
      <trkpt lat="44.42878" lon="5.57855">
        <ele>1024.902832</ele>
        <time>2016-06-28T08:00:42Z</time>
      </trkpt>
      <trkpt lat="44.42886" lon="5.57839">
        <ele>1026.3447266</ele>
        <time>2016-06-28T08:00:52Z</time>
      </trkpt>
      <trkpt lat="44.4289" lon="5.57833">
        <ele>1027.3061523</ele>
        <time>2016-06-28T08:00:56Z</time>
      </trkpt>
      <trkpt lat="44.429" lon="5.57814">
        <ele>1028.7480469</ele>
        <time>2016-06-28T08:01:09Z</time>
      </trkpt>
      <trkpt lat="44.42901" lon="5.57811">
        <ele>1029.2285156</ele>
        <time>2016-06-28T08:01:11Z</time>
      </trkpt>
      <trkpt lat="44.42906" lon="5.57803">
        <ele>1029.7092285</ele>
        <time>2016-06-28T08:01:16Z</time>
      </trkpt>
      <trkpt lat="44.42915" lon="5.57786">
        <ele>1031.1513672</ele>
        <time>2016-06-28T08:01:27Z</time>
      </trkpt>
      <trkpt lat="44.42918" lon="5.57779">
        <ele>1031.6318359</ele>
        <time>2016-06-28T08:01:31Z</time>
      </trkpt>
      <trkpt lat="44.4292" lon="5.5777">
        <ele>1032.1125488</ele>
        <time>2016-06-28T08:01:37Z</time>
      </trkpt>
      <trkpt lat="44.42921" lon="5.57762">
        <ele>1032.5932617</ele>
        <time>2016-06-28T08:01:40Z</time>
      </trkpt>
      <trkpt lat="44.42924" lon="5.57759">
        <ele>1033.5544434</ele>
        <time>2016-06-28T08:01:43Z</time>
      </trkpt>
      <trkpt lat="44.42927" lon="5.57739">
        <ele>1034.5158691</ele>
        <time>2016-06-28T08:01:52Z</time>
      </trkpt>
      <trkpt lat="44.42931" lon="5.57728">
        <ele>1035.4770508</ele>
        <time>2016-06-28T08:01:59Z</time>
      </trkpt>
      <trkpt lat="44.42932" lon="5.57716">
        <ele>1036.4387207</ele>
        <time>2016-06-28T08:02:06Z</time>
      </trkpt>
      <trkpt lat="44.42934" lon="5.57701">
        <ele>1036.9191895</ele>
        <time>2016-06-28T08:02:14Z</time>
      </trkpt>
      <trkpt lat="44.42937" lon="5.57693">
        <ele>1037.8806152</ele>
        <time>2016-06-28T08:02:20Z</time>
      </trkpt>
      <trkpt lat="44.42937" lon="5.57682">
        <ele>1038.842041</ele>
        <time>2016-06-28T08:02:25Z</time>
      </trkpt>
      <trkpt lat="44.42948" lon="5.57674">
        <ele>1040.2839355</ele>
        <time>2016-06-28T08:02:35Z</time>
      </trkpt>
      <trkpt lat="44.4295" lon="5.57679">
        <ele>1040.7644043</ele>
        <time>2016-06-28T08:02:38Z</time>
      </trkpt>
      <trkpt lat="44.42948" lon="5.57718">
        <ele>1041.7258301</ele>
        <time>2016-06-28T08:02:54Z</time>
      </trkpt>
      <trkpt lat="44.42948" lon="5.57758">
        <ele>1043.1677246</ele>
        <time>2016-06-28T08:03:11Z</time>
      </trkpt>
      <trkpt lat="44.42951" lon="5.57781">
        <ele>1045.090332</ele>
        <time>2016-06-28T08:03:22Z</time>
      </trkpt>
      <trkpt lat="44.42951" lon="5.57786">
        <ele>1045.090332</ele>
        <time>2016-06-28T08:03:24Z</time>
      </trkpt>
      <trkpt lat="44.42952" lon="5.57793">
        <ele>1045.090332</ele>
        <time>2016-06-28T08:03:27Z</time>
      </trkpt>
      <trkpt lat="44.42952" lon="5.57819">
        <ele>1047.0129395</ele>
        <time>2016-06-28T08:03:40Z</time>
      </trkpt>
      <trkpt lat="44.42955" lon="5.57864">
        <ele>1049.4162598</ele>
        <time>2016-06-28T08:04:00Z</time>
      </trkpt>
      <trkpt lat="44.42956" lon="5.57866">
        <ele>1049.4162598</ele>
        <time>2016-06-28T08:04:01Z</time>
      </trkpt>
      <trkpt lat="44.42957" lon="5.57912">
        <ele>1052.300293</ele>
        <time>2016-06-28T08:04:21Z</time>
      </trkpt>
      <trkpt lat="44.42956" lon="5.57924">
        <ele>1052.300293</ele>
        <time>2016-06-28T08:04:26Z</time>
      </trkpt>
      <trkpt lat="44.42955" lon="5.5796">
        <ele>1054.7036133</ele>
        <time>2016-06-28T08:04:44Z</time>
      </trkpt>
      <trkpt lat="44.42954" lon="5.57967">
        <ele>1055.1843262</ele>
        <time>2016-06-28T08:04:48Z</time>
      </trkpt>
      <trkpt lat="44.42957" lon="5.57991">
        <ele>1056.6262207</ele>
        <time>2016-06-28T08:05:01Z</time>
      </trkpt>
      <trkpt lat="44.42965" lon="5.58012">
        <ele>1057.5876465</ele>
        <time>2016-06-28T08:05:13Z</time>
      </trkpt>
      <trkpt lat="44.42976" lon="5.58025">
        <ele>1059.029541</ele>
        <time>2016-06-28T08:05:22Z</time>
      </trkpt>
      <trkpt lat="44.42983" lon="5.58021">
        <ele>1058.5488281</ele>
        <time>2016-06-28T08:05:27Z</time>
      </trkpt>
      <trkpt lat="44.42977" lon="5.57989">
        <ele>1060.4714355</ele>
        <time>2016-06-28T08:05:43Z</time>
      </trkpt>
      <trkpt lat="44.42977" lon="5.57946">
        <ele>1062.8747559</ele>
        <time>2016-06-28T08:06:02Z</time>
      </trkpt>
      <trkpt lat="44.4299" lon="5.57906">
        <ele>1065.7587891</ele>
        <time>2016-06-28T08:06:24Z</time>
      </trkpt>
      <trkpt lat="44.43" lon="5.57872">
        <ele>1068.1621094</ele>
        <time>2016-06-28T08:06:41Z</time>
      </trkpt>
      <trkpt lat="44.43007" lon="5.57842">
        <ele>1069.604248</ele>
        <time>2016-06-28T08:06:56Z</time>
      </trkpt>
      <trkpt lat="44.43017" lon="5.57815">
        <ele>1071.5266113</ele>
        <time>2016-06-28T08:07:09Z</time>
      </trkpt>
      <trkpt lat="44.4303" lon="5.57774">
        <ele>1074.4106445</ele>
        <time>2016-06-28T08:07:30Z</time>
      </trkpt>
      <trkpt lat="44.43037" lon="5.57743">
        <ele>1076.333252</ele>
        <time>2016-06-28T08:07:46Z</time>
      </trkpt>
      <trkpt lat="44.43044" lon="5.57728">
        <ele>1077.2946777</ele>
        <time>2016-06-28T08:07:55Z</time>
      </trkpt>
      <trkpt lat="44.43052" lon="5.57702">
        <ele>1079.217041</ele>
        <time>2016-06-28T08:08:09Z</time>
      </trkpt>
      <trkpt lat="44.43066" lon="5.57669">
        <ele>1081.6203613</ele>
        <time>2016-06-28T08:08:26Z</time>
      </trkpt>
      <trkpt lat="44.43082" lon="5.57647">
        <ele>1082.5817871</ele>
        <time>2016-06-28T08:08:39Z</time>
      </trkpt>
      <trkpt lat="44.43104" lon="5.57637">
        <ele>1084.5046387</ele>
        <time>2016-06-28T08:08:55Z</time>
      </trkpt>
      <trkpt lat="44.43113" lon="5.57639">
        <ele>1085.4658203</ele>
        <time>2016-06-28T08:09:01Z</time>
      </trkpt>
      <trkpt lat="44.43135" lon="5.57641">
        <ele>1086.9077148</ele>
        <time>2016-06-28T08:09:15Z</time>
      </trkpt>
      <trkpt lat="44.43158" lon="5.57632">
        <ele>1088.8305664</ele>
        <time>2016-06-28T08:09:31Z</time>
      </trkpt>
      <trkpt lat="44.43168" lon="5.57628">
        <ele>1089.791748</ele>
        <time>2016-06-28T08:09:38Z</time>
      </trkpt>
      <trkpt lat="44.4317" lon="5.57628">
        <ele>1090.2724609</ele>
        <time>2016-06-28T08:09:41Z</time>
      </trkpt>
      <trkpt lat="44.43187" lon="5.57616">
        <ele>1091.7143555</ele>
        <time>2016-06-28T08:09:55Z</time>
      </trkpt>
      <trkpt lat="44.4319" lon="5.57601">
        <ele>1093.15625</ele>
        <time>2016-06-28T08:10:01Z</time>
      </trkpt>
      <trkpt lat="44.43193" lon="5.57597">
        <ele>1093.6369629</ele>
        <time>2016-06-28T08:10:04Z</time>
      </trkpt>
      <trkpt lat="44.43206" lon="5.57582">
        <ele>1095.0788574</ele>
        <time>2016-06-28T08:10:15Z</time>
      </trkpt>
      <trkpt lat="44.43212" lon="5.57555">
        <ele>1097.0014648</ele>
        <time>2016-06-28T08:10:29Z</time>
      </trkpt>
      <trkpt lat="44.43211" lon="5.57517">
        <ele>1098.4433594</ele>
        <time>2016-06-28T08:10:47Z</time>
      </trkpt>
      <trkpt lat="44.43215" lon="5.57491">
        <ele>1100.3664551</ele>
        <time>2016-06-28T08:11:01Z</time>
      </trkpt>
      <trkpt lat="44.43216" lon="5.57466">
        <ele>1102.2888184</ele>
        <time>2016-06-28T08:11:12Z</time>
      </trkpt>
      <trkpt lat="44.43216" lon="5.57422">
        <ele>1104.2116699</ele>
        <time>2016-06-28T08:11:31Z</time>
      </trkpt>
      <trkpt lat="44.4322" lon="5.57387">
        <ele>1106.6147461</ele>
        <time>2016-06-28T08:11:48Z</time>
      </trkpt>
      <trkpt lat="44.43228" lon="5.5736">
        <ele>1108.5373535</ele>
        <time>2016-06-28T08:12:03Z</time>
      </trkpt>
      <trkpt lat="44.43228" lon="5.57345">
        <ele>1109.4987793</ele>
        <time>2016-06-28T08:12:10Z</time>
      </trkpt>
      <trkpt lat="44.43234" lon="5.57319">
        <ele>1111.4213867</ele>
        <time>2016-06-28T08:12:23Z</time>
      </trkpt>
      <trkpt lat="44.43235" lon="5.57304">
        <ele>1111.9020996</ele>
        <time>2016-06-28T08:12:31Z</time>
      </trkpt>
      <trkpt lat="44.43237" lon="5.57293">
        <ele>1111.9020996</ele>
        <time>2016-06-28T08:12:36Z</time>
      </trkpt>
      <trkpt lat="44.43238" lon="5.57275">
        <ele>1113.8244629</ele>
        <time>2016-06-28T08:12:47Z</time>
      </trkpt>
      <trkpt lat="44.4324" lon="5.57269">
        <ele>1114.3051758</ele>
        <time>2016-06-28T08:12:51Z</time>
      </trkpt>
      <trkpt lat="44.43238" lon="5.57268">
        <ele>1114.7858887</ele>
        <time>2016-06-28T08:12:53Z</time>
      </trkpt>
      <trkpt lat="44.43234" lon="5.57263">
        <ele>1115.2666016</ele>
        <time>2016-06-28T08:12:55Z</time>
      </trkpt>
      <trkpt lat="44.43231" lon="5.57246">
        <ele>1116.2280273</ele>
        <time>2016-06-28T08:13:04Z</time>
      </trkpt>
      <trkpt lat="44.43228" lon="5.57234">
        <ele>1116.2280273</ele>
        <time>2016-06-28T08:13:10Z</time>
      </trkpt>
      <trkpt lat="44.43217" lon="5.57213">
        <ele>1118.1506348</ele>
        <time>2016-06-28T08:13:22Z</time>
      </trkpt>
      <trkpt lat="44.43213" lon="5.57196">
        <ele>1119.5927734</ele>
        <time>2016-06-28T08:13:32Z</time>
      </trkpt>
      <trkpt lat="44.43206" lon="5.57184">
        <ele>1120.5539551</ele>
        <time>2016-06-28T08:13:41Z</time>
      </trkpt>
      <trkpt lat="44.432" lon="5.57159">
        <ele>1121.9958496</ele>
        <time>2016-06-28T08:13:53Z</time>
      </trkpt>
      <trkpt lat="44.43188" lon="5.57116">
        <ele>1124.3991699</ele>
        <time>2016-06-28T08:14:14Z</time>
      </trkpt>
      <trkpt lat="44.43183" lon="5.57083">
        <ele>1125.8410645</ele>
        <time>2016-06-28T08:14:29Z</time>
      </trkpt>
      <trkpt lat="44.43193" lon="5.57054">
        <ele>1128.2443848</ele>
        <time>2016-06-28T08:14:45Z</time>
      </trkpt>
      <trkpt lat="44.43202" lon="5.57045">
        <ele>1128.2443848</ele>
        <time>2016-06-28T08:14:52Z</time>
      </trkpt>
      <trkpt lat="44.43207" lon="5.57042">
        <ele>1128.7250977</ele>
        <time>2016-06-28T08:15:05Z</time>
      </trkpt>
      <trkpt lat="44.43207" lon="5.57042">
        <ele>1129.2055664</ele>
        <time>2016-06-28T08:15:17Z</time>
      </trkpt>
      <trkpt lat="44.43193" lon="5.57049">
        <ele>1128.7250977</ele>
        <time>2016-06-28T08:15:42Z</time>
      </trkpt>
      <trkpt lat="44.43182" lon="5.57065">
        <ele>1129.2055664</ele>
        <time>2016-06-28T08:16:04Z</time>
      </trkpt>
      <trkpt lat="44.43182" lon="5.57084">
        <ele>1126.3217773</ele>
        <time>2016-06-28T08:16:26Z</time>
      </trkpt>
      <trkpt lat="44.43182" lon="5.57086">
        <ele>1126.8024902</ele>
        <time>2016-06-28T08:16:54Z</time>
      </trkpt>
      <trkpt lat="44.43182" lon="5.57086">
        <ele>1127.7636719</ele>
        <time>2016-06-28T08:17:03Z</time>
      </trkpt>
      <trkpt lat="44.43181" lon="5.57085">
        <ele>1125.8410645</ele>
        <time>2016-06-28T08:17:59Z</time>
      </trkpt>
      <trkpt lat="44.43178" lon="5.5708">
        <ele>1127.2832031</ele>
        <time>2016-06-28T08:18:36Z</time>
      </trkpt>
      <trkpt lat="44.43179" lon="5.57074">
        <ele>1127.2832031</ele>
        <time>2016-06-28T08:20:17Z</time>
      </trkpt>
      <trkpt lat="44.43184" lon="5.57054">
        <ele>1128.7250977</ele>
        <time>2016-06-28T08:20:37Z</time>
      </trkpt>
      <trkpt lat="44.43199" lon="5.57047">
        <ele>1128.7250977</ele>
        <time>2016-06-28T08:20:48Z</time>
      </trkpt>
      <trkpt lat="44.43235" lon="5.5703">
        <ele>1128.2443848</ele>
        <time>2016-06-28T08:21:00Z</time>
      </trkpt>
      <trkpt lat="44.43242" lon="5.57035">
        <ele>1127.7636719</ele>
        <time>2016-06-28T08:21:02Z</time>
      </trkpt>
      <trkpt lat="44.43277" lon="5.57102">
        <ele>1125.3603516</ele>
        <time>2016-06-28T08:21:14Z</time>
      </trkpt>
      <trkpt lat="44.43305" lon="5.57157">
        <ele>1122.9572754</ele>
        <time>2016-06-28T08:21:21Z</time>
      </trkpt>
      <trkpt lat="44.43341" lon="5.57207">
        <ele>1120.0732422</ele>
        <time>2016-06-28T08:21:27Z</time>
      </trkpt>
      <trkpt lat="44.43355" lon="5.57239">
        <ele>1118.6313477</ele>
        <time>2016-06-28T08:21:30Z</time>
      </trkpt>
      <trkpt lat="44.43381" lon="5.57285">
        <ele>1114.7858887</ele>
        <time>2016-06-28T08:21:35Z</time>
      </trkpt>
      <trkpt lat="44.4339" lon="5.57299">
        <ele>1113.8244629</ele>
        <time>2016-06-28T08:21:37Z</time>
      </trkpt>
      <trkpt lat="44.43395" lon="5.57306">
        <ele>1112.8632813</ele>
        <time>2016-06-28T08:21:38Z</time>
      </trkpt>
      <trkpt lat="44.43465" lon="5.57388">
        <ele>1108.5373535</ele>
        <time>2016-06-28T08:21:49Z</time>
      </trkpt>
      <trkpt lat="44.43472" lon="5.57396">
        <ele>1107.5761719</ele>
        <time>2016-06-28T08:21:50Z</time>
      </trkpt>
      <trkpt lat="44.43491" lon="5.57426">
        <ele>1106.6147461</ele>
        <time>2016-06-28T08:21:53Z</time>
      </trkpt>
      <trkpt lat="44.4351" lon="5.57465">
        <ele>1103.2502441</ele>
        <time>2016-06-28T08:21:57Z</time>
      </trkpt>
      <trkpt lat="44.43543" lon="5.5751">
        <ele>1099.885498</ele>
        <time>2016-06-28T08:22:03Z</time>
      </trkpt>
      <trkpt lat="44.43554" lon="5.57519">
        <ele>1098.9240723</ele>
        <time>2016-06-28T08:22:05Z</time>
      </trkpt>
      <trkpt lat="44.43577" lon="5.57515">
        <ele>1097.4821777</ele>
        <time>2016-06-28T08:22:08Z</time>
      </trkpt>
      <trkpt lat="44.43593" lon="5.57509">
        <ele>1097.0014648</ele>
        <time>2016-06-28T08:22:10Z</time>
      </trkpt>
      <trkpt lat="44.43641" lon="5.57505">
        <ele>1094.5981445</ele>
        <time>2016-06-28T08:22:15Z</time>
      </trkpt>
      <trkpt lat="44.4367" lon="5.57502">
        <ele>1093.15625</ele>
        <time>2016-06-28T08:22:18Z</time>
      </trkpt>
      <trkpt lat="44.43708" lon="5.57496">
        <ele>1089.3110352</ele>
        <time>2016-06-28T08:22:22Z</time>
      </trkpt>
      <trkpt lat="44.43717" lon="5.57495">
        <ele>1089.3110352</ele>
        <time>2016-06-28T08:22:23Z</time>
      </trkpt>
      <trkpt lat="44.43726" lon="5.57493">
        <ele>1087.8691406</ele>
        <time>2016-06-28T08:22:24Z</time>
      </trkpt>
      <trkpt lat="44.43759" lon="5.57475">
        <ele>1085.4658203</ele>
        <time>2016-06-28T08:22:28Z</time>
      </trkpt>
      <trkpt lat="44.43811" lon="5.5744">
        <ele>1081.1398926</ele>
        <time>2016-06-28T08:22:34Z</time>
      </trkpt>
      <trkpt lat="44.43819" lon="5.57434">
        <ele>1081.1398926</ele>
        <time>2016-06-28T08:22:35Z</time>
      </trkpt>
      <trkpt lat="44.43842" lon="5.5742">
        <ele>1079.217041</ele>
        <time>2016-06-28T08:22:38Z</time>
      </trkpt>
      <trkpt lat="44.43876" lon="5.57372">
        <ele>1076.333252</ele>
        <time>2016-06-28T08:22:44Z</time>
      </trkpt>
      <trkpt lat="44.43893" lon="5.57329">
        <ele>1072.96875</ele>
        <time>2016-06-28T08:22:48Z</time>
      </trkpt>
      <trkpt lat="44.43891" lon="5.57278">
        <ele>1070.5654297</ele>
        <time>2016-06-28T08:22:53Z</time>
      </trkpt>
      <trkpt lat="44.4388" lon="5.57249">
        <ele>1069.604248</ele>
        <time>2016-06-28T08:22:56Z</time>
      </trkpt>
      <trkpt lat="44.43884" lon="5.57178">
        <ele>1067.2006836</ele>
        <time>2016-06-28T08:23:02Z</time>
      </trkpt>
      <trkpt lat="44.43892" lon="5.57153">
        <ele>1065.2780762</ele>
        <time>2016-06-28T08:23:04Z</time>
      </trkpt>
      <trkpt lat="44.43897" lon="5.57116">
        <ele>1063.8359375</ele>
        <time>2016-06-28T08:23:07Z</time>
      </trkpt>
      <trkpt lat="44.43901" lon="5.57078">
        <ele>1061.4328613</ele>
        <time>2016-06-28T08:23:10Z</time>
      </trkpt>
      <trkpt lat="44.43907" lon="5.57053">
        <ele>1059.9907227</ele>
        <time>2016-06-28T08:23:12Z</time>
      </trkpt>
      <trkpt lat="44.43922" lon="5.57005">
        <ele>1058.0683594</ele>
        <time>2016-06-28T08:23:16Z</time>
      </trkpt>
      <trkpt lat="44.43928" lon="5.56984">
        <ele>1055.1843262</ele>
        <time>2016-06-28T08:23:18Z</time>
      </trkpt>
      <trkpt lat="44.43915" lon="5.56924">
        <ele>1053.7424316</ele>
        <time>2016-06-28T08:23:24Z</time>
      </trkpt>
      <trkpt lat="44.4389" lon="5.56889">
        <ele>1052.300293</ele>
        <time>2016-06-28T08:23:28Z</time>
      </trkpt>
      <trkpt lat="44.43874" lon="5.56874">
        <ele>1050.8581543</ele>
        <time>2016-06-28T08:23:30Z</time>
      </trkpt>
      <trkpt lat="44.4385" lon="5.56849">
        <ele>1049.4162598</ele>
        <time>2016-06-28T08:23:33Z</time>
      </trkpt>
      <trkpt lat="44.43833" lon="5.56832">
        <ele>1047.4936523</ele>
        <time>2016-06-28T08:23:35Z</time>
      </trkpt>
      <trkpt lat="44.43801" lon="5.5681">
        <ele>1043.6484375</ele>
        <time>2016-06-28T08:23:39Z</time>
      </trkpt>
      <trkpt lat="44.4377" lon="5.56754">
        <ele>1040.2839355</ele>
        <time>2016-06-28T08:23:45Z</time>
      </trkpt>
      <trkpt lat="44.43768" lon="5.56741">
        <ele>1040.2839355</ele>
        <time>2016-06-28T08:23:46Z</time>
      </trkpt>
      <trkpt lat="44.43767" lon="5.56727">
        <ele>1039.3225098</ele>
        <time>2016-06-28T08:23:47Z</time>
      </trkpt>
      <trkpt lat="44.43766" lon="5.56699">
        <ele>1038.3613281</ele>
        <time>2016-06-28T08:23:49Z</time>
      </trkpt>
      <trkpt lat="44.43766" lon="5.5667">
        <ele>1037.3999023</ele>
        <time>2016-06-28T08:23:51Z</time>
      </trkpt>
      <trkpt lat="44.43768" lon="5.56618">
        <ele>1032.5932617</ele>
        <time>2016-06-28T08:23:55Z</time>
      </trkpt>
      <trkpt lat="44.43776" lon="5.56571">
        <ele>1030.6706543</ele>
        <time>2016-06-28T08:24:00Z</time>
      </trkpt>
      <trkpt lat="44.43772" lon="5.56553">
        <ele>1028.7480469</ele>
        <time>2016-06-28T08:24:03Z</time>
      </trkpt>
      <trkpt lat="44.43752" lon="5.5657">
        <ele>1028.7480469</ele>
        <time>2016-06-28T08:24:08Z</time>
      </trkpt>
      <trkpt lat="44.4375" lon="5.56578">
        <ele>1027.7866211</ele>
        <time>2016-06-28T08:24:09Z</time>
      </trkpt>
      <trkpt lat="44.43741" lon="5.56671">
        <ele>1024.4221191</ele>
        <time>2016-06-28T08:24:18Z</time>
      </trkpt>
      <trkpt lat="44.43739" lon="5.56683">
        <ele>1024.4221191</ele>
        <time>2016-06-28T08:24:19Z</time>
      </trkpt>
      <trkpt lat="44.43723" lon="5.56733">
        <ele>1022.0187988</ele>
        <time>2016-06-28T08:24:24Z</time>
      </trkpt>
      <trkpt lat="44.43719" lon="5.56753">
        <ele>1020.5769043</ele>
        <time>2016-06-28T08:24:26Z</time>
      </trkpt>
      <trkpt lat="44.43718" lon="5.56798">
        <ele>1019.6154785</ele>
        <time>2016-06-28T08:24:30Z</time>
      </trkpt>
      <trkpt lat="44.43726" lon="5.56834">
        <ele>1018.1733398</ele>
        <time>2016-06-28T08:24:33Z</time>
      </trkpt>
      <trkpt lat="44.43734" lon="5.56855">
        <ele>1016.7314453</ele>
        <time>2016-06-28T08:24:35Z</time>
      </trkpt>
      <trkpt lat="44.43744" lon="5.56871">
        <ele>1015.2895508</ele>
        <time>2016-06-28T08:24:37Z</time>
      </trkpt>
      <trkpt lat="44.43754" lon="5.56881">
        <ele>1012.4055176</ele>
        <time>2016-06-28T08:24:39Z</time>
      </trkpt>
      <trkpt lat="44.43773" lon="5.56892">
        <ele>1011.9250488</ele>
        <time>2016-06-28T08:24:42Z</time>
      </trkpt>
      <trkpt lat="44.43776" lon="5.56938">
        <ele>1009.5217285</ele>
        <time>2016-06-28T08:24:47Z</time>
      </trkpt>
      <trkpt lat="44.43769" lon="5.57005">
        <ele>1006.6376953</ele>
        <time>2016-06-28T08:24:53Z</time>
      </trkpt>
      <trkpt lat="44.43751" lon="5.57041">
        <ele>1005.6765137</ele>
        <time>2016-06-28T08:24:57Z</time>
      </trkpt>
      <trkpt lat="44.43739" lon="5.57053">
        <ele>1004.2346191</ele>
        <time>2016-06-28T08:24:59Z</time>
      </trkpt>
      <trkpt lat="44.43727" lon="5.5706">
        <ele>1003.2729492</ele>
        <time>2016-06-28T08:25:01Z</time>
      </trkpt>
      <trkpt lat="44.43714" lon="5.5706">
        <ele>1001.8310547</ele>
        <time>2016-06-28T08:25:03Z</time>
      </trkpt>
      <trkpt lat="44.43703" lon="5.57046">
        <ele>1001.3503418</ele>
        <time>2016-06-28T08:25:05Z</time>
      </trkpt>
      <trkpt lat="44.43694" lon="5.5703">
        <ele>1000.3891602</ele>
        <time>2016-06-28T08:25:07Z</time>
      </trkpt>
      <trkpt lat="44.43675" lon="5.57006">
        <ele>999.4277344</ele>
        <time>2016-06-28T08:25:10Z</time>
      </trkpt>
      <trkpt lat="44.43665" lon="5.56988">
        <ele>997.9858398</ele>
        <time>2016-06-28T08:25:12Z</time>
      </trkpt>
      <trkpt lat="44.43661" lon="5.56966">
        <ele>996.5439453</ele>
        <time>2016-06-28T08:25:14Z</time>
      </trkpt>
      <trkpt lat="44.43659" lon="5.56955">
        <ele>995.1018066</ele>
        <time>2016-06-28T08:25:15Z</time>
      </trkpt>
      <trkpt lat="44.43634" lon="5.56912">
        <ele>992.6987305</ele>
        <time>2016-06-28T08:25:20Z</time>
      </trkpt>
      <trkpt lat="44.43607" lon="5.56891">
        <ele>990.7758789</ele>
        <time>2016-06-28T08:25:24Z</time>
      </trkpt>
      <trkpt lat="44.43596" lon="5.56856">
        <ele>988.8535156</ele>
        <time>2016-06-28T08:25:28Z</time>
      </trkpt>
      <trkpt lat="44.43594" lon="5.56834">
        <ele>986.9304199</ele>
        <time>2016-06-28T08:25:30Z</time>
      </trkpt>
      <trkpt lat="44.4359" lon="5.56802">
        <ele>985.0080566</ele>
        <time>2016-06-28T08:25:33Z</time>
      </trkpt>
      <trkpt lat="44.43605" lon="5.56745">
        <ele>983.0852051</ele>
        <time>2016-06-28T08:25:38Z</time>
      </trkpt>
      <trkpt lat="44.43609" lon="5.56719">
        <ele>981.6433105</ele>
        <time>2016-06-28T08:25:40Z</time>
      </trkpt>
      <trkpt lat="44.43616" lon="5.56693">
        <ele>980.6821289</ele>
        <time>2016-06-28T08:25:42Z</time>
      </trkpt>
      <trkpt lat="44.43622" lon="5.56667">
        <ele>979.7207031</ele>
        <time>2016-06-28T08:25:44Z</time>
      </trkpt>
      <trkpt lat="44.43629" lon="5.56566">
        <ele>976.3562012</ele>
        <time>2016-06-28T08:25:51Z</time>
      </trkpt>
      <trkpt lat="44.43628" lon="5.56551">
        <ele>976.3562012</ele>
        <time>2016-06-28T08:25:52Z</time>
      </trkpt>
      <trkpt lat="44.43616" lon="5.56492">
        <ele>973.9528809</ele>
        <time>2016-06-28T08:25:56Z</time>
      </trkpt>
      <trkpt lat="44.43602" lon="5.56433">
        <ele>971.0688477</ele>
        <time>2016-06-28T08:26:00Z</time>
      </trkpt>
      <trkpt lat="44.43572" lon="5.56368">
        <ele>968.6655273</ele>
        <time>2016-06-28T08:26:05Z</time>
      </trkpt>
      <trkpt lat="44.43567" lon="5.56356">
        <ele>968.1848145</ele>
        <time>2016-06-28T08:26:06Z</time>
      </trkpt>
      <trkpt lat="44.43533" lon="5.56267">
        <ele>969.1462402</ele>
        <time>2016-06-28T08:26:16Z</time>
      </trkpt>
      <trkpt lat="44.43525" lon="5.56188">
        <ele>970.5881348</ele>
        <time>2016-06-28T08:26:29Z</time>
      </trkpt>
      <trkpt lat="44.43511" lon="5.56079">
        <ele>970.1074219</ele>
        <time>2016-06-28T08:26:47Z</time>
      </trkpt>
      <trkpt lat="44.43489" lon="5.55996">
        <ele>965.3010254</ele>
        <time>2016-06-28T08:26:55Z</time>
      </trkpt>
      <trkpt lat="44.43486" lon="5.55985">
        <ele>965.3010254</ele>
        <time>2016-06-28T08:26:56Z</time>
      </trkpt>
      <trkpt lat="44.43487" lon="5.55953">
        <ele>961.4558105</ele>
        <time>2016-06-28T08:26:59Z</time>
      </trkpt>
      <trkpt lat="44.4351" lon="5.5592">
        <ele>960.4943848</ele>
        <time>2016-06-28T08:27:03Z</time>
      </trkpt>
      <trkpt lat="44.43528" lon="5.559">
        <ele>957.6105957</ele>
        <time>2016-06-28T08:27:06Z</time>
      </trkpt>
      <trkpt lat="44.43539" lon="5.5587">
        <ele>955.6877441</ele>
        <time>2016-06-28T08:27:09Z</time>
      </trkpt>
      <trkpt lat="44.43549" lon="5.55836">
        <ele>953.7651367</ele>
        <time>2016-06-28T08:27:12Z</time>
      </trkpt>
      <trkpt lat="44.43585" lon="5.55772">
        <ele>949.439209</ele>
        <time>2016-06-28T08:27:18Z</time>
      </trkpt>
      <trkpt lat="44.43592" lon="5.55764">
        <ele>949.439209</ele>
        <time>2016-06-28T08:27:19Z</time>
      </trkpt>
      <trkpt lat="44.43597" lon="5.55758">
        <ele>947.5166016</ele>
        <time>2016-06-28T08:27:20Z</time>
      </trkpt>
      <trkpt lat="44.4361" lon="5.55752">
        <ele>946.074707</ele>
        <time>2016-06-28T08:27:22Z</time>
      </trkpt>
      <trkpt lat="44.43635" lon="5.55774">
        <ele>945.1132813</ele>
        <time>2016-06-28T08:27:26Z</time>
      </trkpt>
      <trkpt lat="44.43651" lon="5.55807">
        <ele>942.7102051</ele>
        <time>2016-06-28T08:27:29Z</time>
      </trkpt>
      <trkpt lat="44.43665" lon="5.55854">
        <ele>939.3452148</ele>
        <time>2016-06-28T08:27:33Z</time>
      </trkpt>
      <trkpt lat="44.43676" lon="5.55878">
        <ele>935.5</ele>
        <time>2016-06-28T08:27:36Z</time>
      </trkpt>
      <trkpt lat="44.43681" lon="5.55883">
        <ele>934.0581055</ele>
        <time>2016-06-28T08:27:37Z</time>
      </trkpt>
      <trkpt lat="44.43713" lon="5.55871">
        <ele>930.6936035</ele>
        <time>2016-06-28T08:27:42Z</time>
      </trkpt>
      <trkpt lat="44.4372" lon="5.55863">
        <ele>930.6936035</ele>
        <time>2016-06-28T08:27:43Z</time>
      </trkpt>
      <trkpt lat="44.4374" lon="5.55833">
        <ele>928.2902832</ele>
        <time>2016-06-28T08:27:46Z</time>
      </trkpt>
      <trkpt lat="44.43769" lon="5.55807">
        <ele>925.40625</ele>
        <time>2016-06-28T08:27:50Z</time>
      </trkpt>
      <trkpt lat="44.43786" lon="5.55804">
        <ele>923.9641113</ele>
        <time>2016-06-28T08:27:52Z</time>
      </trkpt>
      <trkpt lat="44.43802" lon="5.55807">
        <ele>921.560791</ele>
        <time>2016-06-28T08:27:54Z</time>
      </trkpt>
      <trkpt lat="44.43808" lon="5.5581">
        <ele>920.1188965</ele>
        <time>2016-06-28T08:27:55Z</time>
      </trkpt>
      <trkpt lat="44.4382" lon="5.55817">
        <ele>918.1962891</ele>
        <time>2016-06-28T08:27:57Z</time>
      </trkpt>
      <trkpt lat="44.43834" lon="5.55814">
        <ele>917.7155762</ele>
        <time>2016-06-28T08:27:59Z</time>
      </trkpt>
      <trkpt lat="44.43845" lon="5.5581">
        <ele>916.7543945</ele>
        <time>2016-06-28T08:28:01Z</time>
      </trkpt>
      <trkpt lat="44.43858" lon="5.55793">
        <ele>914.8317871</ele>
        <time>2016-06-28T08:28:04Z</time>
      </trkpt>
      <trkpt lat="44.43889" lon="5.55735">
        <ele>911.4672852</ele>
        <time>2016-06-28T08:28:11Z</time>
      </trkpt>
      <trkpt lat="44.43896" lon="5.55725">
        <ele>909.5446777</ele>
        <time>2016-06-28T08:28:13Z</time>
      </trkpt>
      <trkpt lat="44.43904" lon="5.55744">
        <ele>906.6604004</ele>
        <time>2016-06-28T08:28:19Z</time>
      </trkpt>
      <trkpt lat="44.43902" lon="5.55751">
        <ele>906.6604004</ele>
        <time>2016-06-28T08:28:20Z</time>
      </trkpt>
      <trkpt lat="44.4387" lon="5.55828">
        <ele>903.7766113</ele>
        <time>2016-06-28T08:28:29Z</time>
      </trkpt>
      <trkpt lat="44.4385" lon="5.55847">
        <ele>901.373291</ele>
        <time>2016-06-28T08:28:33Z</time>
      </trkpt>
      <trkpt lat="44.4385" lon="5.55872">
        <ele>898.9699707</ele>
        <time>2016-06-28T08:28:40Z</time>
      </trkpt>
      <trkpt lat="44.43869" lon="5.55863">
        <ele>898.0087891</ele>
        <time>2016-06-28T08:28:43Z</time>
      </trkpt>
      <trkpt lat="44.43884" lon="5.55851">
        <ele>896.5668945</ele>
        <time>2016-06-28T08:28:45Z</time>
      </trkpt>
      <trkpt lat="44.43933" lon="5.55805">
        <ele>893.6828613</ele>
        <time>2016-06-28T08:28:51Z</time>
      </trkpt>
      <trkpt lat="44.43948" lon="5.55791">
        <ele>891.2792969</ele>
        <time>2016-06-28T08:28:53Z</time>
      </trkpt>
      <trkpt lat="44.43973" lon="5.55774">
        <ele>886.4729004</ele>
        <time>2016-06-28T08:28:56Z</time>
      </trkpt>
      <trkpt lat="44.43982" lon="5.5577">
        <ele>886.4729004</ele>
        <time>2016-06-28T08:28:57Z</time>
      </trkpt>
      <trkpt lat="44.43991" lon="5.55769">
        <ele>885.0310059</ele>
        <time>2016-06-28T08:28:58Z</time>
      </trkpt>
      <trkpt lat="44.44009" lon="5.55766">
        <ele>883.1081543</ele>
        <time>2016-06-28T08:29:00Z</time>
      </trkpt>
      <trkpt lat="44.44036" lon="5.55754">
        <ele>879.7436523</ele>
        <time>2016-06-28T08:29:03Z</time>
      </trkpt>
      <trkpt lat="44.44045" lon="5.5575">
        <ele>879.7436523</ele>
        <time>2016-06-28T08:29:04Z</time>
      </trkpt>
      <trkpt lat="44.44053" lon="5.55745">
        <ele>877.3405762</ele>
        <time>2016-06-28T08:29:05Z</time>
      </trkpt>
      <trkpt lat="44.4407" lon="5.5572">
        <ele>875.4174805</ele>
        <time>2016-06-28T08:29:08Z</time>
      </trkpt>
      <trkpt lat="44.44075" lon="5.55707">
        <ele>874.9370117</ele>
        <time>2016-06-28T08:29:09Z</time>
      </trkpt>
      <trkpt lat="44.44083" lon="5.5568">
        <ele>873.4951172</ele>
        <time>2016-06-28T08:29:11Z</time>
      </trkpt>
      <trkpt lat="44.44093" lon="5.55656">
        <ele>872.5336914</ele>
        <time>2016-06-28T08:29:13Z</time>
      </trkpt>
      <trkpt lat="44.44105" lon="5.55636">
        <ele>870.611084</ele>
        <time>2016-06-28T08:29:15Z</time>
      </trkpt>
      <trkpt lat="44.44121" lon="5.55622">
        <ele>867.246582</ele>
        <time>2016-06-28T08:29:17Z</time>
      </trkpt>
      <trkpt lat="44.44139" lon="5.55612">
        <ele>865.8046875</ele>
        <time>2016-06-28T08:29:19Z</time>
      </trkpt>
      <trkpt lat="44.44165" lon="5.55589">
        <ele>864.3625488</ele>
        <time>2016-06-28T08:29:22Z</time>
      </trkpt>
      <trkpt lat="44.44175" lon="5.55581">
        <ele>862.9206543</ele>
        <time>2016-06-28T08:29:23Z</time>
      </trkpt>
      <trkpt lat="44.44193" lon="5.55569">
        <ele>860.9980469</ele>
        <time>2016-06-28T08:29:25Z</time>
      </trkpt>
      <trkpt lat="44.44236" lon="5.55552">
        <ele>858.5944824</ele>
        <time>2016-06-28T08:29:29Z</time>
      </trkpt>
      <trkpt lat="44.44257" lon="5.55537">
        <ele>856.671875</ele>
        <time>2016-06-28T08:29:31Z</time>
      </trkpt>
      <trkpt lat="44.44289" lon="5.55516">
        <ele>854.2687988</ele>
        <time>2016-06-28T08:29:34Z</time>
      </trkpt>
      <trkpt lat="44.44307" lon="5.55503">
        <ele>851.3847656</ele>
        <time>2016-06-28T08:29:36Z</time>
      </trkpt>
      <trkpt lat="44.44343" lon="5.55464">
        <ele>848.0202637</ele>
        <time>2016-06-28T08:29:40Z</time>
      </trkpt>
      <trkpt lat="44.44351" lon="5.55453">
        <ele>848.0202637</ele>
        <time>2016-06-28T08:29:41Z</time>
      </trkpt>
      <trkpt lat="44.44366" lon="5.55434">
        <ele>846.0976563</ele>
        <time>2016-06-28T08:29:43Z</time>
      </trkpt>
      <trkpt lat="44.4438" lon="5.55416">
        <ele>844.1750488</ele>
        <time>2016-06-28T08:29:45Z</time>
      </trkpt>
      <trkpt lat="44.44445" lon="5.55315">
        <ele>841.2907715</ele>
        <time>2016-06-28T08:29:56Z</time>
      </trkpt>
      <trkpt lat="44.44482" lon="5.55205">
        <ele>837.4455566</ele>
        <time>2016-06-28T08:30:07Z</time>
      </trkpt>
      <trkpt lat="44.44485" lon="5.55195">
        <ele>837.4455566</ele>
        <time>2016-06-28T08:30:08Z</time>
      </trkpt>
      <trkpt lat="44.4449" lon="5.55175">
        <ele>836.484375</ele>
        <time>2016-06-28T08:30:10Z</time>
      </trkpt>
      <trkpt lat="44.44516" lon="5.55146">
        <ele>836.0036621</ele>
        <time>2016-06-28T08:30:15Z</time>
      </trkpt>
      <trkpt lat="44.4454" lon="5.55126">
        <ele>834.5617676</ele>
        <time>2016-06-28T08:30:18Z</time>
      </trkpt>
      <trkpt lat="44.44556" lon="5.55113">
        <ele>833.1196289</ele>
        <time>2016-06-28T08:30:20Z</time>
      </trkpt>
      <trkpt lat="44.44596" lon="5.55074">
        <ele>830.7165527</ele>
        <time>2016-06-28T08:30:25Z</time>
      </trkpt>
      <trkpt lat="44.44632" lon="5.55027">
        <ele>827.3518066</ele>
        <time>2016-06-28T08:30:30Z</time>
      </trkpt>
      <trkpt lat="44.44694" lon="5.54982">
        <ele>822.0644531</ele>
        <time>2016-06-28T08:30:38Z</time>
      </trkpt>
      <trkpt lat="44.44711" lon="5.54958">
        <ele>821.1032715</ele>
        <time>2016-06-28T08:30:41Z</time>
      </trkpt>
      <trkpt lat="44.44716" lon="5.54936">
        <ele>820.6225586</ele>
        <time>2016-06-28T08:30:43Z</time>
      </trkpt>
      <trkpt lat="44.44724" lon="5.54903">
        <ele>820.6225586</ele>
        <time>2016-06-28T08:30:46Z</time>
      </trkpt>
      <trkpt lat="44.44758" lon="5.54841">
        <ele>817.2580566</ele>
        <time>2016-06-28T08:30:52Z</time>
      </trkpt>
      <trkpt lat="44.44764" lon="5.5483">
        <ele>817.2580566</ele>
        <time>2016-06-28T08:30:53Z</time>
      </trkpt>
      <trkpt lat="44.4478" lon="5.54799">
        <ele>814.8547363</ele>
        <time>2016-06-28T08:30:56Z</time>
      </trkpt>
      <trkpt lat="44.44808" lon="5.5477">
        <ele>811.4899902</ele>
        <time>2016-06-28T08:31:01Z</time>
      </trkpt>
      <trkpt lat="44.44815" lon="5.54768">
        <ele>811.4899902</ele>
        <time>2016-06-28T08:31:02Z</time>
      </trkpt>
      <trkpt lat="44.44836" lon="5.54765">
        <ele>809.5673828</ele>
        <time>2016-06-28T08:31:05Z</time>
      </trkpt>
      <trkpt lat="44.44862" lon="5.54735">
        <ele>808.605957</ele>
        <time>2016-06-28T08:31:10Z</time>
      </trkpt>
      <trkpt lat="44.44885" lon="5.54665">
        <ele>806.2026367</ele>
        <time>2016-06-28T08:31:16Z</time>
      </trkpt>
      <trkpt lat="44.44904" lon="5.54587">
        <ele>802.3574219</ele>
        <time>2016-06-28T08:31:22Z</time>
      </trkpt>
      <trkpt lat="44.44906" lon="5.54575">
        <ele>802.3574219</ele>
        <time>2016-06-28T08:31:23Z</time>
      </trkpt>
      <trkpt lat="44.44909" lon="5.54554">
        <ele>800.4350586</ele>
        <time>2016-06-28T08:31:25Z</time>
      </trkpt>
      <trkpt lat="44.44914" lon="5.54535">
        <ele>799.4736328</ele>
        <time>2016-06-28T08:31:27Z</time>
      </trkpt>
      <trkpt lat="44.44948" lon="5.5447">
        <ele>796.1091309</ele>
        <time>2016-06-28T08:31:36Z</time>
      </trkpt>
      <trkpt lat="44.44999" lon="5.5436">
        <ele>794.1862793</ele>
        <time>2016-06-28T08:31:53Z</time>
      </trkpt>
      <trkpt lat="44.45015" lon="5.54319">
        <ele>793.7055664</ele>
        <time>2016-06-28T08:32:01Z</time>
      </trkpt>
      <trkpt lat="44.45017" lon="5.54312">
        <ele>793.7055664</ele>
        <time>2016-06-28T08:32:03Z</time>
      </trkpt>
      <trkpt lat="44.45016" lon="5.54296">
        <ele>793.7055664</ele>
        <time>2016-06-28T08:32:08Z</time>
      </trkpt>
      <trkpt lat="44.45028" lon="5.54271">
        <ele>793.7055664</ele>
        <time>2016-06-28T08:32:14Z</time>
      </trkpt>
      <trkpt lat="44.45028" lon="5.54264">
        <ele>793.7055664</ele>
        <time>2016-06-28T08:32:18Z</time>
      </trkpt>
      <trkpt lat="44.45024" lon="5.54272">
        <ele>792.7443848</ele>
        <time>2016-06-28T08:32:32Z</time>
      </trkpt>
      <trkpt lat="44.45025" lon="5.54273">
        <ele>792.7443848</ele>
        <time>2016-06-28T08:32:56Z</time>
      </trkpt>
      <trkpt lat="44.45031" lon="5.54269">
        <ele>793.2248535</ele>
        <time>2016-06-28T08:33:03Z</time>
      </trkpt>
      <trkpt lat="44.45044" lon="5.54226">
        <ele>793.7055664</ele>
        <time>2016-06-28T08:33:16Z</time>
      </trkpt>
      <trkpt lat="44.45058" lon="5.54174">
        <ele>793.7055664</ele>
        <time>2016-06-28T08:33:26Z</time>
      </trkpt>
      <trkpt lat="44.45059" lon="5.54168">
        <ele>793.7055664</ele>
        <time>2016-06-28T08:33:27Z</time>
      </trkpt>
      <trkpt lat="44.45073" lon="5.54109">
        <ele>792.7443848</ele>
        <time>2016-06-28T08:33:35Z</time>
      </trkpt>
      <trkpt lat="44.45086" lon="5.54083">
        <ele>791.782959</ele>
        <time>2016-06-28T08:33:38Z</time>
      </trkpt>
      <trkpt lat="44.45107" lon="5.54015">
        <ele>789.8603516</ele>
        <time>2016-06-28T08:33:45Z</time>
      </trkpt>
      <trkpt lat="44.45119" lon="5.53954">
        <ele>786.9763184</ele>
        <time>2016-06-28T08:33:50Z</time>
      </trkpt>
      <trkpt lat="44.45122" lon="5.53941">
        <ele>786.9763184</ele>
        <time>2016-06-28T08:33:51Z</time>
      </trkpt>
      <trkpt lat="44.45126" lon="5.53914">
        <ele>785.5344238</ele>
        <time>2016-06-28T08:33:53Z</time>
      </trkpt>
      <trkpt lat="44.45133" lon="5.53839">
        <ele>782.6506348</ele>
        <time>2016-06-28T08:33:58Z</time>
      </trkpt>
      <trkpt lat="44.45136" lon="5.53807">
        <ele>780.7280273</ele>
        <time>2016-06-28T08:34:00Z</time>
      </trkpt>
      <trkpt lat="44.45138" lon="5.53777">
        <ele>778.8051758</ele>
        <time>2016-06-28T08:34:02Z</time>
      </trkpt>
      <trkpt lat="44.4514" lon="5.53731">
        <ele>777.3632813</ele>
        <time>2016-06-28T08:34:05Z</time>
      </trkpt>
      <trkpt lat="44.45142" lon="5.53716">
        <ele>776.4018555</ele>
        <time>2016-06-28T08:34:06Z</time>
      </trkpt>
      <trkpt lat="44.4516" lon="5.53646">
        <ele>773.5180664</ele>
        <time>2016-06-28T08:34:11Z</time>
      </trkpt>
      <trkpt lat="44.45203" lon="5.53569">
        <ele>769.6728516</ele>
        <time>2016-06-28T08:34:18Z</time>
      </trkpt>
      <trkpt lat="44.45208" lon="5.53561">
        <ele>769.6728516</ele>
        <time>2016-06-28T08:34:19Z</time>
      </trkpt>
      <trkpt lat="44.45268" lon="5.53488">
        <ele>766.3081055</ele>
        <time>2016-06-28T08:34:29Z</time>
      </trkpt>
      <trkpt lat="44.45355" lon="5.534">
        <ele>763.4240723</ele>
        <time>2016-06-28T08:34:44Z</time>
      </trkpt>
      <trkpt lat="44.45463" lon="5.53292">
        <ele>761.5014648</ele>
        <time>2016-06-28T08:35:03Z</time>
      </trkpt>
      <trkpt lat="44.45545" lon="5.53205">
        <ele>758.1369629</ele>
        <time>2016-06-28T08:35:18Z</time>
      </trkpt>
      <trkpt lat="44.45625" lon="5.53114">
        <ele>754.291748</ele>
        <time>2016-06-28T08:35:31Z</time>
      </trkpt>
      <trkpt lat="44.45719" lon="5.53005">
        <ele>752.8496094</ele>
        <time>2016-06-28T08:35:48Z</time>
      </trkpt>
      <trkpt lat="44.45796" lon="5.52913">
        <ele>749.9658203</ele>
        <time>2016-06-28T08:36:01Z</time>
      </trkpt>
      <trkpt lat="44.45884" lon="5.52813">
        <ele>746.6010742</ele>
        <time>2016-06-28T08:36:15Z</time>
      </trkpt>
      <trkpt lat="44.45954" lon="5.52729">
        <ele>745.6396484</ele>
        <time>2016-06-28T08:36:30Z</time>
      </trkpt>
      <trkpt lat="44.46022" lon="5.52616">
        <ele>744.6782227</ele>
        <time>2016-06-28T08:36:48Z</time>
      </trkpt>
      <trkpt lat="44.4607" lon="5.52502">
        <ele>742.7558594</ele>
        <time>2016-06-28T08:37:04Z</time>
      </trkpt>
      <trkpt lat="44.46158" lon="5.52405">
        <ele>739.8718262</ele>
        <time>2016-06-28T08:37:20Z</time>
      </trkpt>
      <trkpt lat="44.46235" lon="5.52324">
        <ele>736.5073242</ele>
        <time>2016-06-28T08:37:32Z</time>
      </trkpt>
      <trkpt lat="44.46323" lon="5.52236">
        <ele>733.623291</ele>
        <time>2016-06-28T08:37:46Z</time>
      </trkpt>
      <trkpt lat="44.46355" lon="5.52229">
        <ele>733.623291</ele>
        <time>2016-06-28T08:37:51Z</time>
      </trkpt>
      <trkpt lat="44.46387" lon="5.52205">
        <ele>733.1425781</ele>
        <time>2016-06-28T08:37:57Z</time>
      </trkpt>
      <trkpt lat="44.46443" lon="5.52113">
        <ele>733.623291</ele>
        <time>2016-06-28T08:38:14Z</time>
      </trkpt>
      <trkpt lat="44.46488" lon="5.51998">
        <ele>731.2199707</ele>
        <time>2016-06-28T08:38:30Z</time>
      </trkpt>
      <trkpt lat="44.46537" lon="5.51892">
        <ele>727.3747559</ele>
        <time>2016-06-28T08:38:41Z</time>
      </trkpt>
      <trkpt lat="44.46549" lon="5.51874">
        <ele>726.4133301</ele>
        <time>2016-06-28T08:38:43Z</time>
      </trkpt>
      <trkpt lat="44.46623" lon="5.51787">
        <ele>723.529541</ele>
        <time>2016-06-28T08:38:55Z</time>
      </trkpt>
      <trkpt lat="44.46675" lon="5.51729">
        <ele>722.5681152</ele>
        <time>2016-06-28T08:39:06Z</time>
      </trkpt>
      <trkpt lat="44.46725" lon="5.51619">
        <ele>721.6066895</ele>
        <time>2016-06-28T08:39:23Z</time>
      </trkpt>
      <trkpt lat="44.46751" lon="5.5155">
        <ele>720.6455078</ele>
        <time>2016-06-28T08:39:33Z</time>
      </trkpt>
      <trkpt lat="44.46755" lon="5.51509">
        <ele>721.1262207</ele>
        <time>2016-06-28T08:39:39Z</time>
      </trkpt>
      <trkpt lat="44.46754" lon="5.51496">
        <ele>720.6455078</ele>
        <time>2016-06-28T08:39:41Z</time>
      </trkpt>
      <trkpt lat="44.46753" lon="5.51473">
        <ele>720.6455078</ele>
        <time>2016-06-28T08:39:45Z</time>
      </trkpt>
      <trkpt lat="44.46761" lon="5.51438">
        <ele>720.1647949</ele>
        <time>2016-06-28T08:39:50Z</time>
      </trkpt>
      <trkpt lat="44.46766" lon="5.5142">
        <ele>719.2036133</ele>
        <time>2016-06-28T08:39:52Z</time>
      </trkpt>
      <trkpt lat="44.46771" lon="5.51379">
        <ele>717.2810059</ele>
        <time>2016-06-28T08:39:56Z</time>
      </trkpt>
      <trkpt lat="44.46768" lon="5.51315">
        <ele>715.3581543</ele>
        <time>2016-06-28T08:40:02Z</time>
      </trkpt>
      <trkpt lat="44.46787" lon="5.51215">
        <ele>714.8774414</ele>
        <time>2016-06-28T08:40:14Z</time>
      </trkpt>
      <trkpt lat="44.46805" lon="5.51146">
        <ele>714.8774414</ele>
        <time>2016-06-28T08:40:26Z</time>
      </trkpt>
      <trkpt lat="44.46808" lon="5.51133">
        <ele>714.3967285</ele>
        <time>2016-06-28T08:40:28Z</time>
      </trkpt>
      <trkpt lat="44.46813" lon="5.51083">
        <ele>713.4355469</ele>
        <time>2016-06-28T08:40:35Z</time>
      </trkpt>
      <trkpt lat="44.46825" lon="5.51047">
        <ele>712.954834</ele>
        <time>2016-06-28T08:40:41Z</time>
      </trkpt>
      <trkpt lat="44.4688" lon="5.50968">
        <ele>714.3967285</ele>
        <time>2016-06-28T08:41:02Z</time>
      </trkpt>
      <trkpt lat="44.46915" lon="5.50905">
        <ele>714.3967285</ele>
        <time>2016-06-28T08:41:18Z</time>
      </trkpt>
      <trkpt lat="44.46906" lon="5.50879">
        <ele>713.9160156</ele>
        <time>2016-06-28T08:41:25Z</time>
      </trkpt>
      <trkpt lat="44.46869" lon="5.50862">
        <ele>712.954834</ele>
        <time>2016-06-28T08:41:32Z</time>
      </trkpt>
      <trkpt lat="44.46801" lon="5.5081">
        <ele>709.1096191</ele>
        <time>2016-06-28T08:41:42Z</time>
      </trkpt>
      <trkpt lat="44.46779" lon="5.50798">
        <ele>708.6289063</ele>
        <time>2016-06-28T08:41:45Z</time>
      </trkpt>
      <trkpt lat="44.46758" lon="5.50768">
        <ele>707.6677246</ele>
        <time>2016-06-28T08:41:49Z</time>
      </trkpt>
      <trkpt lat="44.46776" lon="5.50678">
        <ele>705.2644043</ele>
        <time>2016-06-28T08:41:58Z</time>
      </trkpt>
      <trkpt lat="44.4681" lon="5.50594">
        <ele>703.8225098</ele>
        <time>2016-06-28T08:42:07Z</time>
      </trkpt>
      <trkpt lat="44.46814" lon="5.50576">
        <ele>703.8225098</ele>
        <time>2016-06-28T08:42:09Z</time>
      </trkpt>
      <trkpt lat="44.46819" lon="5.50538">
        <ele>702.3803711</ele>
        <time>2016-06-28T08:42:13Z</time>
      </trkpt>
      <trkpt lat="44.4682" lon="5.50435">
        <ele>701.8999023</ele>
        <time>2016-06-28T08:42:24Z</time>
      </trkpt>
      <trkpt lat="44.46825" lon="5.50411">
        <ele>701.8999023</ele>
        <time>2016-06-28T08:42:27Z</time>
      </trkpt>
      <trkpt lat="44.46835" lon="5.50359">
        <ele>701.4191895</ele>
        <time>2016-06-28T08:42:34Z</time>
      </trkpt>
      <trkpt lat="44.46836" lon="5.50322">
        <ele>701.4191895</ele>
        <time>2016-06-28T08:42:39Z</time>
      </trkpt>
      <trkpt lat="44.46834" lon="5.50307">
        <ele>700.4580078</ele>
        <time>2016-06-28T08:42:41Z</time>
      </trkpt>
      <trkpt lat="44.46829" lon="5.50291">
        <ele>700.4580078</ele>
        <time>2016-06-28T08:42:43Z</time>
      </trkpt>
      <trkpt lat="44.46795" lon="5.50226">
        <ele>699.015625</ele>
        <time>2016-06-28T08:42:51Z</time>
      </trkpt>
      <trkpt lat="44.46787" lon="5.50209">
        <ele>699.015625</ele>
        <time>2016-06-28T08:42:53Z</time>
      </trkpt>
      <trkpt lat="44.46781" lon="5.501">
        <ele>696.6125488</ele>
        <time>2016-06-28T08:43:04Z</time>
      </trkpt>
      <trkpt lat="44.46772" lon="5.49989">
        <ele>695.651123</ele>
        <time>2016-06-28T08:43:16Z</time>
      </trkpt>
      <trkpt lat="44.46768" lon="5.49924">
        <ele>694.2092285</ele>
        <time>2016-06-28T08:43:23Z</time>
      </trkpt>
      <trkpt lat="44.4675" lon="5.49795">
        <ele>692.767334</ele>
        <time>2016-06-28T08:43:36Z</time>
      </trkpt>
      <trkpt lat="44.46727" lon="5.49637">
        <ele>690.3640137</ele>
        <time>2016-06-28T08:43:54Z</time>
      </trkpt>
      <trkpt lat="44.46715" lon="5.49555">
        <ele>689.8833008</ele>
        <time>2016-06-28T08:44:04Z</time>
      </trkpt>
      <trkpt lat="44.46707" lon="5.49496">
        <ele>689.8833008</ele>
        <time>2016-06-28T08:44:12Z</time>
      </trkpt>
      <trkpt lat="44.46675" lon="5.49381">
        <ele>687.4799805</ele>
        <time>2016-06-28T08:44:26Z</time>
      </trkpt>
      <trkpt lat="44.46647" lon="5.49285">
        <ele>685.0769043</ele>
        <time>2016-06-28T08:44:35Z</time>
      </trkpt>
      <trkpt lat="44.46647" lon="5.4924">
        <ele>684.1154785</ele>
        <time>2016-06-28T08:44:39Z</time>
      </trkpt>
      <trkpt lat="44.46686" lon="5.49098">
        <ele>681.2314453</ele>
        <time>2016-06-28T08:44:53Z</time>
      </trkpt>
      <trkpt lat="44.4671" lon="5.48971">
        <ele>679.3085938</ele>
        <time>2016-06-28T08:45:07Z</time>
      </trkpt>
      <trkpt lat="44.46725" lon="5.48794">
        <ele>678.828125</ele>
        <time>2016-06-28T08:45:29Z</time>
      </trkpt>
      <trkpt lat="44.46737" lon="5.4868">
        <ele>676.4248047</ele>
        <time>2016-06-28T08:45:42Z</time>
      </trkpt>
      <trkpt lat="44.46743" lon="5.48641">
        <ele>675.4633789</ele>
        <time>2016-06-28T08:45:46Z</time>
      </trkpt>
      <trkpt lat="44.46797" lon="5.4852">
        <ele>673.0603027</ele>
        <time>2016-06-28T08:46:01Z</time>
      </trkpt>
      <trkpt lat="44.46805" lon="5.48496">
        <ele>673.0603027</ele>
        <time>2016-06-28T08:46:04Z</time>
      </trkpt>
      <trkpt lat="44.46805" lon="5.48367">
        <ele>672.5795898</ele>
        <time>2016-06-28T08:46:16Z</time>
      </trkpt>
      <trkpt lat="44.46807" lon="5.4827">
        <ele>671.6181641</ele>
        <time>2016-06-28T08:46:25Z</time>
      </trkpt>
      <trkpt lat="44.46813" lon="5.48097">
        <ele>669.6958008</ele>
        <time>2016-06-28T08:46:44Z</time>
      </trkpt>
      <trkpt lat="44.46822" lon="5.47945">
        <ele>666.3308105</ele>
        <time>2016-06-28T08:46:59Z</time>
      </trkpt>
      <trkpt lat="44.46825" lon="5.47876">
        <ele>665.8503418</ele>
        <time>2016-06-28T08:47:08Z</time>
      </trkpt>
      <trkpt lat="44.46826" lon="5.47815">
        <ele>665.3696289</ele>
        <time>2016-06-28T08:47:17Z</time>
      </trkpt>
      <trkpt lat="44.46806" lon="5.47785">
        <ele>664.4082031</ele>
        <time>2016-06-28T08:47:24Z</time>
      </trkpt>
      <trkpt lat="44.46751" lon="5.47771">
        <ele>665.3696289</ele>
        <time>2016-06-28T08:47:39Z</time>
      </trkpt>
      <trkpt lat="44.46744" lon="5.4777">
        <ele>664.4082031</ele>
        <time>2016-06-28T08:47:49Z</time>
      </trkpt>
      <trkpt lat="44.46744" lon="5.4777">
        <ele>664.888916</ele>
        <time>2016-06-28T08:48:15Z</time>
      </trkpt>
      <trkpt lat="44.46743" lon="5.47771">
        <ele>664.4082031</ele>
        <time>2016-06-28T08:49:28Z</time>
      </trkpt>
      <trkpt lat="44.46725" lon="5.47775">
        <ele>664.4082031</ele>
        <time>2016-06-28T08:49:41Z</time>
      </trkpt>
      <trkpt lat="44.4671" lon="5.47776">
        <ele>666.3308105</ele>
        <time>2016-06-28T08:49:45Z</time>
      </trkpt>
      <trkpt lat="44.46666" lon="5.47773">
        <ele>666.8115234</ele>
        <time>2016-06-28T08:49:58Z</time>
      </trkpt>
      <trkpt lat="44.46633" lon="5.47746">
        <ele>669.2150879</ele>
        <time>2016-06-28T08:50:13Z</time>
      </trkpt>
      <trkpt lat="44.46615" lon="5.47682">
        <ele>667.7727051</ele>
        <time>2016-06-28T08:50:27Z</time>
      </trkpt>
      <trkpt lat="44.46607" lon="5.47596">
        <ele>669.2150879</ele>
        <time>2016-06-28T08:50:45Z</time>
      </trkpt>
      <trkpt lat="44.46625" lon="5.47553">
        <ele>669.2150879</ele>
        <time>2016-06-28T08:50:55Z</time>
      </trkpt>
      <trkpt lat="44.46632" lon="5.47522">
        <ele>668.734375</ele>
        <time>2016-06-28T08:51:00Z</time>
      </trkpt>
      <trkpt lat="44.46635" lon="5.47433">
        <ele>666.8115234</ele>
        <time>2016-06-28T08:51:14Z</time>
      </trkpt>
      <trkpt lat="44.4664" lon="5.47407">
        <ele>666.3308105</ele>
        <time>2016-06-28T08:51:19Z</time>
      </trkpt>
      <trkpt lat="44.46652" lon="5.47386">
        <ele>666.3308105</ele>
        <time>2016-06-28T08:51:23Z</time>
      </trkpt>
      <trkpt lat="44.46678" lon="5.47357">
        <ele>665.3696289</ele>
        <time>2016-06-28T08:51:30Z</time>
      </trkpt>
      <trkpt lat="44.46686" lon="5.47332">
        <ele>665.3696289</ele>
        <time>2016-06-28T08:51:35Z</time>
      </trkpt>
      <trkpt lat="44.46686" lon="5.47272">
        <ele>665.8503418</ele>
        <time>2016-06-28T08:51:48Z</time>
      </trkpt>
      <trkpt lat="44.46684" lon="5.4722">
        <ele>667.2922363</ele>
        <time>2016-06-28T08:52:03Z</time>
      </trkpt>
      <trkpt lat="44.46662" lon="5.47171">
        <ele>670.6569824</ele>
        <time>2016-06-28T08:52:23Z</time>
      </trkpt>
      <trkpt lat="44.46661" lon="5.47125">
        <ele>673.0603027</ele>
        <time>2016-06-28T08:52:39Z</time>
      </trkpt>
      <trkpt lat="44.46669" lon="5.47075">
        <ele>676.4248047</ele>
        <time>2016-06-28T08:52:58Z</time>
      </trkpt>
      <trkpt lat="44.46683" lon="5.47033">
        <ele>679.7893066</ele>
        <time>2016-06-28T08:53:17Z</time>
      </trkpt>
      <trkpt lat="44.46685" lon="5.46995">
        <ele>681.7119141</ele>
        <time>2016-06-28T08:53:33Z</time>
      </trkpt>
      <trkpt lat="44.46713" lon="5.46965">
        <ele>684.5961914</ele>
        <time>2016-06-28T08:53:54Z</time>
      </trkpt>
      <trkpt lat="44.46714" lon="5.46908">
        <ele>686.9992676</ele>
        <time>2016-06-28T08:54:15Z</time>
      </trkpt>
      <trkpt lat="44.46702" lon="5.46861">
        <ele>688.9221191</ele>
        <time>2016-06-28T08:54:34Z</time>
      </trkpt>
      <trkpt lat="44.46661" lon="5.46813">
        <ele>692.2866211</ele>
        <time>2016-06-28T08:55:01Z</time>
      </trkpt>
      <trkpt lat="44.46624" lon="5.46779">
        <ele>695.1704102</ele>
        <time>2016-06-28T08:55:22Z</time>
      </trkpt>
      <trkpt lat="44.46596" lon="5.46735">
        <ele>696.6125488</ele>
        <time>2016-06-28T08:55:44Z</time>
      </trkpt>
      <trkpt lat="44.46582" lon="5.46681">
        <ele>699.4963379</ele>
        <time>2016-06-28T08:56:06Z</time>
      </trkpt>
      <trkpt lat="44.46587" lon="5.46633">
        <ele>701.8999023</ele>
        <time>2016-06-28T08:56:24Z</time>
      </trkpt>
      <trkpt lat="44.46588" lon="5.46631">
        <ele>701.8999023</ele>
        <time>2016-06-28T08:56:25Z</time>
      </trkpt>
      <trkpt lat="44.46614" lon="5.46605">
        <ele>704.3032227</ele>
        <time>2016-06-28T08:56:43Z</time>
      </trkpt>
      <trkpt lat="44.46645" lon="5.46597">
        <ele>706.7062988</ele>
        <time>2016-06-28T08:56:59Z</time>
      </trkpt>
      <trkpt lat="44.46668" lon="5.46591">
        <ele>708.6289063</ele>
        <time>2016-06-28T08:57:13Z</time>
      </trkpt>
      <trkpt lat="44.4669" lon="5.46559">
        <ele>710.5515137</ele>
        <time>2016-06-28T08:57:29Z</time>
      </trkpt>
      <trkpt lat="44.4668" lon="5.4651">
        <ele>712.4741211</ele>
        <time>2016-06-28T08:57:49Z</time>
      </trkpt>
      <trkpt lat="44.46642" lon="5.46484">
        <ele>715.3581543</ele>
        <time>2016-06-28T08:58:10Z</time>
      </trkpt>
      <trkpt lat="44.46614" lon="5.46459">
        <ele>717.2810059</ele>
        <time>2016-06-28T08:58:28Z</time>
      </trkpt>
      <trkpt lat="44.46596" lon="5.46444">
        <ele>718.7229004</ele>
        <time>2016-06-28T08:58:39Z</time>
      </trkpt>
      <trkpt lat="44.46594" lon="5.46443">
        <ele>718.7229004</ele>
        <time>2016-06-28T08:59:03Z</time>
      </trkpt>
      <trkpt lat="44.46594" lon="5.46442">
        <ele>718.7229004</ele>
        <time>2016-06-28T08:59:12Z</time>
      </trkpt>
      <trkpt lat="44.46592" lon="5.46436">
        <ele>719.2036133</ele>
        <time>2016-06-28T08:59:16Z</time>
      </trkpt>
      <trkpt lat="44.46586" lon="5.46388">
        <ele>721.1262207</ele>
        <time>2016-06-28T08:59:33Z</time>
      </trkpt>
      <trkpt lat="44.46588" lon="5.46341">
        <ele>724.0100098</ele>
        <time>2016-06-28T08:59:52Z</time>
      </trkpt>
      <trkpt lat="44.46591" lon="5.46305">
        <ele>725.9326172</ele>
        <time>2016-06-28T09:00:06Z</time>
      </trkpt>
      <trkpt lat="44.46591" lon="5.46284">
        <ele>727.3747559</ele>
        <time>2016-06-28T09:00:15Z</time>
      </trkpt>
      <trkpt lat="44.46591" lon="5.46241">
        <ele>729.777832</ele>
        <time>2016-06-28T09:00:31Z</time>
      </trkpt>
      <trkpt lat="44.46569" lon="5.46209">
        <ele>731.7004395</ele>
        <time>2016-06-28T09:00:48Z</time>
      </trkpt>
      <trkpt lat="44.46542" lon="5.46172">
        <ele>734.1040039</ele>
        <time>2016-06-28T09:01:09Z</time>
      </trkpt>
      <trkpt lat="44.4654" lon="5.46169">
        <ele>734.5847168</ele>
        <time>2016-06-28T09:01:11Z</time>
      </trkpt>
      <trkpt lat="44.46531" lon="5.46123">
        <ele>737.4685059</ele>
        <time>2016-06-28T09:01:30Z</time>
      </trkpt>
      <trkpt lat="44.4653" lon="5.46089">
        <ele>738.4299316</ele>
        <time>2016-06-28T09:01:43Z</time>
      </trkpt>
      <trkpt lat="44.46508" lon="5.46033">
        <ele>740.8330078</ele>
        <time>2016-06-28T09:02:07Z</time>
      </trkpt>
      <trkpt lat="44.4649" lon="5.46">
        <ele>743.2363281</ele>
        <time>2016-06-28T09:02:24Z</time>
      </trkpt>
      <trkpt lat="44.46502" lon="5.45975">
        <ele>742.7558594</ele>
        <time>2016-06-28T09:02:34Z</time>
      </trkpt>
      <trkpt lat="44.46533" lon="5.4596">
        <ele>742.7558594</ele>
        <time>2016-06-28T09:02:50Z</time>
      </trkpt>
      <trkpt lat="44.46541" lon="5.45911">
        <ele>743.717041</ele>
        <time>2016-06-28T09:03:05Z</time>
      </trkpt>
      <trkpt lat="44.46565" lon="5.45869">
        <ele>743.717041</ele>
        <time>2016-06-28T09:03:20Z</time>
      </trkpt>
      <trkpt lat="44.46587" lon="5.45846">
        <ele>741.7944336</ele>
        <time>2016-06-28T09:03:25Z</time>
      </trkpt>
      <trkpt lat="44.466" lon="5.45819">
        <ele>741.3137207</ele>
        <time>2016-06-28T09:03:29Z</time>
      </trkpt>
      <trkpt lat="44.46605" lon="5.45791">
        <ele>739.8718262</ele>
        <time>2016-06-28T09:03:33Z</time>
      </trkpt>
      <trkpt lat="44.46605" lon="5.45775">
        <ele>738.9106445</ele>
        <time>2016-06-28T09:03:35Z</time>
      </trkpt>
      <trkpt lat="44.46605" lon="5.4576">
        <ele>738.4299316</ele>
        <time>2016-06-28T09:03:37Z</time>
      </trkpt>
      <trkpt lat="44.46612" lon="5.45728">
        <ele>736.987793</ele>
        <time>2016-06-28T09:03:41Z</time>
      </trkpt>
      <trkpt lat="44.46625" lon="5.45684">
        <ele>733.1425781</ele>
        <time>2016-06-28T09:03:47Z</time>
      </trkpt>
      <trkpt lat="44.46627" lon="5.45679">
        <ele>733.1425781</ele>
        <time>2016-06-28T09:03:48Z</time>
      </trkpt>
      <trkpt lat="44.46628" lon="5.45673">
        <ele>732.1813965</ele>
        <time>2016-06-28T09:03:49Z</time>
      </trkpt>
      <trkpt lat="44.46614" lon="5.45673">
        <ele>729.777832</ele>
        <time>2016-06-28T09:03:56Z</time>
      </trkpt>
      <trkpt lat="44.46612" lon="5.45679">
        <ele>729.777832</ele>
        <time>2016-06-28T09:03:57Z</time>
      </trkpt>
      <trkpt lat="44.46602" lon="5.45712">
        <ele>729.2971191</ele>
        <time>2016-06-28T09:04:01Z</time>
      </trkpt>
      <trkpt lat="44.46588" lon="5.45735">
        <ele>727.3747559</ele>
        <time>2016-06-28T09:04:04Z</time>
      </trkpt>
      <trkpt lat="44.46582" lon="5.45742">
        <ele>726.4133301</ele>
        <time>2016-06-28T09:04:05Z</time>
      </trkpt>
      <trkpt lat="44.46555" lon="5.45757">
        <ele>724.9714355</ele>
        <time>2016-06-28T09:04:09Z</time>
      </trkpt>
      <trkpt lat="44.46539" lon="5.45757">
        <ele>723.529541</ele>
        <time>2016-06-28T09:04:11Z</time>
      </trkpt>
      <trkpt lat="44.46506" lon="5.45758">
        <ele>721.6066895</ele>
        <time>2016-06-28T09:04:15Z</time>
      </trkpt>
      <trkpt lat="44.46477" lon="5.45757">
        <ele>719.6843262</ele>
        <time>2016-06-28T09:04:18Z</time>
      </trkpt>
      <trkpt lat="44.46447" lon="5.45754">
        <ele>716.800293</ele>
        <time>2016-06-28T09:04:22Z</time>
      </trkpt>
      <trkpt lat="44.4642" lon="5.45737">
        <ele>714.3967285</ele>
        <time>2016-06-28T09:04:26Z</time>
      </trkpt>
      <trkpt lat="44.46374" lon="5.45686">
        <ele>711.5129395</ele>
        <time>2016-06-28T09:04:34Z</time>
      </trkpt>
      <trkpt lat="44.46344" lon="5.45649">
        <ele>709.1096191</ele>
        <time>2016-06-28T09:04:39Z</time>
      </trkpt>
      <trkpt lat="44.46308" lon="5.45611">
        <ele>705.2644043</ele>
        <time>2016-06-28T09:04:44Z</time>
      </trkpt>
      <trkpt lat="44.46301" lon="5.45604">
        <ele>705.2644043</ele>
        <time>2016-06-28T09:04:45Z</time>
      </trkpt>
      <trkpt lat="44.46287" lon="5.4559">
        <ele>701.8999023</ele>
        <time>2016-06-28T09:04:47Z</time>
      </trkpt>
      <trkpt lat="44.4628" lon="5.45585">
        <ele>701.8999023</ele>
        <time>2016-06-28T09:04:48Z</time>
      </trkpt>
      <trkpt lat="44.46235" lon="5.4556">
        <ele>698.0544434</ele>
        <time>2016-06-28T09:04:54Z</time>
      </trkpt>
      <trkpt lat="44.46229" lon="5.45556">
        <ele>698.0544434</ele>
        <time>2016-06-28T09:04:55Z</time>
      </trkpt>
      <trkpt lat="44.46185" lon="5.4553">
        <ele>695.651123</ele>
        <time>2016-06-28T09:05:02Z</time>
      </trkpt>
      <trkpt lat="44.46162" lon="5.4552">
        <ele>694.2092285</ele>
        <time>2016-06-28T09:05:06Z</time>
      </trkpt>
      <trkpt lat="44.46154" lon="5.45507">
        <ele>692.2866211</ele>
        <time>2016-06-28T09:05:09Z</time>
      </trkpt>
      <trkpt lat="44.46167" lon="5.45489">
        <ele>691.3251953</ele>
        <time>2016-06-28T09:05:13Z</time>
      </trkpt>
      <trkpt lat="44.46188" lon="5.45478">
        <ele>689.8833008</ele>
        <time>2016-06-28T09:05:16Z</time>
      </trkpt>
      <trkpt lat="44.46214" lon="5.45463">
        <ele>688.9221191</ele>
        <time>2016-06-28T09:05:20Z</time>
      </trkpt>
      <trkpt lat="44.46222" lon="5.45454">
        <ele>687.4799805</ele>
        <time>2016-06-28T09:05:22Z</time>
      </trkpt>
      <trkpt lat="44.46223" lon="5.45442">
        <ele>686.0380859</ele>
        <time>2016-06-28T09:05:24Z</time>
      </trkpt>
      <trkpt lat="44.46206" lon="5.45427">
        <ele>685.0769043</ele>
        <time>2016-06-28T09:05:28Z</time>
      </trkpt>
      <trkpt lat="44.46196" lon="5.45426">
        <ele>684.5961914</ele>
        <time>2016-06-28T09:05:30Z</time>
      </trkpt>
      <trkpt lat="44.46126" lon="5.45439">
        <ele>680.2700195</ele>
        <time>2016-06-28T09:05:40Z</time>
      </trkpt>
      <trkpt lat="44.46094" lon="5.45463">
        <ele>677.3862305</ele>
        <time>2016-06-28T09:05:45Z</time>
      </trkpt>
      <trkpt lat="44.46069" lon="5.45478">
        <ele>675.9440918</ele>
        <time>2016-06-28T09:05:49Z</time>
      </trkpt>
      <trkpt lat="44.46043" lon="5.4548">
        <ele>674.9829102</ele>
        <time>2016-06-28T09:05:53Z</time>
      </trkpt>
      <trkpt lat="44.46004" lon="5.4548">
        <ele>675.9440918</ele>
        <time>2016-06-28T09:06:05Z</time>
      </trkpt>
      <trkpt lat="44.4596" lon="5.45474">
        <ele>678.828125</ele>
        <time>2016-06-28T09:06:24Z</time>
      </trkpt>
      <trkpt lat="44.45922" lon="5.45466">
        <ele>681.2314453</ele>
        <time>2016-06-28T09:06:44Z</time>
      </trkpt>
      <trkpt lat="44.4588" lon="5.45453">
        <ele>683.6345215</ele>
        <time>2016-06-28T09:07:03Z</time>
      </trkpt>
      <trkpt lat="44.4585" lon="5.45463">
        <ele>685.0769043</ele>
        <time>2016-06-28T09:07:16Z</time>
      </trkpt>
      <trkpt lat="44.45817" lon="5.45466">
        <ele>686.0380859</ele>
        <time>2016-06-28T09:07:30Z</time>
      </trkpt>
      <trkpt lat="44.45788" lon="5.45472">
        <ele>686.9992676</ele>
        <time>2016-06-28T09:07:44Z</time>
      </trkpt>
      <trkpt lat="44.45761" lon="5.45482">
        <ele>688.4414063</ele>
        <time>2016-06-28T09:07:58Z</time>
      </trkpt>
      <trkpt lat="44.45745" lon="5.45485">
        <ele>688.9221191</ele>
        <time>2016-06-28T09:08:06Z</time>
      </trkpt>
      <trkpt lat="44.45709" lon="5.45508">
        <ele>690.3640137</ele>
        <time>2016-06-28T09:08:23Z</time>
      </trkpt>
      <trkpt lat="44.45688" lon="5.45533">
        <ele>691.3251953</ele>
        <time>2016-06-28T09:08:38Z</time>
      </trkpt>
      <trkpt lat="44.45664" lon="5.45531">
        <ele>692.2866211</ele>
        <time>2016-06-28T09:08:49Z</time>
      </trkpt>
      <trkpt lat="44.45627" lon="5.45518">
        <ele>694.2092285</ele>
        <time>2016-06-28T09:09:04Z</time>
      </trkpt>
      <trkpt lat="44.45601" lon="5.45513">
        <ele>695.1704102</ele>
        <time>2016-06-28T09:09:18Z</time>
      </trkpt>
      <trkpt lat="44.45592" lon="5.45509">
        <ele>695.651123</ele>
        <time>2016-06-28T09:09:23Z</time>
      </trkpt>
      <trkpt lat="44.45573" lon="5.45503">
        <ele>697.0930176</ele>
        <time>2016-06-28T09:09:34Z</time>
      </trkpt>
      <trkpt lat="44.45544" lon="5.45498">
        <ele>698.5349121</ele>
        <time>2016-06-28T09:09:49Z</time>
      </trkpt>
      <trkpt lat="44.4551" lon="5.45487">
        <ele>700.4580078</ele>
        <time>2016-06-28T09:10:05Z</time>
      </trkpt>
      <trkpt lat="44.45472" lon="5.45486">
        <ele>701.8999023</ele>
        <time>2016-06-28T09:10:21Z</time>
      </trkpt>
      <trkpt lat="44.45437" lon="5.45491">
        <ele>703.8225098</ele>
        <time>2016-06-28T09:10:36Z</time>
      </trkpt>
      <trkpt lat="44.45411" lon="5.45485">
        <ele>705.7451172</ele>
        <time>2016-06-28T09:10:53Z</time>
      </trkpt>
      <trkpt lat="44.45382" lon="5.45484">
        <ele>708.1484375</ele>
        <time>2016-06-28T09:11:08Z</time>
      </trkpt>
      <trkpt lat="44.45354" lon="5.45481">
        <ele>710.5515137</ele>
        <time>2016-06-28T09:11:26Z</time>
      </trkpt>
      <trkpt lat="44.45332" lon="5.45477">
        <ele>712.4741211</ele>
        <time>2016-06-28T09:11:42Z</time>
      </trkpt>
      <trkpt lat="44.45296" lon="5.45458">
        <ele>715.3581543</ele>
        <time>2016-06-28T09:12:01Z</time>
      </trkpt>
      <trkpt lat="44.45287" lon="5.45451">
        <ele>716.3195801</ele>
        <time>2016-06-28T09:12:08Z</time>
      </trkpt>
      <trkpt lat="44.45279" lon="5.45446">
        <ele>717.7614746</ele>
        <time>2016-06-28T09:12:14Z</time>
      </trkpt>
      <trkpt lat="44.45277" lon="5.45445">
        <ele>717.7614746</ele>
        <time>2016-06-28T09:12:16Z</time>
      </trkpt>
      <trkpt lat="44.45267" lon="5.4544">
        <ele>718.7229004</ele>
        <time>2016-06-28T09:12:23Z</time>
      </trkpt>
      <trkpt lat="44.45244" lon="5.45436">
        <ele>721.1262207</ele>
        <time>2016-06-28T09:12:39Z</time>
      </trkpt>
      <trkpt lat="44.45222" lon="5.45448">
        <ele>723.529541</ele>
        <time>2016-06-28T09:12:53Z</time>
      </trkpt>
      <trkpt lat="44.45211" lon="5.45458">
        <ele>724.4907227</ele>
        <time>2016-06-28T09:13:01Z</time>
      </trkpt>
      <trkpt lat="44.45203" lon="5.45466">
        <ele>724.4907227</ele>
        <time>2016-06-28T09:13:07Z</time>
      </trkpt>
      <trkpt lat="44.452" lon="5.45469">
        <ele>724.4907227</ele>
        <time>2016-06-28T09:13:10Z</time>
      </trkpt>
      <trkpt lat="44.45189" lon="5.45472">
        <ele>725.4519043</ele>
        <time>2016-06-28T09:13:16Z</time>
      </trkpt>
      <trkpt lat="44.45179" lon="5.45489">
        <ele>727.8552246</ele>
        <time>2016-06-28T09:13:33Z</time>
      </trkpt>
      <trkpt lat="44.45174" lon="5.45489">
        <ele>728.3359375</ele>
        <time>2016-06-28T09:13:37Z</time>
      </trkpt>
      <trkpt lat="44.45151" lon="5.4548">
        <ele>729.2971191</ele>
        <time>2016-06-28T09:13:48Z</time>
      </trkpt>
      <trkpt lat="44.45134" lon="5.45468">
        <ele>731.2199707</ele>
        <time>2016-06-28T09:14:00Z</time>
      </trkpt>
      <trkpt lat="44.45127" lon="5.45469">
        <ele>732.6621094</ele>
        <time>2016-06-28T09:14:09Z</time>
      </trkpt>
      <trkpt lat="44.45089" lon="5.45483">
        <ele>735.0654297</ele>
        <time>2016-06-28T09:14:25Z</time>
      </trkpt>
      <trkpt lat="44.45084" lon="5.45493">
        <ele>736.0266113</ele>
        <time>2016-06-28T09:14:31Z</time>
      </trkpt>
      <trkpt lat="44.45069" lon="5.45499">
        <ele>737.4685059</ele>
        <time>2016-06-28T09:14:40Z</time>
      </trkpt>
      <trkpt lat="44.45065" lon="5.45507">
        <ele>738.4299316</ele>
        <time>2016-06-28T09:14:47Z</time>
      </trkpt>
      <trkpt lat="44.45063" lon="5.45529">
        <ele>740.3525391</ele>
        <time>2016-06-28T09:14:59Z</time>
      </trkpt>
      <trkpt lat="44.45058" lon="5.45533">
        <ele>740.8330078</ele>
        <time>2016-06-28T09:15:02Z</time>
      </trkpt>
      <trkpt lat="44.45055" lon="5.45539">
        <ele>741.3137207</ele>
        <time>2016-06-28T09:15:06Z</time>
      </trkpt>
      <trkpt lat="44.45048" lon="5.45545">
        <ele>742.2751465</ele>
        <time>2016-06-28T09:15:12Z</time>
      </trkpt>
      <trkpt lat="44.45036" lon="5.45561">
        <ele>744.1977539</ele>
        <time>2016-06-28T09:15:24Z</time>
      </trkpt>
      <trkpt lat="44.45027" lon="5.45569">
        <ele>745.1589355</ele>
        <time>2016-06-28T09:15:32Z</time>
      </trkpt>
      <trkpt lat="44.44999" lon="5.45586">
        <ele>748.0432129</ele>
        <time>2016-06-28T09:15:51Z</time>
      </trkpt>
      <trkpt lat="44.44997" lon="5.45587">
        <ele>748.0432129</ele>
        <time>2016-06-28T09:15:53Z</time>
      </trkpt>
      <trkpt lat="44.44977" lon="5.45597">
        <ele>750.4465332</ele>
        <time>2016-06-28T09:16:07Z</time>
      </trkpt>
      <trkpt lat="44.44959" lon="5.45626">
        <ele>752.8496094</ele>
        <time>2016-06-28T09:16:25Z</time>
      </trkpt>
      <trkpt lat="44.44948" lon="5.4564">
        <ele>755.2529297</ele>
        <time>2016-06-28T09:16:38Z</time>
      </trkpt>
      <trkpt lat="44.44937" lon="5.45658">
        <ele>756.6948242</ele>
        <time>2016-06-28T09:16:50Z</time>
      </trkpt>
      <trkpt lat="44.44924" lon="5.45672">
        <ele>758.6174316</ele>
        <time>2016-06-28T09:17:00Z</time>
      </trkpt>
      <trkpt lat="44.44909" lon="5.45683">
        <ele>760.5400391</ele>
        <time>2016-06-28T09:17:15Z</time>
      </trkpt>
      <trkpt lat="44.44906" lon="5.45686">
        <ele>760.5400391</ele>
        <time>2016-06-28T09:17:49Z</time>
      </trkpt>
      <trkpt lat="44.44906" lon="5.45691">
        <ele>761.020752</ele>
        <time>2016-06-28T09:17:58Z</time>
      </trkpt>
      <trkpt lat="44.449" lon="5.45693">
        <ele>761.9821777</ele>
        <time>2016-06-28T09:18:03Z</time>
      </trkpt>
      <trkpt lat="44.44896" lon="5.45694">
        <ele>761.9821777</ele>
        <time>2016-06-28T09:18:06Z</time>
      </trkpt>
      <trkpt lat="44.44886" lon="5.45702">
        <ele>763.4240723</ele>
        <time>2016-06-28T09:18:18Z</time>
      </trkpt>
      <trkpt lat="44.44885" lon="5.45703">
        <ele>763.904541</ele>
        <time>2016-06-28T09:18:19Z</time>
      </trkpt>
      <trkpt lat="44.44874" lon="5.45718">
        <ele>765.3469238</ele>
        <time>2016-06-28T09:18:35Z</time>
      </trkpt>
      <trkpt lat="44.44859" lon="5.45732">
        <ele>767.75</ele>
        <time>2016-06-28T09:18:52Z</time>
      </trkpt>
      <trkpt lat="44.44844" lon="5.45736">
        <ele>769.1921387</ele>
        <time>2016-06-28T09:19:05Z</time>
      </trkpt>
      <trkpt lat="44.44838" lon="5.45739">
        <ele>769.6728516</ele>
        <time>2016-06-28T09:19:27Z</time>
      </trkpt>
      <trkpt lat="44.44839" lon="5.45741">
        <ele>770.1533203</ele>
        <time>2016-06-28T09:19:49Z</time>
      </trkpt>
      <trkpt lat="44.44838" lon="5.45748">
        <ele>770.1533203</ele>
        <time>2016-06-28T09:19:53Z</time>
      </trkpt>
      <trkpt lat="44.4483" lon="5.45758">
        <ele>771.1147461</ele>
        <time>2016-06-28T09:19:58Z</time>
      </trkpt>
      <trkpt lat="44.44829" lon="5.45763">
        <ele>771.1147461</ele>
        <time>2016-06-28T09:20:00Z</time>
      </trkpt>
      <trkpt lat="44.44805" lon="5.45786">
        <ele>774.479248</ele>
        <time>2016-06-28T09:20:18Z</time>
      </trkpt>
      <trkpt lat="44.44782" lon="5.45806">
        <ele>776.4018555</ele>
        <time>2016-06-28T09:20:33Z</time>
      </trkpt>
      <trkpt lat="44.44773" lon="5.45819">
        <ele>777.3632813</ele>
        <time>2016-06-28T09:20:40Z</time>
      </trkpt>
      <trkpt lat="44.44758" lon="5.45832">
        <ele>778.8051758</ele>
        <time>2016-06-28T09:20:50Z</time>
      </trkpt>
      <trkpt lat="44.44752" lon="5.45836">
        <ele>779.2856445</ele>
        <time>2016-06-28T09:20:55Z</time>
      </trkpt>
      <trkpt lat="44.4475" lon="5.4584">
        <ele>779.7663574</ele>
        <time>2016-06-28T09:20:57Z</time>
      </trkpt>
      <trkpt lat="44.4473" lon="5.4585">
        <ele>780.7280273</ele>
        <time>2016-06-28T09:21:12Z</time>
      </trkpt>
      <trkpt lat="44.44728" lon="5.45853">
        <ele>781.689209</ele>
        <time>2016-06-28T09:21:15Z</time>
      </trkpt>
      <trkpt lat="44.44724" lon="5.45854">
        <ele>782.1699219</ele>
        <time>2016-06-28T09:21:19Z</time>
      </trkpt>
      <trkpt lat="44.44714" lon="5.45858">
        <ele>783.6118164</ele>
        <time>2016-06-28T09:21:30Z</time>
      </trkpt>
      <trkpt lat="44.44707" lon="5.45861">
        <ele>784.5732422</ele>
        <time>2016-06-28T09:21:34Z</time>
      </trkpt>
      <trkpt lat="44.44691" lon="5.45865">
        <ele>786.0151367</ele>
        <time>2016-06-28T09:21:42Z</time>
      </trkpt>
      <trkpt lat="44.44685" lon="5.45866">
        <ele>786.4958496</ele>
        <time>2016-06-28T09:21:45Z</time>
      </trkpt>
      <trkpt lat="44.44674" lon="5.4587">
        <ele>787.4570313</ele>
        <time>2016-06-28T09:21:54Z</time>
      </trkpt>
      <trkpt lat="44.44667" lon="5.45879">
        <ele>788.418457</ele>
        <time>2016-06-28T09:22:00Z</time>
      </trkpt>
      <trkpt lat="44.44649" lon="5.45911">
        <ele>789.8603516</ele>
        <time>2016-06-28T09:22:17Z</time>
      </trkpt>
      <trkpt lat="44.44645" lon="5.4592">
        <ele>790.8215332</ele>
        <time>2016-06-28T09:22:22Z</time>
      </trkpt>
      <trkpt lat="44.44643" lon="5.45923">
        <ele>790.8215332</ele>
        <time>2016-06-28T09:22:24Z</time>
      </trkpt>
      <trkpt lat="44.44641" lon="5.45927">
        <ele>791.3022461</ele>
        <time>2016-06-28T09:22:26Z</time>
      </trkpt>
      <trkpt lat="44.44631" lon="5.45937">
        <ele>792.2636719</ele>
        <time>2016-06-28T09:22:33Z</time>
      </trkpt>
      <trkpt lat="44.44605" lon="5.45967">
        <ele>794.1862793</ele>
        <time>2016-06-28T09:22:52Z</time>
      </trkpt>
      <trkpt lat="44.44577" lon="5.45997">
        <ele>796.5898438</ele>
        <time>2016-06-28T09:23:11Z</time>
      </trkpt>
      <trkpt lat="44.44558" lon="5.46015">
        <ele>798.512207</ele>
        <time>2016-06-28T09:23:23Z</time>
      </trkpt>
      <trkpt lat="44.44554" lon="5.46019">
        <ele>798.9929199</ele>
        <time>2016-06-28T09:23:26Z</time>
      </trkpt>
      <trkpt lat="44.44544" lon="5.46028">
        <ele>800.4350586</ele>
        <time>2016-06-28T09:23:34Z</time>
      </trkpt>
      <trkpt lat="44.44542" lon="5.46029">
        <ele>800.9155273</ele>
        <time>2016-06-28T09:23:36Z</time>
      </trkpt>
      <trkpt lat="44.44533" lon="5.46037">
        <ele>801.8769531</ele>
        <time>2016-06-28T09:23:44Z</time>
      </trkpt>
      <trkpt lat="44.44506" lon="5.46054">
        <ele>803.7995605</ele>
        <time>2016-06-28T09:23:59Z</time>
      </trkpt>
      <trkpt lat="44.44478" lon="5.46062">
        <ele>805.2414551</ele>
        <time>2016-06-28T09:24:16Z</time>
      </trkpt>
      <trkpt lat="44.44465" lon="5.46064">
        <ele>807.6447754</ele>
        <time>2016-06-28T09:24:33Z</time>
      </trkpt>
      <trkpt lat="44.44462" lon="5.46067">
        <ele>808.1254883</ele>
        <time>2016-06-28T09:24:38Z</time>
      </trkpt>
      <trkpt lat="44.44447" lon="5.46077">
        <ele>809.5673828</ele>
        <time>2016-06-28T09:24:48Z</time>
      </trkpt>
      <trkpt lat="44.4444" lon="5.46079">
        <ele>809.5673828</ele>
        <time>2016-06-28T09:24:52Z</time>
      </trkpt>
      <trkpt lat="44.44429" lon="5.46082">
        <ele>810.0478516</ele>
        <time>2016-06-28T09:25:05Z</time>
      </trkpt>
      <trkpt lat="44.44425" lon="5.46084">
        <ele>810.5285645</ele>
        <time>2016-06-28T09:25:26Z</time>
      </trkpt>
      <trkpt lat="44.44426" lon="5.46083">
        <ele>811.0092773</ele>
        <time>2016-06-28T09:25:48Z</time>
      </trkpt>
      <trkpt lat="44.44417" lon="5.46088">
        <ele>810.0478516</ele>
        <time>2016-06-28T09:26:19Z</time>
      </trkpt>
      <trkpt lat="44.44411" lon="5.46081">
        <ele>809.5673828</ele>
        <time>2016-06-28T09:26:41Z</time>
      </trkpt>
      <trkpt lat="44.44411" lon="5.46078">
        <ele>809.5673828</ele>
        <time>2016-06-28T09:27:03Z</time>
      </trkpt>
      <trkpt lat="44.44407" lon="5.46075">
        <ele>809.5673828</ele>
        <time>2016-06-28T09:27:14Z</time>
      </trkpt>
      <trkpt lat="44.4441" lon="5.46077">
        <ele>809.5673828</ele>
        <time>2016-06-28T09:27:24Z</time>
      </trkpt>
      <trkpt lat="44.44423" lon="5.46088">
        <ele>810.5285645</ele>
        <time>2016-06-28T09:27:40Z</time>
      </trkpt>
      <trkpt lat="44.44415" lon="5.46088">
        <ele>811.0092773</ele>
        <time>2016-06-28T09:27:55Z</time>
      </trkpt>
      <trkpt lat="44.44418" lon="5.46087">
        <ele>809.0866699</ele>
        <time>2016-06-28T09:28:08Z</time>
      </trkpt>
      <trkpt lat="44.44418" lon="5.46087">
        <ele>809.5673828</ele>
        <time>2016-06-28T09:28:27Z</time>
      </trkpt>
      <trkpt lat="44.44418" lon="5.46089">
        <ele>809.0866699</ele>
        <time>2016-06-28T09:31:30Z</time>
      </trkpt>
      <trkpt lat="44.44418" lon="5.46089">
        <ele>808.1254883</ele>
        <time>2016-06-28T09:32:14Z</time>
      </trkpt>
      <trkpt lat="44.44418" lon="5.46088">
        <ele>808.1254883</ele>
        <time>2016-06-28T09:32:49Z</time>
      </trkpt>
      <trkpt lat="44.44414" lon="5.46087">
        <ele>808.1254883</ele>
        <time>2016-06-28T09:34:29Z</time>
      </trkpt>
      <trkpt lat="44.44414" lon="5.46084">
        <ele>808.605957</ele>
        <time>2016-06-28T09:35:31Z</time>
      </trkpt>
      <trkpt lat="44.44415" lon="5.46083">
        <ele>808.1254883</ele>
        <time>2016-06-28T09:35:53Z</time>
      </trkpt>
      <trkpt lat="44.44414" lon="5.46084">
        <ele>808.1254883</ele>
        <time>2016-06-28T09:36:25Z</time>
      </trkpt>
      <trkpt lat="44.44414" lon="5.46084">
        <ele>808.1254883</ele>
        <time>2016-06-28T09:36:34Z</time>
      </trkpt>
      <trkpt lat="44.4441" lon="5.46076">
        <ele>808.605957</ele>
        <time>2016-06-28T09:36:40Z</time>
      </trkpt>
      <trkpt lat="44.4439" lon="5.46078">
        <ele>810.5285645</ele>
        <time>2016-06-28T09:36:51Z</time>
      </trkpt>
      <trkpt lat="44.44381" lon="5.46084">
        <ele>811.4899902</ele>
        <time>2016-06-28T09:36:57Z</time>
      </trkpt>
      <trkpt lat="44.44385" lon="5.46104">
        <ele>811.9707031</ele>
        <time>2016-06-28T09:37:08Z</time>
      </trkpt>
      <trkpt lat="44.44391" lon="5.46103">
        <ele>812.451416</ele>
        <time>2016-06-28T09:37:21Z</time>
      </trkpt>
      <trkpt lat="44.44391" lon="5.46103">
        <ele>812.9321289</ele>
        <time>2016-06-28T09:37:58Z</time>
      </trkpt>
      <trkpt lat="44.44415" lon="5.46101">
        <ele>813.8933105</ele>
        <time>2016-06-28T09:38:11Z</time>
      </trkpt>
      <trkpt lat="44.44441" lon="5.46105">
        <ele>814.8547363</ele>
        <time>2016-06-28T09:38:27Z</time>
      </trkpt>
      <trkpt lat="44.44435" lon="5.4612">
        <ele>816.2966309</ele>
        <time>2016-06-28T09:38:34Z</time>
      </trkpt>
      <trkpt lat="44.44401" lon="5.46154">
        <ele>818.2192383</ele>
        <time>2016-06-28T09:38:59Z</time>
      </trkpt>
      <trkpt lat="44.444" lon="5.46155">
        <ele>818.6999512</ele>
        <time>2016-06-28T09:39:00Z</time>
      </trkpt>
      <trkpt lat="44.44372" lon="5.46181">
        <ele>821.1032715</ele>
        <time>2016-06-28T09:39:21Z</time>
      </trkpt>
      <trkpt lat="44.44352" lon="5.46207">
        <ele>824.4677734</ele>
        <time>2016-06-28T09:39:40Z</time>
      </trkpt>
      <trkpt lat="44.44326" lon="5.46231">
        <ele>826.3903809</ele>
        <time>2016-06-28T09:40:02Z</time>
      </trkpt>
      <trkpt lat="44.44295" lon="5.46245">
        <ele>828.7939453</ele>
        <time>2016-06-28T09:40:23Z</time>
      </trkpt>
      <trkpt lat="44.44268" lon="5.46256">
        <ele>831.6777344</ele>
        <time>2016-06-28T09:40:43Z</time>
      </trkpt>
      <trkpt lat="44.44239" lon="5.46274">
        <ele>834.0810547</ele>
        <time>2016-06-28T09:41:05Z</time>
      </trkpt>
      <trkpt lat="44.44235" lon="5.46277">
        <ele>835.0424805</ele>
        <time>2016-06-28T09:41:08Z</time>
      </trkpt>
      <trkpt lat="44.44231" lon="5.46288">
        <ele>835.5229492</ele>
        <time>2016-06-28T09:41:13Z</time>
      </trkpt>
      <trkpt lat="44.44211" lon="5.46317">
        <ele>837.4455566</ele>
        <time>2016-06-28T09:41:33Z</time>
      </trkpt>
      <trkpt lat="44.44207" lon="5.46322">
        <ele>837.9262695</ele>
        <time>2016-06-28T09:41:37Z</time>
      </trkpt>
      <trkpt lat="44.44178" lon="5.46323">
        <ele>840.3295898</ele>
        <time>2016-06-28T09:41:58Z</time>
      </trkpt>
      <trkpt lat="44.44151" lon="5.46332">
        <ele>842.7329102</ele>
        <time>2016-06-28T09:42:17Z</time>
      </trkpt>
      <trkpt lat="44.44128" lon="5.46354">
        <ele>845.1362305</ele>
        <time>2016-06-28T09:42:37Z</time>
      </trkpt>
      <trkpt lat="44.44121" lon="5.46371">
        <ele>845.1362305</ele>
        <time>2016-06-28T09:42:47Z</time>
      </trkpt>
      <trkpt lat="44.44113" lon="5.46407">
        <ele>848.0202637</ele>
        <time>2016-06-28T09:43:06Z</time>
      </trkpt>
      <trkpt lat="44.441" lon="5.46449">
        <ele>850.9040527</ele>
        <time>2016-06-28T09:43:28Z</time>
      </trkpt>
      <trkpt lat="44.44085" lon="5.46441">
        <ele>852.8266602</ele>
        <time>2016-06-28T09:43:41Z</time>
      </trkpt>
      <trkpt lat="44.44072" lon="5.46414">
        <ele>854.7492676</ele>
        <time>2016-06-28T09:43:58Z</time>
      </trkpt>
      <trkpt lat="44.44042" lon="5.46419">
        <ele>857.1525879</ele>
        <time>2016-06-28T09:44:19Z</time>
      </trkpt>
      <trkpt lat="44.44032" lon="5.46421">
        <ele>858.5944824</ele>
        <time>2016-06-28T09:44:26Z</time>
      </trkpt>
      <trkpt lat="44.44" lon="5.46433">
        <ele>861.4787598</ele>
        <time>2016-06-28T09:44:49Z</time>
      </trkpt>
      <trkpt lat="44.43977" lon="5.46449">
        <ele>863.4013672</ele>
        <time>2016-06-28T09:45:07Z</time>
      </trkpt>
      <trkpt lat="44.43953" lon="5.46457">
        <ele>865.3239746</ele>
        <time>2016-06-28T09:45:26Z</time>
      </trkpt>
      <trkpt lat="44.43926" lon="5.46472">
        <ele>868.2077637</ele>
        <time>2016-06-28T09:45:47Z</time>
      </trkpt>
      <trkpt lat="44.43904" lon="5.46496">
        <ele>871.0917969</ele>
        <time>2016-06-28T09:46:09Z</time>
      </trkpt>
      <trkpt lat="44.43878" lon="5.46514">
        <ele>873.9755859</ele>
        <time>2016-06-28T09:46:31Z</time>
      </trkpt>
      <trkpt lat="44.43847" lon="5.4652">
        <ele>876.3791504</ele>
        <time>2016-06-28T09:46:52Z</time>
      </trkpt>
      <trkpt lat="44.43817" lon="5.46542">
        <ele>879.7436523</ele>
        <time>2016-06-28T09:47:16Z</time>
      </trkpt>
      <trkpt lat="44.43814" lon="5.46544">
        <ele>879.7436523</ele>
        <time>2016-06-28T09:47:18Z</time>
      </trkpt>
      <trkpt lat="44.43793" lon="5.46569">
        <ele>882.6276855</ele>
        <time>2016-06-28T09:47:38Z</time>
      </trkpt>
      <trkpt lat="44.43765" lon="5.4656">
        <ele>885.0310059</ele>
        <time>2016-06-28T09:47:59Z</time>
      </trkpt>
      <trkpt lat="44.43739" lon="5.46565">
        <ele>887.434082</ele>
        <time>2016-06-28T09:48:18Z</time>
      </trkpt>
      <trkpt lat="44.43724" lon="5.46582">
        <ele>888.8762207</ele>
        <time>2016-06-28T09:48:31Z</time>
      </trkpt>
      <trkpt lat="44.4372" lon="5.46588">
        <ele>889.3566895</ele>
        <time>2016-06-28T09:48:35Z</time>
      </trkpt>
      <trkpt lat="44.43698" lon="5.46612">
        <ele>891.7600098</ele>
        <time>2016-06-28T09:48:54Z</time>
      </trkpt>
      <trkpt lat="44.43679" lon="5.46633">
        <ele>893.6828613</ele>
        <time>2016-06-28T09:49:13Z</time>
      </trkpt>
      <trkpt lat="44.43662" lon="5.46655">
        <ele>897.0473633</ele>
        <time>2016-06-28T09:49:33Z</time>
      </trkpt>
      <trkpt lat="44.43643" lon="5.46685">
        <ele>898.4892578</ele>
        <time>2016-06-28T09:49:53Z</time>
      </trkpt>
      <trkpt lat="44.43627" lon="5.46712">
        <ele>901.8540039</ele>
        <time>2016-06-28T09:50:12Z</time>
      </trkpt>
      <trkpt lat="44.43607" lon="5.46738">
        <ele>904.737793</ele>
        <time>2016-06-28T09:50:33Z</time>
      </trkpt>
      <trkpt lat="44.43591" lon="5.4677">
        <ele>907.6218262</ele>
        <time>2016-06-28T09:50:55Z</time>
      </trkpt>
      <trkpt lat="44.43577" lon="5.468">
        <ele>910.5058594</ele>
        <time>2016-06-28T09:51:15Z</time>
      </trkpt>
      <trkpt lat="44.4356" lon="5.46828">
        <ele>912.9091797</ele>
        <time>2016-06-28T09:51:35Z</time>
      </trkpt>
      <trkpt lat="44.4354" lon="5.46845">
        <ele>915.3125</ele>
        <time>2016-06-28T09:51:54Z</time>
      </trkpt>
      <trkpt lat="44.43532" lon="5.46824">
        <ele>916.7543945</ele>
        <time>2016-06-28T09:52:07Z</time>
      </trkpt>
      <trkpt lat="44.43539" lon="5.4678">
        <ele>917.7155762</ele>
        <time>2016-06-28T09:52:27Z</time>
      </trkpt>
      <trkpt lat="44.43554" lon="5.46722">
        <ele>920.5996094</ele>
        <time>2016-06-28T09:52:54Z</time>
      </trkpt>
      <trkpt lat="44.43562" lon="5.46681">
        <ele>921.0803223</ele>
        <time>2016-06-28T09:53:12Z</time>
      </trkpt>
      <trkpt lat="44.43537" lon="5.46663">
        <ele>923.0029297</ele>
        <time>2016-06-28T09:53:30Z</time>
      </trkpt>
      <trkpt lat="44.435" lon="5.46666">
        <ele>926.3676758</ele>
        <time>2016-06-28T09:53:56Z</time>
      </trkpt>
      <trkpt lat="44.43468" lon="5.4668">
        <ele>928.7709961</ele>
        <time>2016-06-28T09:54:20Z</time>
      </trkpt>
      <trkpt lat="44.43434" lon="5.46697">
        <ele>931.1743164</ele>
        <time>2016-06-28T09:54:44Z</time>
      </trkpt>
      <trkpt lat="44.43409" lon="5.46692">
        <ele>934.5388184</ele>
        <time>2016-06-28T09:55:02Z</time>
      </trkpt>
      <trkpt lat="44.43377" lon="5.46679">
        <ele>936.4614258</ele>
        <time>2016-06-28T09:55:24Z</time>
      </trkpt>
      <trkpt lat="44.43351" lon="5.46695">
        <ele>939.3452148</ele>
        <time>2016-06-28T09:55:45Z</time>
      </trkpt>
      <trkpt lat="44.43328" lon="5.46692">
        <ele>941.7487793</ele>
        <time>2016-06-28T09:56:04Z</time>
      </trkpt>
      <trkpt lat="44.43305" lon="5.46676">
        <ele>944.1520996</ele>
        <time>2016-06-28T09:56:21Z</time>
      </trkpt>
      <trkpt lat="44.43294" lon="5.46676">
        <ele>945.1132813</ele>
        <time>2016-06-28T09:56:29Z</time>
      </trkpt>
      <trkpt lat="44.43275" lon="5.46696">
        <ele>948.4777832</ele>
        <time>2016-06-28T09:56:48Z</time>
      </trkpt>
      <trkpt lat="44.43256" lon="5.46731">
        <ele>950.8811035</ele>
        <time>2016-06-28T09:57:11Z</time>
      </trkpt>
      <trkpt lat="44.43227" lon="5.46728">
        <ele>952.8037109</ele>
        <time>2016-06-28T09:57:31Z</time>
      </trkpt>
      <trkpt lat="44.43223" lon="5.46737">
        <ele>954.2458496</ele>
        <time>2016-06-28T09:57:37Z</time>
      </trkpt>
      <trkpt lat="44.43225" lon="5.46744">
        <ele>954.7263184</ele>
        <time>2016-06-28T09:57:41Z</time>
      </trkpt>
      <trkpt lat="44.43254" lon="5.46753">
        <ele>956.168457</ele>
        <time>2016-06-28T09:58:03Z</time>
      </trkpt>
      <trkpt lat="44.43283" lon="5.46726">
        <ele>958.5717773</ele>
        <time>2016-06-28T09:58:25Z</time>
      </trkpt>
      <trkpt lat="44.43301" lon="5.46711">
        <ele>960.4943848</ele>
        <time>2016-06-28T09:58:44Z</time>
      </trkpt>
      <trkpt lat="44.43297" lon="5.4673">
        <ele>961.4558105</ele>
        <time>2016-06-28T09:58:53Z</time>
      </trkpt>
      <trkpt lat="44.43294" lon="5.46735">
        <ele>961.9365234</ele>
        <time>2016-06-28T09:58:56Z</time>
      </trkpt>
      <trkpt lat="44.4328" lon="5.46773">
        <ele>964.8203125</ele>
        <time>2016-06-28T09:59:19Z</time>
      </trkpt>
      <trkpt lat="44.43267" lon="5.46793">
        <ele>966.7429199</ele>
        <time>2016-06-28T09:59:33Z</time>
      </trkpt>
      <trkpt lat="44.43246" lon="5.46819">
        <ele>970.5881348</ele>
        <time>2016-06-28T09:59:55Z</time>
      </trkpt>
      <trkpt lat="44.43218" lon="5.46827">
        <ele>972.9916992</ele>
        <time>2016-06-28T10:00:17Z</time>
      </trkpt>
      <trkpt lat="44.43189" lon="5.46799">
        <ele>975.3947754</ele>
        <time>2016-06-28T10:00:39Z</time>
      </trkpt>
      <trkpt lat="44.4316" lon="5.46806">
        <ele>975.3947754</ele>
        <time>2016-06-28T10:00:56Z</time>
      </trkpt>
      <trkpt lat="44.43127" lon="5.46806">
        <ele>975.8754883</ele>
        <time>2016-06-28T10:01:11Z</time>
      </trkpt>
      <trkpt lat="44.43096" lon="5.46806">
        <ele>978.2788086</ele>
        <time>2016-06-28T10:01:31Z</time>
      </trkpt>
      <trkpt lat="44.43063" lon="5.4681">
        <ele>979.7207031</ele>
        <time>2016-06-28T10:01:53Z</time>
      </trkpt>
      <trkpt lat="44.43035" lon="5.46821">
        <ele>983.0852051</ele>
        <time>2016-06-28T10:02:15Z</time>
      </trkpt>
      <trkpt lat="44.43013" lon="5.46844">
        <ele>985.0080566</ele>
        <time>2016-06-28T10:02:34Z</time>
      </trkpt>
      <trkpt lat="44.42987" lon="5.46843">
        <ele>987.4111328</ele>
        <time>2016-06-28T10:02:53Z</time>
      </trkpt>
      <trkpt lat="44.42963" lon="5.46826">
        <ele>989.3339844</ele>
        <time>2016-06-28T10:03:12Z</time>
      </trkpt>
      <trkpt lat="44.4294" lon="5.46794">
        <ele>990.7758789</ele>
        <time>2016-06-28T10:03:32Z</time>
      </trkpt>
      <trkpt lat="44.42925" lon="5.46747">
        <ele>991.7373047</ele>
        <time>2016-06-28T10:03:53Z</time>
      </trkpt>
      <trkpt lat="44.42946" lon="5.46706">
        <ele>993.1791992</ele>
        <time>2016-06-28T10:04:15Z</time>
      </trkpt>
      <trkpt lat="44.42975" lon="5.46674">
        <ele>995.1018066</ele>
        <time>2016-06-28T10:04:37Z</time>
      </trkpt>
      <trkpt lat="44.4301" lon="5.46632">
        <ele>996.0632324</ele>
        <time>2016-06-28T10:05:03Z</time>
      </trkpt>
      <trkpt lat="44.43031" lon="5.46588">
        <ele>998.9470215</ele>
        <time>2016-06-28T10:05:26Z</time>
      </trkpt>
      <trkpt lat="44.43053" lon="5.46541">
        <ele>1001.8310547</ele>
        <time>2016-06-28T10:05:52Z</time>
      </trkpt>
      <trkpt lat="44.43042" lon="5.46504">
        <ele>1003.7536621</ele>
        <time>2016-06-28T10:06:11Z</time>
      </trkpt>
      <trkpt lat="44.4302" lon="5.46469">
        <ele>1005.6765137</ele>
        <time>2016-06-28T10:06:32Z</time>
      </trkpt>
      <trkpt lat="44.42994" lon="5.46424">
        <ele>1007.1184082</ele>
        <time>2016-06-28T10:06:57Z</time>
      </trkpt>
      <trkpt lat="44.42987" lon="5.46381">
        <ele>1009.0410156</ele>
        <time>2016-06-28T10:07:17Z</time>
      </trkpt>
      <trkpt lat="44.43005" lon="5.46354">
        <ele>1010.963623</ele>
        <time>2016-06-28T10:07:34Z</time>
      </trkpt>
      <trkpt lat="44.43029" lon="5.46322">
        <ele>1013.3669434</ele>
        <time>2016-06-28T10:07:57Z</time>
      </trkpt>
      <trkpt lat="44.43058" lon="5.46279">
        <ele>1016.2507324</ele>
        <time>2016-06-28T10:08:24Z</time>
      </trkpt>
      <trkpt lat="44.43066" lon="5.46268">
        <ele>1017.2121582</ele>
        <time>2016-06-28T10:08:32Z</time>
      </trkpt>
      <trkpt lat="44.43099" lon="5.4622">
        <ele>1020.0961914</ele>
        <time>2016-06-28T10:09:03Z</time>
      </trkpt>
      <trkpt lat="44.43126" lon="5.46212">
        <ele>1022.0187988</ele>
        <time>2016-06-28T10:09:21Z</time>
      </trkpt>
      <trkpt lat="44.4317" lon="5.46213">
        <ele>1024.902832</ele>
        <time>2016-06-28T10:09:48Z</time>
      </trkpt>
      <trkpt lat="44.43172" lon="5.46208">
        <ele>1025.3833008</ele>
        <time>2016-06-28T10:09:51Z</time>
      </trkpt>
      <trkpt lat="44.43168" lon="5.46201">
        <ele>1026.3447266</ele>
        <time>2016-06-28T10:09:55Z</time>
      </trkpt>
      <trkpt lat="44.43139" lon="5.46187">
        <ele>1027.7866211</ele>
        <time>2016-06-28T10:10:14Z</time>
      </trkpt>
      <trkpt lat="44.43101" lon="5.46175">
        <ele>1030.1899414</ele>
        <time>2016-06-28T10:10:38Z</time>
      </trkpt>
      <trkpt lat="44.43094" lon="5.46173">
        <ele>1031.6318359</ele>
        <time>2016-06-28T10:10:43Z</time>
      </trkpt>
      <trkpt lat="44.43064" lon="5.46184">
        <ele>1033.5544434</ele>
        <time>2016-06-28T10:11:03Z</time>
      </trkpt>
      <trkpt lat="44.43024" lon="5.46193">
        <ele>1035.9577637</ele>
        <time>2016-06-28T10:11:29Z</time>
      </trkpt>
      <trkpt lat="44.42995" lon="5.46203">
        <ele>1038.842041</ele>
        <time>2016-06-28T10:11:49Z</time>
      </trkpt>
      <trkpt lat="44.42971" lon="5.46221">
        <ele>1040.7644043</ele>
        <time>2016-06-28T10:12:08Z</time>
      </trkpt>
      <trkpt lat="44.42964" lon="5.46226">
        <ele>1041.2451172</ele>
        <time>2016-06-28T10:12:13Z</time>
      </trkpt>
      <trkpt lat="44.42947" lon="5.46235">
        <ele>1043.6484375</ele>
        <time>2016-06-28T10:12:28Z</time>
      </trkpt>
      <trkpt lat="44.42916" lon="5.46231">
        <ele>1046.0517578</ele>
        <time>2016-06-28T10:12:49Z</time>
      </trkpt>
      <trkpt lat="44.4289" lon="5.46224">
        <ele>1048.454834</ele>
        <time>2016-06-28T10:13:08Z</time>
      </trkpt>
      <trkpt lat="44.42862" lon="5.46213">
        <ele>1051.3388672</ele>
        <time>2016-06-28T10:13:30Z</time>
      </trkpt>
      <trkpt lat="44.42835" lon="5.46201">
        <ele>1053.7424316</ele>
        <time>2016-06-28T10:13:50Z</time>
      </trkpt>
      <trkpt lat="44.42817" lon="5.46196">
        <ele>1056.1455078</ele>
        <time>2016-06-28T10:14:05Z</time>
      </trkpt>
      <trkpt lat="44.42797" lon="5.46194">
        <ele>1059.029541</ele>
        <time>2016-06-28T10:14:20Z</time>
      </trkpt>
      <trkpt lat="44.42781" lon="5.462">
        <ele>1061.4328613</ele>
        <time>2016-06-28T10:14:32Z</time>
      </trkpt>
      <trkpt lat="44.42754" lon="5.46213">
        <ele>1064.3166504</ele>
        <time>2016-06-28T10:14:54Z</time>
      </trkpt>
      <trkpt lat="44.42731" lon="5.46219">
        <ele>1067.6811523</ele>
        <time>2016-06-28T10:15:12Z</time>
      </trkpt>
      <trkpt lat="44.42703" lon="5.46226">
        <ele>1070.5654297</ele>
        <time>2016-06-28T10:15:33Z</time>
      </trkpt>
      <trkpt lat="44.42675" lon="5.46246">
        <ele>1072.96875</ele>
        <time>2016-06-28T10:15:53Z</time>
      </trkpt>
      <trkpt lat="44.42671" lon="5.46248">
        <ele>1073.4494629</ele>
        <time>2016-06-28T10:16:07Z</time>
      </trkpt>
      <trkpt lat="44.42657" lon="5.46246">
        <ele>1074.4106445</ele>
        <time>2016-06-28T10:16:26Z</time>
      </trkpt>
      <trkpt lat="44.42648" lon="5.46237">
        <ele>1073.9299316</ele>
        <time>2016-06-28T10:16:58Z</time>
      </trkpt>
      <trkpt lat="44.42648" lon="5.46234">
        <ele>1074.4106445</ele>
        <time>2016-06-28T10:18:16Z</time>
      </trkpt>
      <trkpt lat="44.42648" lon="5.46233">
        <ele>1073.9299316</ele>
        <time>2016-06-28T10:18:49Z</time>
      </trkpt>
      <trkpt lat="44.42647" lon="5.46236">
        <ele>1075.3718262</ele>
        <time>2016-06-28T10:22:13Z</time>
      </trkpt>
      <trkpt lat="44.42646" lon="5.46239">
        <ele>1075.3718262</ele>
        <time>2016-06-28T10:22:33Z</time>
      </trkpt>
      <trkpt lat="44.42646" lon="5.46239">
        <ele>1075.8525391</ele>
        <time>2016-06-28T10:22:36Z</time>
      </trkpt>
      <trkpt lat="44.42644" lon="5.46247">
        <ele>1075.8525391</ele>
        <time>2016-06-28T10:22:40Z</time>
      </trkpt>
      <trkpt lat="44.42604" lon="5.4626">
        <ele>1074.8913574</ele>
        <time>2016-06-28T10:22:52Z</time>
      </trkpt>
      <trkpt lat="44.42588" lon="5.4626">
        <ele>1074.8913574</ele>
        <time>2016-06-28T10:22:55Z</time>
      </trkpt>
      <trkpt lat="44.4257" lon="5.46256">
        <ele>1073.9299316</ele>
        <time>2016-06-28T10:22:58Z</time>
      </trkpt>
      <trkpt lat="44.42529" lon="5.46228">
        <ele>1070.5654297</ele>
        <time>2016-06-28T10:23:04Z</time>
      </trkpt>
      <trkpt lat="44.42516" lon="5.4622">
        <ele>1068.6428223</ele>
        <time>2016-06-28T10:23:06Z</time>
      </trkpt>
      <trkpt lat="44.42463" lon="5.46195">
        <ele>1066.2392578</ele>
        <time>2016-06-28T10:23:13Z</time>
      </trkpt>
      <trkpt lat="44.42419" lon="5.46178">
        <ele>1062.394043</ele>
        <time>2016-06-28T10:23:18Z</time>
      </trkpt>
      <trkpt lat="44.42405" lon="5.46171">
        <ele>1060.4714355</ele>
        <time>2016-06-28T10:23:20Z</time>
      </trkpt>
      <trkpt lat="44.42387" lon="5.4616">
        <ele>1058.5488281</ele>
        <time>2016-06-28T10:23:23Z</time>
      </trkpt>
      <trkpt lat="44.42351" lon="5.46144">
        <ele>1056.1455078</ele>
        <time>2016-06-28T10:23:28Z</time>
      </trkpt>
      <trkpt lat="44.42327" lon="5.46124">
        <ele>1053.7424316</ele>
        <time>2016-06-28T10:23:32Z</time>
      </trkpt>
      <trkpt lat="44.42317" lon="5.46119">
        <ele>1052.7810059</ele>
        <time>2016-06-28T10:23:34Z</time>
      </trkpt>
      <trkpt lat="44.42311" lon="5.46123">
        <ele>1051.8195801</ele>
        <time>2016-06-28T10:23:36Z</time>
      </trkpt>
      <trkpt lat="44.42302" lon="5.46147">
        <ele>1050.8581543</ele>
        <time>2016-06-28T10:23:40Z</time>
      </trkpt>
      <trkpt lat="44.42288" lon="5.46221">
        <ele>1048.9355469</ele>
        <time>2016-06-28T10:23:48Z</time>
      </trkpt>
      <trkpt lat="44.42276" lon="5.46261">
        <ele>1047.9743652</ele>
        <time>2016-06-28T10:23:52Z</time>
      </trkpt>
      <trkpt lat="44.42258" lon="5.46298">
        <ele>1045.5710449</ele>
        <time>2016-06-28T10:23:56Z</time>
      </trkpt>
      <trkpt lat="44.42241" lon="5.4632">
        <ele>1045.090332</ele>
        <time>2016-06-28T10:23:59Z</time>
      </trkpt>
      <trkpt lat="44.42228" lon="5.46332">
        <ele>1043.6484375</ele>
        <time>2016-06-28T10:24:01Z</time>
      </trkpt>
      <trkpt lat="44.42222" lon="5.46336">
        <ele>1041.7258301</ele>
        <time>2016-06-28T10:24:02Z</time>
      </trkpt>
      <trkpt lat="44.4221" lon="5.4634">
        <ele>1040.2839355</ele>
        <time>2016-06-28T10:24:04Z</time>
      </trkpt>
      <trkpt lat="44.42198" lon="5.46323">
        <ele>1039.3225098</ele>
        <time>2016-06-28T10:24:08Z</time>
      </trkpt>
      <trkpt lat="44.42194" lon="5.46294">
        <ele>1037.3999023</ele>
        <time>2016-06-28T10:24:13Z</time>
      </trkpt>
      <trkpt lat="44.42163" lon="5.46289">
        <ele>1035.4770508</ele>
        <time>2016-06-28T10:24:21Z</time>
      </trkpt>
      <trkpt lat="44.4216" lon="5.46296">
        <ele>1035.4770508</ele>
        <time>2016-06-28T10:24:22Z</time>
      </trkpt>
      <trkpt lat="44.42117" lon="5.46403">
        <ele>1031.1513672</ele>
        <time>2016-06-28T10:24:33Z</time>
      </trkpt>
      <trkpt lat="44.42112" lon="5.46415">
        <ele>1031.1513672</ele>
        <time>2016-06-28T10:24:34Z</time>
      </trkpt>
      <trkpt lat="44.42087" lon="5.46475">
        <ele>1027.3061523</ele>
        <time>2016-06-28T10:24:40Z</time>
      </trkpt>
      <trkpt lat="44.42082" lon="5.46483">
        <ele>1027.3061523</ele>
        <time>2016-06-28T10:24:41Z</time>
      </trkpt>
      <trkpt lat="44.42073" lon="5.46498">
        <ele>1025.8640137</ele>
        <time>2016-06-28T10:24:43Z</time>
      </trkpt>
      <trkpt lat="44.42059" lon="5.46516">
        <ele>1023.9414063</ele>
        <time>2016-06-28T10:24:46Z</time>
      </trkpt>
      <trkpt lat="44.42049" lon="5.46525">
        <ele>1023.4609375</ele>
        <time>2016-06-28T10:24:48Z</time>
      </trkpt>
      <trkpt lat="44.42024" lon="5.46512">
        <ele>1020.5769043</ele>
        <time>2016-06-28T10:24:54Z</time>
      </trkpt>
      <trkpt lat="44.42023" lon="5.46504">
        <ele>1020.5769043</ele>
        <time>2016-06-28T10:24:55Z</time>
      </trkpt>
      <trkpt lat="44.42002" lon="5.46386">
        <ele>1015.7702637</ele>
        <time>2016-06-28T10:25:07Z</time>
      </trkpt>
      <trkpt lat="44.41995" lon="5.46374">
        <ele>1015.2895508</ele>
        <time>2016-06-28T10:25:09Z</time>
      </trkpt>
      <trkpt lat="44.41971" lon="5.46349">
        <ele>1013.3669434</ele>
        <time>2016-06-28T10:25:15Z</time>
      </trkpt>
      <trkpt lat="44.41938" lon="5.46274">
        <ele>1010.0021973</ele>
        <time>2016-06-28T10:25:26Z</time>
      </trkpt>
      <trkpt lat="44.41932" lon="5.46261">
        <ele>1009.0410156</ele>
        <time>2016-06-28T10:25:28Z</time>
      </trkpt>
      <trkpt lat="44.41919" lon="5.4623">
        <ele>1007.1184082</ele>
        <time>2016-06-28T10:25:33Z</time>
      </trkpt>
      <trkpt lat="44.41901" lon="5.46181">
        <ele>1005.1958008</ele>
        <time>2016-06-28T10:25:39Z</time>
      </trkpt>
      <trkpt lat="44.41898" lon="5.46172">
        <ele>1004.2346191</ele>
        <time>2016-06-28T10:25:40Z</time>
      </trkpt>
      <trkpt lat="44.41887" lon="5.46089">
        <ele>1001.3503418</ele>
        <time>2016-06-28T10:25:49Z</time>
      </trkpt>
      <trkpt lat="44.41881" lon="5.46058">
        <ele>1000.3891602</ele>
        <time>2016-06-28T10:25:53Z</time>
      </trkpt>
      <trkpt lat="44.41882" lon="5.46037">
        <ele>998.9470215</ele>
        <time>2016-06-28T10:25:56Z</time>
      </trkpt>
      <trkpt lat="44.41877" lon="5.46004">
        <ele>997.505127</ele>
        <time>2016-06-28T10:26:01Z</time>
      </trkpt>
      <trkpt lat="44.41878" lon="5.45988">
        <ele>997.0244141</ele>
        <time>2016-06-28T10:26:03Z</time>
      </trkpt>
      <trkpt lat="44.41877" lon="5.45966">
        <ele>996.5439453</ele>
        <time>2016-06-28T10:26:06Z</time>
      </trkpt>
      <trkpt lat="44.41871" lon="5.45924">
        <ele>994.140625</ele>
        <time>2016-06-28T10:26:12Z</time>
      </trkpt>
      <trkpt lat="44.41848" lon="5.45883">
        <ele>992.2180176</ele>
        <time>2016-06-28T10:26:19Z</time>
      </trkpt>
      <trkpt lat="44.41824" lon="5.45831">
        <ele>989.3339844</ele>
        <time>2016-06-28T10:26:28Z</time>
      </trkpt>
      <trkpt lat="44.41821" lon="5.45819">
        <ele>988.3728027</ele>
        <time>2016-06-28T10:26:30Z</time>
      </trkpt>
      <trkpt lat="44.41803" lon="5.45788">
        <ele>986.9304199</ele>
        <time>2016-06-28T10:26:34Z</time>
      </trkpt>
      <trkpt lat="44.41801" lon="5.4578">
        <ele>986.4499512</ele>
        <time>2016-06-28T10:26:35Z</time>
      </trkpt>
      <trkpt lat="44.41794" lon="5.45768">
        <ele>985.4885254</ele>
        <time>2016-06-28T10:26:37Z</time>
      </trkpt>
      <trkpt lat="44.41774" lon="5.45728">
        <ele>984.0466309</ele>
        <time>2016-06-28T10:26:43Z</time>
      </trkpt>
      <trkpt lat="44.41766" lon="5.45709">
        <ele>983.565918</ele>
        <time>2016-06-28T10:26:46Z</time>
      </trkpt>
      <trkpt lat="44.4173" lon="5.45654">
        <ele>980.6821289</ele>
        <time>2016-06-28T10:26:53Z</time>
      </trkpt>
      <trkpt lat="44.41697" lon="5.45593">
        <ele>978.2788086</ele>
        <time>2016-06-28T10:27:00Z</time>
      </trkpt>
      <trkpt lat="44.41688" lon="5.45578">
        <ele>977.7980957</ele>
        <time>2016-06-28T10:27:02Z</time>
      </trkpt>
      <trkpt lat="44.41657" lon="5.45498">
        <ele>973.4724121</ele>
        <time>2016-06-28T10:27:12Z</time>
      </trkpt>
      <trkpt lat="44.41653" lon="5.45484">
        <ele>972.5109863</ele>
        <time>2016-06-28T10:27:14Z</time>
      </trkpt>
      <trkpt lat="44.41627" lon="5.45405">
        <ele>969.1462402</ele>
        <time>2016-06-28T10:27:24Z</time>
      </trkpt>
      <trkpt lat="44.41614" lon="5.45364">
        <ele>966.7429199</ele>
        <time>2016-06-28T10:27:30Z</time>
      </trkpt>
      <trkpt lat="44.41607" lon="5.45342">
        <ele>965.3010254</ele>
        <time>2016-06-28T10:27:33Z</time>
      </trkpt>
      <trkpt lat="44.41589" lon="5.45271">
        <ele>962.4169922</ele>
        <time>2016-06-28T10:27:42Z</time>
      </trkpt>
      <trkpt lat="44.41587" lon="5.45263">
        <ele>961.9365234</ele>
        <time>2016-06-28T10:27:43Z</time>
      </trkpt>
      <trkpt lat="44.41566" lon="5.45166">
        <ele>957.6105957</ele>
        <time>2016-06-28T10:27:56Z</time>
      </trkpt>
      <trkpt lat="44.41564" lon="5.45158">
        <ele>957.6105957</ele>
        <time>2016-06-28T10:27:57Z</time>
      </trkpt>
      <trkpt lat="44.41548" lon="5.45091">
        <ele>955.2070313</ele>
        <time>2016-06-28T10:28:05Z</time>
      </trkpt>
      <trkpt lat="44.41518" lon="5.45021">
        <ele>952.322998</ele>
        <time>2016-06-28T10:28:14Z</time>
      </trkpt>
      <trkpt lat="44.41512" lon="5.45008">
        <ele>951.8425293</ele>
        <time>2016-06-28T10:28:16Z</time>
      </trkpt>
      <trkpt lat="44.41486" lon="5.45015">
        <ele>949.439209</ele>
        <time>2016-06-28T10:28:24Z</time>
      </trkpt>
      <trkpt lat="44.41484" lon="5.45021">
        <ele>949.439209</ele>
        <time>2016-06-28T10:28:25Z</time>
      </trkpt>
      <trkpt lat="44.41477" lon="5.45044">
        <ele>948.9584961</ele>
        <time>2016-06-28T10:28:28Z</time>
      </trkpt>
      <trkpt lat="44.41454" lon="5.45083">
        <ele>944.6325684</ele>
        <time>2016-06-28T10:28:34Z</time>
      </trkpt>
      <trkpt lat="44.4145" lon="5.45086">
        <ele>944.6325684</ele>
        <time>2016-06-28T10:28:35Z</time>
      </trkpt>
      <trkpt lat="44.41392" lon="5.45081">
        <ele>941.7487793</ele>
        <time>2016-06-28T10:28:45Z</time>
      </trkpt>
      <trkpt lat="44.41378" lon="5.4508">
        <ele>940.3068848</ele>
        <time>2016-06-28T10:28:48Z</time>
      </trkpt>
      <trkpt lat="44.41343" lon="5.45062">
        <ele>938.8647461</ele>
        <time>2016-06-28T10:28:55Z</time>
      </trkpt>
      <trkpt lat="44.41314" lon="5.45041">
        <ele>936.4614258</ele>
        <time>2016-06-28T10:29:00Z</time>
      </trkpt>
      <trkpt lat="44.41284" lon="5.45017">
        <ele>933.0966797</ele>
        <time>2016-06-28T10:29:06Z</time>
      </trkpt>
      <trkpt lat="44.41254" lon="5.44992">
        <ele>930.6936035</ele>
        <time>2016-06-28T10:29:12Z</time>
      </trkpt>
      <trkpt lat="44.41211" lon="5.4496">
        <ele>926.8483887</ele>
        <time>2016-06-28T10:29:20Z</time>
      </trkpt>
      <trkpt lat="44.4118" lon="5.44932">
        <ele>924.4450684</ele>
        <time>2016-06-28T10:29:26Z</time>
      </trkpt>
      <trkpt lat="44.41141" lon="5.44893">
        <ele>921.0803223</ele>
        <time>2016-06-28T10:29:34Z</time>
      </trkpt>
      <trkpt lat="44.41136" lon="5.44889">
        <ele>921.0803223</ele>
        <time>2016-06-28T10:29:35Z</time>
      </trkpt>
      <trkpt lat="44.41099" lon="5.44885">
        <ele>917.7155762</ele>
        <time>2016-06-28T10:29:41Z</time>
      </trkpt>
      <trkpt lat="44.41052" lon="5.44886">
        <ele>914.3510742</ele>
        <time>2016-06-28T10:29:49Z</time>
      </trkpt>
      <trkpt lat="44.41041" lon="5.44884">
        <ele>912.9091797</ele>
        <time>2016-06-28T10:29:51Z</time>
      </trkpt>
      <trkpt lat="44.41031" lon="5.44884">
        <ele>912.4284668</ele>
        <time>2016-06-28T10:29:53Z</time>
      </trkpt>
      <trkpt lat="44.41001" lon="5.4492">
        <ele>908.583252</ele>
        <time>2016-06-28T10:30:02Z</time>
      </trkpt>
      <trkpt lat="44.40995" lon="5.44969">
        <ele>906.1796875</ele>
        <time>2016-06-28T10:30:08Z</time>
      </trkpt>
      <trkpt lat="44.40995" lon="5.44982">
        <ele>905.2185059</ele>
        <time>2016-06-28T10:30:10Z</time>
      </trkpt>
      <trkpt lat="44.40994" lon="5.44987">
        <ele>904.2573242</ele>
        <time>2016-06-28T10:30:11Z</time>
      </trkpt>
      <trkpt lat="44.40981" lon="5.45005">
        <ele>904.2573242</ele>
        <time>2016-06-28T10:30:15Z</time>
      </trkpt>
      <trkpt lat="44.40971" lon="5.45013">
        <ele>903.2958984</ele>
        <time>2016-06-28T10:30:17Z</time>
      </trkpt>
      <trkpt lat="44.40963" lon="5.45022">
        <ele>902.3344727</ele>
        <time>2016-06-28T10:30:19Z</time>
      </trkpt>
      <trkpt lat="44.40955" lon="5.45031">
        <ele>901.373291</ele>
        <time>2016-06-28T10:30:21Z</time>
      </trkpt>
      <trkpt lat="44.40935" lon="5.45041">
        <ele>899.4506836</ele>
        <time>2016-06-28T10:30:25Z</time>
      </trkpt>
      <trkpt lat="44.40912" lon="5.45044">
        <ele>898.4892578</ele>
        <time>2016-06-28T10:30:29Z</time>
      </trkpt>
      <trkpt lat="44.40902" lon="5.45042">
        <ele>897.5280762</ele>
        <time>2016-06-28T10:30:31Z</time>
      </trkpt>
      <trkpt lat="44.40867" lon="5.4505">
        <ele>897.0473633</ele>
        <time>2016-06-28T10:30:37Z</time>
      </trkpt>
      <trkpt lat="44.40824" lon="5.45059">
        <ele>893.2021484</ele>
        <time>2016-06-28T10:30:43Z</time>
      </trkpt>
      <trkpt lat="44.40818" lon="5.45059">
        <ele>893.2021484</ele>
        <time>2016-06-28T10:30:44Z</time>
      </trkpt>
      <trkpt lat="44.40812" lon="5.45059">
        <ele>892.2409668</ele>
        <time>2016-06-28T10:30:45Z</time>
      </trkpt>
      <trkpt lat="44.40795" lon="5.45056">
        <ele>890.798584</ele>
        <time>2016-06-28T10:30:48Z</time>
      </trkpt>
      <trkpt lat="44.40758" lon="5.45032">
        <ele>887.434082</ele>
        <time>2016-06-28T10:30:57Z</time>
      </trkpt>
      <trkpt lat="44.40728" lon="5.45018">
        <ele>885.5114746</ele>
        <time>2016-06-28T10:31:03Z</time>
      </trkpt>
      <trkpt lat="44.40707" lon="5.45008">
        <ele>884.0695801</ele>
        <time>2016-06-28T10:31:07Z</time>
      </trkpt>
      <trkpt lat="44.40694" lon="5.45004">
        <ele>882.6276855</ele>
        <time>2016-06-28T10:31:10Z</time>
      </trkpt>
      <trkpt lat="44.40654" lon="5.45002">
        <ele>880.2243652</ele>
        <time>2016-06-28T10:31:17Z</time>
      </trkpt>
      <trkpt lat="44.40628" lon="5.4501">
        <ele>877.8210449</ele>
        <time>2016-06-28T10:31:22Z</time>
      </trkpt>
      <trkpt lat="44.40603" lon="5.4502">
        <ele>875.8981934</ele>
        <time>2016-06-28T10:31:29Z</time>
      </trkpt>
      <trkpt lat="44.40578" lon="5.45013">
        <ele>873.9755859</ele>
        <time>2016-06-28T10:31:35Z</time>
      </trkpt>
      <trkpt lat="44.40541" lon="5.45024">
        <ele>871.0917969</ele>
        <time>2016-06-28T10:31:43Z</time>
      </trkpt>
      <trkpt lat="44.40524" lon="5.45041">
        <ele>869.6499023</ele>
        <time>2016-06-28T10:31:47Z</time>
      </trkpt>
      <trkpt lat="44.40488" lon="5.45107">
        <ele>866.2851563</ele>
        <time>2016-06-28T10:31:55Z</time>
      </trkpt>
      <trkpt lat="44.4046" lon="5.45155">
        <ele>863.8818359</ele>
        <time>2016-06-28T10:32:01Z</time>
      </trkpt>
      <trkpt lat="44.4045" lon="5.45171">
        <ele>862.4399414</ele>
        <time>2016-06-28T10:32:03Z</time>
      </trkpt>
      <trkpt lat="44.40428" lon="5.45215">
        <ele>860.517334</ele>
        <time>2016-06-28T10:32:08Z</time>
      </trkpt>
      <trkpt lat="44.4042" lon="5.45228">
        <ele>858.5944824</ele>
        <time>2016-06-28T10:32:10Z</time>
      </trkpt>
      <trkpt lat="44.40402" lon="5.45267">
        <ele>854.7492676</ele>
        <time>2016-06-28T10:32:16Z</time>
      </trkpt>
      <trkpt lat="44.40398" lon="5.45273">
        <ele>854.7492676</ele>
        <time>2016-06-28T10:32:17Z</time>
      </trkpt>
      <trkpt lat="44.40378" lon="5.45321">
        <ele>852.3459473</ele>
        <time>2016-06-28T10:32:24Z</time>
      </trkpt>
      <trkpt lat="44.40367" lon="5.45371">
        <ele>848.9814453</ele>
        <time>2016-06-28T10:32:30Z</time>
      </trkpt>
      <trkpt lat="44.40367" lon="5.45379">
        <ele>848.9814453</ele>
        <time>2016-06-28T10:32:31Z</time>
      </trkpt>
      <trkpt lat="44.40366" lon="5.45387">
        <ele>848.0202637</ele>
        <time>2016-06-28T10:32:32Z</time>
      </trkpt>
      <trkpt lat="44.40373" lon="5.45434">
        <ele>846.0976563</ele>
        <time>2016-06-28T10:32:38Z</time>
      </trkpt>
      <trkpt lat="44.40375" lon="5.45441">
        <ele>845.1362305</ele>
        <time>2016-06-28T10:32:39Z</time>
      </trkpt>
      <trkpt lat="44.40397" lon="5.45481">
        <ele>843.6940918</ele>
        <time>2016-06-28T10:32:45Z</time>
      </trkpt>
      <trkpt lat="44.40451" lon="5.45531">
        <ele>840.3295898</ele>
        <time>2016-06-28T10:32:55Z</time>
      </trkpt>
      <trkpt lat="44.40485" lon="5.45568">
        <ele>837.4455566</ele>
        <time>2016-06-28T10:33:02Z</time>
      </trkpt>
      <trkpt lat="44.40502" lon="5.45593">
        <ele>835.0424805</ele>
        <time>2016-06-28T10:33:06Z</time>
      </trkpt>
      <trkpt lat="44.40512" lon="5.45618">
        <ele>833.1196289</ele>
        <time>2016-06-28T10:33:10Z</time>
      </trkpt>
      <trkpt lat="44.40516" lon="5.45639">
        <ele>831.6777344</ele>
        <time>2016-06-28T10:33:13Z</time>
      </trkpt>
      <trkpt lat="44.40544" lon="5.45666">
        <ele>830.7165527</ele>
        <time>2016-06-28T10:33:19Z</time>
      </trkpt>
      <trkpt lat="44.40572" lon="5.45686">
        <ele>827.8322754</ele>
        <time>2016-06-28T10:33:30Z</time>
      </trkpt>
      <trkpt lat="44.40564" lon="5.45699">
        <ele>827.8322754</ele>
        <time>2016-06-28T10:33:34Z</time>
      </trkpt>
      <trkpt lat="44.40557" lon="5.45744">
        <ele>824.9484863</ele>
        <time>2016-06-28T10:33:41Z</time>
      </trkpt>
      <trkpt lat="44.40559" lon="5.45758">
        <ele>823.9870605</ele>
        <time>2016-06-28T10:33:43Z</time>
      </trkpt>
      <trkpt lat="44.4056" lon="5.45765">
        <ele>823.0258789</ele>
        <time>2016-06-28T10:33:44Z</time>
      </trkpt>
      <trkpt lat="44.4057" lon="5.45789">
        <ele>821.5837402</ele>
        <time>2016-06-28T10:33:48Z</time>
      </trkpt>
      <trkpt lat="44.406" lon="5.45855">
        <ele>819.1806641</ele>
        <time>2016-06-28T10:34:00Z</time>
      </trkpt>
      <trkpt lat="44.40619" lon="5.45896">
        <ele>817.2580566</ele>
        <time>2016-06-28T10:34:08Z</time>
      </trkpt>
      <trkpt lat="44.40601" lon="5.45915">
        <ele>815.8161621</ele>
        <time>2016-06-28T10:34:14Z</time>
      </trkpt>
      <trkpt lat="44.40591" lon="5.45918">
        <ele>816.2966309</ele>
        <time>2016-06-28T10:34:16Z</time>
      </trkpt>
      <trkpt lat="44.40575" lon="5.45929">
        <ele>814.8547363</ele>
        <time>2016-06-28T10:34:20Z</time>
      </trkpt>
      <trkpt lat="44.4057" lon="5.4594">
        <ele>814.3740234</ele>
        <time>2016-06-28T10:34:22Z</time>
      </trkpt>
      <trkpt lat="44.40557" lon="5.45977">
        <ele>813.8933105</ele>
        <time>2016-06-28T10:34:28Z</time>
      </trkpt>
      <trkpt lat="44.40556" lon="5.46013">
        <ele>812.451416</ele>
        <time>2016-06-28T10:34:33Z</time>
      </trkpt>
      <trkpt lat="44.40576" lon="5.46071">
        <ele>811.0092773</ele>
        <time>2016-06-28T10:34:44Z</time>
      </trkpt>
      <trkpt lat="44.40581" lon="5.46083">
        <ele>811.0092773</ele>
        <time>2016-06-28T10:34:47Z</time>
      </trkpt>
      <trkpt lat="44.40562" lon="5.46097">
        <ele>810.5285645</ele>
        <time>2016-06-28T10:34:53Z</time>
      </trkpt>
      <trkpt lat="44.40538" lon="5.46103">
        <ele>809.5673828</ele>
        <time>2016-06-28T10:34:57Z</time>
      </trkpt>
      <trkpt lat="44.40528" lon="5.46106">
        <ele>808.1254883</ele>
        <time>2016-06-28T10:34:59Z</time>
      </trkpt>
      <trkpt lat="44.40507" lon="5.46101">
        <ele>806.6833496</ele>
        <time>2016-06-28T10:35:03Z</time>
      </trkpt>
      <trkpt lat="44.40461" lon="5.46067">
        <ele>803.3188477</ele>
        <time>2016-06-28T10:35:10Z</time>
      </trkpt>
      <trkpt lat="44.40455" lon="5.46062">
        <ele>803.3188477</ele>
        <time>2016-06-28T10:35:11Z</time>
      </trkpt>
      <trkpt lat="44.40427" lon="5.46029">
        <ele>799.4736328</ele>
        <time>2016-06-28T10:35:17Z</time>
      </trkpt>
      <trkpt lat="44.40422" lon="5.46024">
        <ele>799.4736328</ele>
        <time>2016-06-28T10:35:18Z</time>
      </trkpt>
      <trkpt lat="44.40403" lon="5.45996">
        <ele>798.9929199</ele>
        <time>2016-06-28T10:35:22Z</time>
      </trkpt>
      <trkpt lat="44.40382" lon="5.45958">
        <ele>796.1091309</ele>
        <time>2016-06-28T10:35:27Z</time>
      </trkpt>
      <trkpt lat="44.40368" lon="5.4593">
        <ele>794.1862793</ele>
        <time>2016-06-28T10:35:31Z</time>
      </trkpt>
      <trkpt lat="44.40363" lon="5.45916">
        <ele>792.7443848</ele>
        <time>2016-06-28T10:35:33Z</time>
      </trkpt>
      <trkpt lat="44.40358" lon="5.459">
        <ele>791.782959</ele>
        <time>2016-06-28T10:35:35Z</time>
      </trkpt>
      <trkpt lat="44.40335" lon="5.45863">
        <ele>788.8991699</ele>
        <time>2016-06-28T10:35:40Z</time>
      </trkpt>
      <trkpt lat="44.40331" lon="5.45858">
        <ele>788.8991699</ele>
        <time>2016-06-28T10:35:41Z</time>
      </trkpt>
      <trkpt lat="44.40326" lon="5.45853">
        <ele>787.4570313</ele>
        <time>2016-06-28T10:35:42Z</time>
      </trkpt>
      <trkpt lat="44.40256" lon="5.45808">
        <ele>783.6118164</ele>
        <time>2016-06-28T10:35:53Z</time>
      </trkpt>
      <trkpt lat="44.40243" lon="5.45802">
        <ele>781.689209</ele>
        <time>2016-06-28T10:35:55Z</time>
      </trkpt>
      <trkpt lat="44.40233" lon="5.45796">
        <ele>780.7280273</ele>
        <time>2016-06-28T10:35:57Z</time>
      </trkpt>
      <trkpt lat="44.40207" lon="5.45774">
        <ele>778.3244629</ele>
        <time>2016-06-28T10:36:02Z</time>
      </trkpt>
      <trkpt lat="44.40158" lon="5.45739">
        <ele>774.479248</ele>
        <time>2016-06-28T10:36:10Z</time>
      </trkpt>
      <trkpt lat="44.40151" lon="5.45734">
        <ele>774.479248</ele>
        <time>2016-06-28T10:36:11Z</time>
      </trkpt>
      <trkpt lat="44.40121" lon="5.45721">
        <ele>771.1147461</ele>
        <time>2016-06-28T10:36:16Z</time>
      </trkpt>
      <trkpt lat="44.40109" lon="5.45717">
        <ele>770.6340332</ele>
        <time>2016-06-28T10:36:18Z</time>
      </trkpt>
      <trkpt lat="44.40075" lon="5.45708">
        <ele>767.2695313</ele>
        <time>2016-06-28T10:36:24Z</time>
      </trkpt>
      <trkpt lat="44.40064" lon="5.45705">
        <ele>766.3081055</ele>
        <time>2016-06-28T10:36:26Z</time>
      </trkpt>
      <trkpt lat="44.4003" lon="5.45707">
        <ele>763.4240723</ele>
        <time>2016-06-28T10:36:32Z</time>
      </trkpt>
      <trkpt lat="44.39997" lon="5.45726">
        <ele>760.0593262</ele>
        <time>2016-06-28T10:36:40Z</time>
      </trkpt>
      <trkpt lat="44.39969" lon="5.45758">
        <ele>757.65625</ele>
        <time>2016-06-28T10:36:49Z</time>
      </trkpt>
      <trkpt lat="44.39952" lon="5.45802">
        <ele>756.2141113</ele>
        <time>2016-06-28T10:36:55Z</time>
      </trkpt>
      <trkpt lat="44.39938" lon="5.45848">
        <ele>752.3688965</ele>
        <time>2016-06-28T10:37:01Z</time>
      </trkpt>
      <trkpt lat="44.39937" lon="5.45854">
        <ele>752.3688965</ele>
        <time>2016-06-28T10:37:02Z</time>
      </trkpt>
      <trkpt lat="44.39936" lon="5.45861">
        <ele>752.3688965</ele>
        <time>2016-06-28T10:37:03Z</time>
      </trkpt>
      <trkpt lat="44.39921" lon="5.45889">
        <ele>750.4465332</ele>
        <time>2016-06-28T10:37:08Z</time>
      </trkpt>
      <trkpt lat="44.39869" lon="5.45915">
        <ele>748.0432129</ele>
        <time>2016-06-28T10:37:16Z</time>
      </trkpt>
      <trkpt lat="44.39854" lon="5.45919">
        <ele>746.6010742</ele>
        <time>2016-06-28T10:37:18Z</time>
      </trkpt>
      <trkpt lat="44.39829" lon="5.45928">
        <ele>743.717041</ele>
        <time>2016-06-28T10:37:22Z</time>
      </trkpt>
      <trkpt lat="44.39824" lon="5.4593">
        <ele>743.717041</ele>
        <time>2016-06-28T10:37:23Z</time>
      </trkpt>
      <trkpt lat="44.39803" lon="5.45939">
        <ele>741.3137207</ele>
        <time>2016-06-28T10:37:28Z</time>
      </trkpt>
      <trkpt lat="44.39795" lon="5.45976">
        <ele>739.8718262</ele>
        <time>2016-06-28T10:37:34Z</time>
      </trkpt>
      <trkpt lat="44.39797" lon="5.4602">
        <ele>737.4685059</ele>
        <time>2016-06-28T10:37:39Z</time>
      </trkpt>
      <trkpt lat="44.39797" lon="5.46027">
        <ele>736.987793</ele>
        <time>2016-06-28T10:37:40Z</time>
      </trkpt>
      <trkpt lat="44.39777" lon="5.46045">
        <ele>734.5847168</ele>
        <time>2016-06-28T10:37:48Z</time>
      </trkpt>
      <trkpt lat="44.39772" lon="5.46036">
        <ele>734.5847168</ele>
        <time>2016-06-28T10:37:50Z</time>
      </trkpt>
      <trkpt lat="44.39743" lon="5.45979">
        <ele>732.6621094</ele>
        <time>2016-06-28T10:38:03Z</time>
      </trkpt>
      <trkpt lat="44.39722" lon="5.45966">
        <ele>731.2199707</ele>
        <time>2016-06-28T10:38:08Z</time>
      </trkpt>
      <trkpt lat="44.39707" lon="5.45965">
        <ele>731.2199707</ele>
        <time>2016-06-28T10:38:11Z</time>
      </trkpt>
      <trkpt lat="44.39634" lon="5.45985">
        <ele>726.894043</ele>
        <time>2016-06-28T10:38:28Z</time>
      </trkpt>
      <trkpt lat="44.39627" lon="5.45988">
        <ele>725.9326172</ele>
        <time>2016-06-28T10:38:30Z</time>
      </trkpt>
      <trkpt lat="44.39585" lon="5.45999">
        <ele>724.4907227</ele>
        <time>2016-06-28T10:38:47Z</time>
      </trkpt>
      <trkpt lat="44.39569" lon="5.46011">
        <ele>723.0488281</ele>
        <time>2016-06-28T10:38:52Z</time>
      </trkpt>
      <trkpt lat="44.39551" lon="5.46064">
        <ele>722.0874023</ele>
        <time>2016-06-28T10:39:01Z</time>
      </trkpt>
      <trkpt lat="44.39553" lon="5.46182">
        <ele>720.6455078</ele>
        <time>2016-06-28T10:39:19Z</time>
      </trkpt>
      <trkpt lat="44.39552" lon="5.46219">
        <ele>720.1647949</ele>
        <time>2016-06-28T10:39:24Z</time>
      </trkpt>
      <trkpt lat="44.39547" lon="5.46247">
        <ele>720.1647949</ele>
        <time>2016-06-28T10:39:28Z</time>
      </trkpt>
      <trkpt lat="44.39534" lon="5.46281">
        <ele>719.2036133</ele>
        <time>2016-06-28T10:39:33Z</time>
      </trkpt>
      <trkpt lat="44.39523" lon="5.46326">
        <ele>718.7229004</ele>
        <time>2016-06-28T10:39:39Z</time>
      </trkpt>
      <trkpt lat="44.39522" lon="5.4636">
        <ele>717.7614746</ele>
        <time>2016-06-28T10:39:43Z</time>
      </trkpt>
      <trkpt lat="44.39534" lon="5.46412">
        <ele>717.2810059</ele>
        <time>2016-06-28T10:39:50Z</time>
      </trkpt>
      <trkpt lat="44.39545" lon="5.46428">
        <ele>717.2810059</ele>
        <time>2016-06-28T10:39:53Z</time>
      </trkpt>
      <trkpt lat="44.39558" lon="5.46451">
        <ele>716.800293</ele>
        <time>2016-06-28T10:39:57Z</time>
      </trkpt>
      <trkpt lat="44.39578" lon="5.46483">
        <ele>716.3195801</ele>
        <time>2016-06-28T10:40:02Z</time>
      </trkpt>
      <trkpt lat="44.39577" lon="5.46533">
        <ele>715.8388672</ele>
        <time>2016-06-28T10:40:11Z</time>
      </trkpt>
      <trkpt lat="44.39541" lon="5.46604">
        <ele>717.7614746</ele>
        <time>2016-06-28T10:40:29Z</time>
      </trkpt>
      <trkpt lat="44.39555" lon="5.46665">
        <ele>718.7229004</ele>
        <time>2016-06-28T10:40:44Z</time>
      </trkpt>
      <trkpt lat="44.39548" lon="5.46709">
        <ele>720.6455078</ele>
        <time>2016-06-28T10:40:57Z</time>
      </trkpt>
      <trkpt lat="44.39515" lon="5.46749">
        <ele>722.0874023</ele>
        <time>2016-06-28T10:41:14Z</time>
      </trkpt>
      <trkpt lat="44.39485" lon="5.46782">
        <ele>722.5681152</ele>
        <time>2016-06-28T10:41:28Z</time>
      </trkpt>
      <trkpt lat="44.39436" lon="5.46817">
        <ele>724.0100098</ele>
        <time>2016-06-28T10:41:47Z</time>
      </trkpt>
      <trkpt lat="44.39411" lon="5.46865">
        <ele>723.529541</ele>
        <time>2016-06-28T10:42:01Z</time>
      </trkpt>
      <trkpt lat="44.3939" lon="5.46941">
        <ele>724.4907227</ele>
        <time>2016-06-28T10:42:19Z</time>
      </trkpt>
      <trkpt lat="44.39364" lon="5.46993">
        <ele>723.529541</ele>
        <time>2016-06-28T10:42:31Z</time>
      </trkpt>
      <trkpt lat="44.39342" lon="5.47026">
        <ele>723.0488281</ele>
        <time>2016-06-28T10:42:38Z</time>
      </trkpt>
      <trkpt lat="44.39321" lon="5.47038">
        <ele>722.5681152</ele>
        <time>2016-06-28T10:42:43Z</time>
      </trkpt>
      <trkpt lat="44.3931" lon="5.4704">
        <ele>722.0874023</ele>
        <time>2016-06-28T10:42:45Z</time>
      </trkpt>
      <trkpt lat="44.39293" lon="5.47054">
        <ele>721.1262207</ele>
        <time>2016-06-28T10:42:49Z</time>
      </trkpt>
      <trkpt lat="44.39269" lon="5.47085">
        <ele>716.800293</ele>
        <time>2016-06-28T10:42:59Z</time>
      </trkpt>
      <trkpt lat="44.39255" lon="5.47097">
        <ele>714.8774414</ele>
        <time>2016-06-28T10:43:10Z</time>
      </trkpt>
      <trkpt lat="44.39255" lon="5.47099">
        <ele>714.8774414</ele>
        <time>2016-06-28T10:43:27Z</time>
      </trkpt>
      <trkpt lat="44.39256" lon="5.47101">
        <ele>714.8774414</ele>
        <time>2016-06-28T10:44:54Z</time>
      </trkpt>
      <trkpt lat="44.39256" lon="5.47103">
        <ele>714.3967285</ele>
        <time>2016-06-28T10:45:11Z</time>
      </trkpt>
      <trkpt lat="44.39269" lon="5.47137">
        <ele>713.9160156</ele>
        <time>2016-06-28T10:45:26Z</time>
      </trkpt>
      <trkpt lat="44.39293" lon="5.47195">
        <ele>712.4741211</ele>
        <time>2016-06-28T10:45:36Z</time>
      </trkpt>
      <trkpt lat="44.39302" lon="5.47219">
        <ele>711.5129395</ele>
        <time>2016-06-28T10:45:39Z</time>
      </trkpt>
      <trkpt lat="44.39306" lon="5.47256">
        <ele>709.590332</ele>
        <time>2016-06-28T10:45:43Z</time>
      </trkpt>
      <trkpt lat="44.39306" lon="5.47266">
        <ele>709.590332</ele>
        <time>2016-06-28T10:45:44Z</time>
      </trkpt>
      <trkpt lat="44.39303" lon="5.47299">
        <ele>708.6289063</ele>
        <time>2016-06-28T10:45:47Z</time>
      </trkpt>
      <trkpt lat="44.39305" lon="5.47336">
        <ele>707.6677246</ele>
        <time>2016-06-28T10:45:50Z</time>
      </trkpt>
      <trkpt lat="44.39311" lon="5.47371">
        <ele>704.3032227</ele>
        <time>2016-06-28T10:45:53Z</time>
      </trkpt>
      <trkpt lat="44.39313" lon="5.47382">
        <ele>704.3032227</ele>
        <time>2016-06-28T10:45:54Z</time>
      </trkpt>
      <trkpt lat="44.3932" lon="5.47413">
        <ele>702.3803711</ele>
        <time>2016-06-28T10:45:57Z</time>
      </trkpt>
      <trkpt lat="44.39326" lon="5.47442">
        <ele>701.4191895</ele>
        <time>2016-06-28T10:46:00Z</time>
      </trkpt>
      <trkpt lat="44.39304" lon="5.4748">
        <ele>699.4963379</ele>
        <time>2016-06-28T10:46:07Z</time>
      </trkpt>
      <trkpt lat="44.39267" lon="5.47453">
        <ele>699.4963379</ele>
        <time>2016-06-28T10:46:13Z</time>
      </trkpt>
      <trkpt lat="44.39242" lon="5.47422">
        <ele>698.5349121</ele>
        <time>2016-06-28T10:46:18Z</time>
      </trkpt>
      <trkpt lat="44.39151" lon="5.47376">
        <ele>697.5737305</ele>
        <time>2016-06-28T10:46:34Z</time>
      </trkpt>
      <trkpt lat="44.39124" lon="5.47365">
        <ele>697.5737305</ele>
        <time>2016-06-28T10:46:39Z</time>
      </trkpt>
      <trkpt lat="44.39105" lon="5.4735">
        <ele>697.5737305</ele>
        <time>2016-06-28T10:46:43Z</time>
      </trkpt>
      <trkpt lat="44.39071" lon="5.47305">
        <ele>697.5737305</ele>
        <time>2016-06-28T10:46:52Z</time>
      </trkpt>
      <trkpt lat="44.39032" lon="5.47263">
        <ele>697.0930176</ele>
        <time>2016-06-28T10:47:02Z</time>
      </trkpt>
      <trkpt lat="44.39021" lon="5.47256">
        <ele>697.0930176</ele>
        <time>2016-06-28T10:47:05Z</time>
      </trkpt>
      <trkpt lat="44.39004" lon="5.47253">
        <ele>697.0930176</ele>
        <time>2016-06-28T10:47:09Z</time>
      </trkpt>
      <trkpt lat="44.38995" lon="5.47255">
        <ele>697.0930176</ele>
        <time>2016-06-28T10:47:11Z</time>
      </trkpt>
      <trkpt lat="44.38941" lon="5.47306">
        <ele>695.651123</ele>
        <time>2016-06-28T10:47:25Z</time>
      </trkpt>
      <trkpt lat="44.38912" lon="5.4733">
        <ele>693.2478027</ele>
        <time>2016-06-28T10:47:34Z</time>
      </trkpt>
      <trkpt lat="44.38895" lon="5.47342">
        <ele>692.2866211</ele>
        <time>2016-06-28T10:47:38Z</time>
      </trkpt>
      <trkpt lat="44.38864" lon="5.47361">
        <ele>687.9606934</ele>
        <time>2016-06-28T10:47:47Z</time>
      </trkpt>
      <trkpt lat="44.38858" lon="5.47361">
        <ele>686.9992676</ele>
        <time>2016-06-28T10:47:59Z</time>
      </trkpt>
      <trkpt lat="44.38842" lon="5.47394">
        <ele>687.9606934</ele>
        <time>2016-06-28T10:48:09Z</time>
      </trkpt>
      <trkpt lat="44.38825" lon="5.47463">
        <ele>687.9606934</ele>
        <time>2016-06-28T10:48:23Z</time>
      </trkpt>
      <trkpt lat="44.38821" lon="5.47478">
        <ele>687.9606934</ele>
        <time>2016-06-28T10:48:26Z</time>
      </trkpt>
      <trkpt lat="44.38802" lon="5.47606">
        <ele>687.9606934</ele>
        <time>2016-06-28T10:48:48Z</time>
      </trkpt>
      <trkpt lat="44.3879" lon="5.47665">
        <ele>688.4414063</ele>
        <time>2016-06-28T10:48:58Z</time>
      </trkpt>
      <trkpt lat="44.38787" lon="5.47683">
        <ele>688.4414063</ele>
        <time>2016-06-28T10:49:01Z</time>
      </trkpt>
      <trkpt lat="44.38786" lon="5.47752">
        <ele>688.4414063</ele>
        <time>2016-06-28T10:49:12Z</time>
      </trkpt>
      <trkpt lat="44.38828" lon="5.47849">
        <ele>688.4414063</ele>
        <time>2016-06-28T10:49:29Z</time>
      </trkpt>
      <trkpt lat="44.38848" lon="5.47866">
        <ele>688.4414063</ele>
        <time>2016-06-28T10:49:34Z</time>
      </trkpt>
      <trkpt lat="44.38875" lon="5.47877">
        <ele>687.9606934</ele>
        <time>2016-06-28T10:49:40Z</time>
      </trkpt>
      <trkpt lat="44.38912" lon="5.47886">
        <ele>688.4414063</ele>
        <time>2016-06-28T10:49:48Z</time>
      </trkpt>
      <trkpt lat="44.38943" lon="5.4794">
        <ele>688.9221191</ele>
        <time>2016-06-28T10:49:58Z</time>
      </trkpt>
      <trkpt lat="44.3894" lon="5.47966">
        <ele>688.4414063</ele>
        <time>2016-06-28T10:50:02Z</time>
      </trkpt>
      <trkpt lat="44.38923" lon="5.48022">
        <ele>688.9221191</ele>
        <time>2016-06-28T10:50:11Z</time>
      </trkpt>
      <trkpt lat="44.38895" lon="5.48117">
        <ele>691.8059082</ele>
        <time>2016-06-28T10:50:32Z</time>
      </trkpt>
      <trkpt lat="44.38869" lon="5.48207">
        <ele>694.6896973</ele>
        <time>2016-06-28T10:50:57Z</time>
      </trkpt>
      <trkpt lat="44.38849" lon="5.48292">
        <ele>696.6125488</ele>
        <time>2016-06-28T10:51:19Z</time>
      </trkpt>
      <trkpt lat="44.38834" lon="5.48394">
        <ele>698.0544434</ele>
        <time>2016-06-28T10:51:43Z</time>
      </trkpt>
      <trkpt lat="44.38825" lon="5.48513">
        <ele>698.5349121</ele>
        <time>2016-06-28T10:52:05Z</time>
      </trkpt>
      <trkpt lat="44.38795" lon="5.48607">
        <ele>698.5349121</ele>
        <time>2016-06-28T10:52:22Z</time>
      </trkpt>
      <trkpt lat="44.38807" lon="5.48695">
        <ele>698.5349121</ele>
        <time>2016-06-28T10:52:36Z</time>
      </trkpt>
      <trkpt lat="44.38853" lon="5.48799">
        <ele>698.5349121</ele>
        <time>2016-06-28T10:52:56Z</time>
      </trkpt>
      <trkpt lat="44.3891" lon="5.48889">
        <ele>699.015625</ele>
        <time>2016-06-28T10:53:15Z</time>
      </trkpt>
      <trkpt lat="44.3898" lon="5.48997">
        <ele>699.9770508</ele>
        <time>2016-06-28T10:53:39Z</time>
      </trkpt>
      <trkpt lat="44.3906" lon="5.49099">
        <ele>700.4580078</ele>
        <time>2016-06-28T10:54:04Z</time>
      </trkpt>
      <trkpt lat="44.39079" lon="5.49112">
        <ele>700.9384766</ele>
        <time>2016-06-28T10:54:09Z</time>
      </trkpt>
      <trkpt lat="44.39169" lon="5.49158">
        <ele>702.861084</ele>
        <time>2016-06-28T10:54:33Z</time>
      </trkpt>
      <trkpt lat="44.39202" lon="5.49209">
        <ele>705.2644043</ele>
        <time>2016-06-28T10:54:47Z</time>
      </trkpt>
      <trkpt lat="44.39215" lon="5.49272">
        <ele>708.1484375</ele>
        <time>2016-06-28T10:55:07Z</time>
      </trkpt>
      <trkpt lat="44.39227" lon="5.49331">
        <ele>711.5129395</ele>
        <time>2016-06-28T10:55:29Z</time>
      </trkpt>
      <trkpt lat="44.39242" lon="5.49378">
        <ele>714.3967285</ele>
        <time>2016-06-28T10:55:48Z</time>
      </trkpt>
      <trkpt lat="44.39268" lon="5.49417">
        <ele>716.800293</ele>
        <time>2016-06-28T10:56:08Z</time>
      </trkpt>
      <trkpt lat="44.393" lon="5.49441">
        <ele>720.1647949</ele>
        <time>2016-06-28T10:56:27Z</time>
      </trkpt>
      <trkpt lat="44.39338" lon="5.49455">
        <ele>722.5681152</ele>
        <time>2016-06-28T10:56:49Z</time>
      </trkpt>
      <trkpt lat="44.39372" lon="5.49467">
        <ele>725.4519043</ele>
        <time>2016-06-28T10:57:08Z</time>
      </trkpt>
      <trkpt lat="44.39411" lon="5.49489">
        <ele>727.3747559</ele>
        <time>2016-06-28T10:57:29Z</time>
      </trkpt>
      <trkpt lat="44.39444" lon="5.49537">
        <ele>730.7392578</ele>
        <time>2016-06-28T10:57:51Z</time>
      </trkpt>
      <trkpt lat="44.39472" lon="5.49597">
        <ele>733.1425781</ele>
        <time>2016-06-28T10:58:15Z</time>
      </trkpt>
      <trkpt lat="44.39496" lon="5.49649">
        <ele>735.5458984</ele>
        <time>2016-06-28T10:58:37Z</time>
      </trkpt>
      <trkpt lat="44.39517" lon="5.4971">
        <ele>738.4299316</ele>
        <time>2016-06-28T10:59:00Z</time>
      </trkpt>
      <trkpt lat="44.39514" lon="5.49771">
        <ele>741.3137207</ele>
        <time>2016-06-28T10:59:22Z</time>
      </trkpt>
      <trkpt lat="44.39511" lon="5.49824">
        <ele>744.1977539</ele>
        <time>2016-06-28T10:59:42Z</time>
      </trkpt>
      <trkpt lat="44.39535" lon="5.49883">
        <ele>746.6010742</ele>
        <time>2016-06-28T11:00:04Z</time>
      </trkpt>
      <trkpt lat="44.39575" lon="5.49939">
        <ele>750.4465332</ele>
        <time>2016-06-28T11:00:31Z</time>
      </trkpt>
      <trkpt lat="44.39607" lon="5.50003">
        <ele>752.8496094</ele>
        <time>2016-06-28T11:00:58Z</time>
      </trkpt>
      <trkpt lat="44.39645" lon="5.50062">
        <ele>755.7336426</ele>
        <time>2016-06-28T11:01:24Z</time>
      </trkpt>
      <trkpt lat="44.39692" lon="5.50085">
        <ele>757.1755371</ele>
        <time>2016-06-28T11:01:45Z</time>
      </trkpt>
      <trkpt lat="44.39729" lon="5.50137">
        <ele>757.65625</ele>
        <time>2016-06-28T11:02:05Z</time>
      </trkpt>
      <trkpt lat="44.39752" lon="5.5022">
        <ele>759.0981445</ele>
        <time>2016-06-28T11:02:29Z</time>
      </trkpt>
      <trkpt lat="44.39796" lon="5.50262">
        <ele>758.6174316</ele>
        <time>2016-06-28T11:02:46Z</time>
      </trkpt>
      <trkpt lat="44.3986" lon="5.50306">
        <ele>758.1369629</ele>
        <time>2016-06-28T11:03:05Z</time>
      </trkpt>
      <trkpt lat="44.39908" lon="5.50344">
        <ele>757.1755371</ele>
        <time>2016-06-28T11:03:19Z</time>
      </trkpt>
      <trkpt lat="44.39949" lon="5.50382">
        <ele>756.6948242</ele>
        <time>2016-06-28T11:03:30Z</time>
      </trkpt>
      <trkpt lat="44.39959" lon="5.50451">
        <ele>756.6948242</ele>
        <time>2016-06-28T11:03:44Z</time>
      </trkpt>
      <trkpt lat="44.3998" lon="5.505">
        <ele>758.1369629</ele>
        <time>2016-06-28T11:03:56Z</time>
      </trkpt>
      <trkpt lat="44.40038" lon="5.50533">
        <ele>757.65625</ele>
        <time>2016-06-28T11:04:10Z</time>
      </trkpt>
      <trkpt lat="44.40121" lon="5.50582">
        <ele>756.6948242</ele>
        <time>2016-06-28T11:04:30Z</time>
      </trkpt>
      <trkpt lat="44.40205" lon="5.50647">
        <ele>756.6948242</ele>
        <time>2016-06-28T11:04:51Z</time>
      </trkpt>
      <trkpt lat="44.40271" lon="5.50693">
        <ele>758.1369629</ele>
        <time>2016-06-28T11:05:10Z</time>
      </trkpt>
      <trkpt lat="44.40353" lon="5.5073">
        <ele>759.0981445</ele>
        <time>2016-06-28T11:05:34Z</time>
      </trkpt>
      <trkpt lat="44.4039" lon="5.5077">
        <ele>760.5400391</ele>
        <time>2016-06-28T11:05:50Z</time>
      </trkpt>
      <trkpt lat="44.40423" lon="5.50796">
        <ele>762.9433594</ele>
        <time>2016-06-28T11:06:06Z</time>
      </trkpt>
      <trkpt lat="44.40469" lon="5.50806">
        <ele>764.385498</ele>
        <time>2016-06-28T11:06:25Z</time>
      </trkpt>
      <trkpt lat="44.4054" lon="5.50822">
        <ele>765.8276367</ele>
        <time>2016-06-28T11:06:49Z</time>
      </trkpt>
      <trkpt lat="44.40583" lon="5.5088">
        <ele>765.8276367</ele>
        <time>2016-06-28T11:07:04Z</time>
      </trkpt>
      <trkpt lat="44.40588" lon="5.50896">
        <ele>765.3469238</ele>
        <time>2016-06-28T11:07:07Z</time>
      </trkpt>
      <trkpt lat="44.40603" lon="5.51015">
        <ele>763.904541</ele>
        <time>2016-06-28T11:07:23Z</time>
      </trkpt>
      <trkpt lat="44.40599" lon="5.51135">
        <ele>762.4626465</ele>
        <time>2016-06-28T11:07:40Z</time>
      </trkpt>
      <trkpt lat="44.40598" lon="5.51142">
        <ele>762.4626465</ele>
        <time>2016-06-28T11:07:41Z</time>
      </trkpt>
      <trkpt lat="44.40596" lon="5.51187">
        <ele>762.4626465</ele>
        <time>2016-06-28T11:07:48Z</time>
      </trkpt>
      <trkpt lat="44.40608" lon="5.51257">
        <ele>762.4626465</ele>
        <time>2016-06-28T11:07:59Z</time>
      </trkpt>
      <trkpt lat="44.40609" lon="5.51311">
        <ele>762.4626465</ele>
        <time>2016-06-28T11:08:07Z</time>
      </trkpt>
      <trkpt lat="44.40598" lon="5.51345">
        <ele>761.5014648</ele>
        <time>2016-06-28T11:08:12Z</time>
      </trkpt>
      <trkpt lat="44.40539" lon="5.51438">
        <ele>763.4240723</ele>
        <time>2016-06-28T11:08:32Z</time>
      </trkpt>
      <trkpt lat="44.40511" lon="5.51533">
        <ele>763.904541</ele>
        <time>2016-06-28T11:08:50Z</time>
      </trkpt>
      <trkpt lat="44.40519" lon="5.51597">
        <ele>763.4240723</ele>
        <time>2016-06-28T11:09:01Z</time>
      </trkpt>
      <trkpt lat="44.40578" lon="5.51723">
        <ele>763.904541</ele>
        <time>2016-06-28T11:09:25Z</time>
      </trkpt>
      <trkpt lat="44.40587" lon="5.51765">
        <ele>763.904541</ele>
        <time>2016-06-28T11:09:32Z</time>
      </trkpt>
      <trkpt lat="44.40603" lon="5.5187">
        <ele>763.904541</ele>
        <time>2016-06-28T11:09:50Z</time>
      </trkpt>
      <trkpt lat="44.40628" lon="5.52011">
        <ele>763.904541</ele>
        <time>2016-06-28T11:10:14Z</time>
      </trkpt>
      <trkpt lat="44.40633" lon="5.52114">
        <ele>765.3469238</ele>
        <time>2016-06-28T11:10:34Z</time>
      </trkpt>
      <trkpt lat="44.40611" lon="5.52178">
        <ele>768.2307129</ele>
        <time>2016-06-28T11:10:54Z</time>
      </trkpt>
      <trkpt lat="44.40577" lon="5.52218">
        <ele>771.1147461</ele>
        <time>2016-06-28T11:11:14Z</time>
      </trkpt>
      <trkpt lat="44.40534" lon="5.52256">
        <ele>774.479248</ele>
        <time>2016-06-28T11:11:39Z</time>
      </trkpt>
      <trkpt lat="44.40501" lon="5.52283">
        <ele>777.3632813</ele>
        <time>2016-06-28T11:11:58Z</time>
      </trkpt>
      <trkpt lat="44.40457" lon="5.52301">
        <ele>779.7663574</ele>
        <time>2016-06-28T11:12:20Z</time>
      </trkpt>
      <trkpt lat="44.40416" lon="5.52319">
        <ele>782.6506348</ele>
        <time>2016-06-28T11:12:43Z</time>
      </trkpt>
      <trkpt lat="44.40371" lon="5.52338">
        <ele>785.5344238</ele>
        <time>2016-06-28T11:13:06Z</time>
      </trkpt>
      <trkpt lat="44.40334" lon="5.52374">
        <ele>788.418457</ele>
        <time>2016-06-28T11:13:28Z</time>
      </trkpt>
      <trkpt lat="44.4031" lon="5.52424">
        <ele>790.3410645</ele>
        <time>2016-06-28T11:13:49Z</time>
      </trkpt>
      <trkpt lat="44.40301" lon="5.5248">
        <ele>793.2248535</ele>
        <time>2016-06-28T11:14:09Z</time>
      </trkpt>
      <trkpt lat="44.40314" lon="5.52542">
        <ele>796.1091309</ele>
        <time>2016-06-28T11:14:30Z</time>
      </trkpt>
      <trkpt lat="44.40343" lon="5.52594">
        <ele>798.0317383</ele>
        <time>2016-06-28T11:14:50Z</time>
      </trkpt>
      <trkpt lat="44.40379" lon="5.52626">
        <ele>798.9929199</ele>
        <time>2016-06-28T11:15:06Z</time>
      </trkpt>
      <trkpt lat="44.40433" lon="5.5267">
        <ele>798.9929199</ele>
        <time>2016-06-28T11:15:27Z</time>
      </trkpt>
      <trkpt lat="44.40473" lon="5.52732">
        <ele>799.9543457</ele>
        <time>2016-06-28T11:15:49Z</time>
      </trkpt>
      <trkpt lat="44.40474" lon="5.52733">
        <ele>799.9543457</ele>
        <time>2016-06-28T11:16:11Z</time>
      </trkpt>
      <trkpt lat="44.40474" lon="5.52733">
        <ele>800.4350586</ele>
        <time>2016-06-28T11:17:13Z</time>
      </trkpt>
      <trkpt lat="44.40478" lon="5.52734">
        <ele>799.9543457</ele>
        <time>2016-06-28T11:18:11Z</time>
      </trkpt>
      <trkpt lat="44.40505" lon="5.5276">
        <ele>801.3962402</ele>
        <time>2016-06-28T11:18:26Z</time>
      </trkpt>
      <trkpt lat="44.40544" lon="5.52784">
        <ele>803.3188477</ele>
        <time>2016-06-28T11:18:45Z</time>
      </trkpt>
      <trkpt lat="44.40592" lon="5.528">
        <ele>806.2026367</ele>
        <time>2016-06-28T11:19:09Z</time>
      </trkpt>
      <trkpt lat="44.40635" lon="5.52829">
        <ele>808.1254883</ele>
        <time>2016-06-28T11:19:32Z</time>
      </trkpt>
      <trkpt lat="44.40655" lon="5.52886">
        <ele>811.0092773</ele>
        <time>2016-06-28T11:19:54Z</time>
      </trkpt>
      <trkpt lat="44.40649" lon="5.52946">
        <ele>813.4128418</ele>
        <time>2016-06-28T11:20:15Z</time>
      </trkpt>
      <trkpt lat="44.40621" lon="5.52991">
        <ele>817.2580566</ele>
        <time>2016-06-28T11:20:36Z</time>
      </trkpt>
      <trkpt lat="44.40581" lon="5.53021">
        <ele>819.1806641</ele>
        <time>2016-06-28T11:20:57Z</time>
      </trkpt>
      <trkpt lat="44.40555" lon="5.53067">
        <ele>820.1418457</ele>
        <time>2016-06-28T11:21:14Z</time>
      </trkpt>
      <trkpt lat="44.4056" lon="5.53138">
        <ele>820.1418457</ele>
        <time>2016-06-28T11:21:31Z</time>
      </trkpt>
      <trkpt lat="44.40604" lon="5.53196">
        <ele>820.6225586</ele>
        <time>2016-06-28T11:21:49Z</time>
      </trkpt>
      <trkpt lat="44.40682" lon="5.53231">
        <ele>820.1418457</ele>
        <time>2016-06-28T11:22:12Z</time>
      </trkpt>
      <trkpt lat="44.40741" lon="5.53284">
        <ele>821.1032715</ele>
        <time>2016-06-28T11:22:32Z</time>
      </trkpt>
      <trkpt lat="44.40813" lon="5.53295">
        <ele>821.1032715</ele>
        <time>2016-06-28T11:22:52Z</time>
      </trkpt>
      <trkpt lat="44.40867" lon="5.53315">
        <ele>822.0644531</ele>
        <time>2016-06-28T11:23:10Z</time>
      </trkpt>
      <trkpt lat="44.409" lon="5.53333">
        <ele>823.5065918</ele>
        <time>2016-06-28T11:23:25Z</time>
      </trkpt>
      <trkpt lat="44.40941" lon="5.53362">
        <ele>826.3903809</ele>
        <time>2016-06-28T11:23:46Z</time>
      </trkpt>
      <trkpt lat="44.40972" lon="5.53408">
        <ele>829.2744141</ele>
        <time>2016-06-28T11:24:07Z</time>
      </trkpt>
      <trkpt lat="44.40996" lon="5.53467">
        <ele>832.6391602</ele>
        <time>2016-06-28T11:24:30Z</time>
      </trkpt>
      <trkpt lat="44.41019" lon="5.53531">
        <ele>835.5229492</ele>
        <time>2016-06-28T11:24:55Z</time>
      </trkpt>
      <trkpt lat="44.41041" lon="5.53588">
        <ele>838.8876953</ele>
        <time>2016-06-28T11:25:17Z</time>
      </trkpt>
      <trkpt lat="44.41042" lon="5.53591">
        <ele>838.8876953</ele>
        <time>2016-06-28T11:25:18Z</time>
      </trkpt>
      <trkpt lat="44.41065" lon="5.53649">
        <ele>841.2907715</ele>
        <time>2016-06-28T11:25:41Z</time>
      </trkpt>
      <trkpt lat="44.41089" lon="5.53709">
        <ele>844.1750488</ele>
        <time>2016-06-28T11:26:04Z</time>
      </trkpt>
      <trkpt lat="44.41106" lon="5.53766">
        <ele>845.6169434</ele>
        <time>2016-06-28T11:26:22Z</time>
      </trkpt>
      <trkpt lat="44.41126" lon="5.5387">
        <ele>845.6169434</ele>
        <time>2016-06-28T11:26:45Z</time>
      </trkpt>
      <trkpt lat="44.41121" lon="5.5396">
        <ele>843.6940918</ele>
        <time>2016-06-28T11:26:58Z</time>
      </trkpt>
      <trkpt lat="44.41076" lon="5.54039">
        <ele>843.6940918</ele>
        <time>2016-06-28T11:27:13Z</time>
      </trkpt>
      <trkpt lat="44.41003" lon="5.54137">
        <ele>844.6555176</ele>
        <time>2016-06-28T11:27:38Z</time>
      </trkpt>
      <trkpt lat="44.40971" lon="5.54226">
        <ele>846.5783691</ele>
        <time>2016-06-28T11:27:59Z</time>
      </trkpt>
      <trkpt lat="44.4096" lon="5.54329">
        <ele>847.0588379</ele>
        <time>2016-06-28T11:28:20Z</time>
      </trkpt>
      <trkpt lat="44.40976" lon="5.54437">
        <ele>844.6555176</ele>
        <time>2016-06-28T11:28:36Z</time>
      </trkpt>
      <trkpt lat="44.41016" lon="5.54555">
        <ele>841.2907715</ele>
        <time>2016-06-28T11:28:47Z</time>
      </trkpt>
      <trkpt lat="44.41052" lon="5.54662">
        <ele>838.8876953</ele>
        <time>2016-06-28T11:28:55Z</time>
      </trkpt>
      <trkpt lat="44.41069" lon="5.54737">
        <ele>836.0036621</ele>
        <time>2016-06-28T11:29:00Z</time>
      </trkpt>
      <trkpt lat="44.4107" lon="5.54752">
        <ele>833.6003418</ele>
        <time>2016-06-28T11:29:01Z</time>
      </trkpt>
      <trkpt lat="44.41069" lon="5.54798">
        <ele>832.6391602</ele>
        <time>2016-06-28T11:29:04Z</time>
      </trkpt>
      <trkpt lat="44.41059" lon="5.54841">
        <ele>830.2358398</ele>
        <time>2016-06-28T11:29:07Z</time>
      </trkpt>
      <trkpt lat="44.41036" lon="5.54892">
        <ele>828.7939453</ele>
        <time>2016-06-28T11:29:11Z</time>
      </trkpt>
      <trkpt lat="44.41014" lon="5.54926">
        <ele>827.3518066</ele>
        <time>2016-06-28T11:29:14Z</time>
      </trkpt>
      <trkpt lat="44.41001" lon="5.54946">
        <ele>826.3903809</ele>
        <time>2016-06-28T11:29:16Z</time>
      </trkpt>
      <trkpt lat="44.40992" lon="5.54969">
        <ele>824.4677734</ele>
        <time>2016-06-28T11:29:18Z</time>
      </trkpt>
      <trkpt lat="44.40982" lon="5.55008">
        <ele>822.545166</ele>
        <time>2016-06-28T11:29:21Z</time>
      </trkpt>
      <trkpt lat="44.40983" lon="5.55118">
        <ele>818.6999512</ele>
        <time>2016-06-28T11:29:29Z</time>
      </trkpt>
      <trkpt lat="44.41028" lon="5.55202">
        <ele>815.8161621</ele>
        <time>2016-06-28T11:29:37Z</time>
      </trkpt>
      <trkpt lat="44.41044" lon="5.55217">
        <ele>815.3354492</ele>
        <time>2016-06-28T11:29:39Z</time>
      </trkpt>
      <trkpt lat="44.41091" lon="5.55243">
        <ele>812.451416</ele>
        <time>2016-06-28T11:29:44Z</time>
      </trkpt>
      <trkpt lat="44.41119" lon="5.55259">
        <ele>811.9707031</ele>
        <time>2016-06-28T11:29:47Z</time>
      </trkpt>
      <trkpt lat="44.4117" lon="5.55321">
        <ele>809.5673828</ele>
        <time>2016-06-28T11:29:55Z</time>
      </trkpt>
      <trkpt lat="44.41189" lon="5.55405">
        <ele>810.0478516</ele>
        <time>2016-06-28T11:30:07Z</time>
      </trkpt>
      <trkpt lat="44.41198" lon="5.55479">
        <ele>812.9321289</ele>
        <time>2016-06-28T11:30:25Z</time>
      </trkpt>
      <trkpt lat="44.41214" lon="5.55543">
        <ele>815.8161621</ele>
        <time>2016-06-28T11:30:45Z</time>
      </trkpt>
      <trkpt lat="44.4124" lon="5.55621">
        <ele>816.7773438</ele>
        <time>2016-06-28T11:31:10Z</time>
      </trkpt>
      <trkpt lat="44.41264" lon="5.55699">
        <ele>816.2966309</ele>
        <time>2016-06-28T11:31:27Z</time>
      </trkpt>
      <trkpt lat="44.41262" lon="5.55771">
        <ele>819.1806641</ele>
        <time>2016-06-28T11:31:47Z</time>
      </trkpt>
      <trkpt lat="44.41263" lon="5.55858">
        <ele>822.545166</ele>
        <time>2016-06-28T11:32:15Z</time>
      </trkpt>
      <trkpt lat="44.41268" lon="5.55927">
        <ele>825.4289551</ele>
        <time>2016-06-28T11:32:39Z</time>
      </trkpt>
      <trkpt lat="44.41274" lon="5.5599">
        <ele>828.7939453</ele>
        <time>2016-06-28T11:33:02Z</time>
      </trkpt>
      <trkpt lat="44.4128" lon="5.56063">
        <ele>830.7165527</ele>
        <time>2016-06-28T11:33:26Z</time>
      </trkpt>
      <trkpt lat="44.41282" lon="5.56145">
        <ele>832.6391602</ele>
        <time>2016-06-28T11:33:51Z</time>
      </trkpt>
      <trkpt lat="44.4129" lon="5.56205">
        <ele>833.6003418</ele>
        <time>2016-06-28T11:34:09Z</time>
      </trkpt>
      <trkpt lat="44.41313" lon="5.56271">
        <ele>833.6003418</ele>
        <time>2016-06-28T11:34:26Z</time>
      </trkpt>
      <trkpt lat="44.41358" lon="5.56335">
        <ele>832.1584473</ele>
        <time>2016-06-28T11:34:38Z</time>
      </trkpt>
      <trkpt lat="44.41388" lon="5.56442">
        <ele>829.755127</ele>
        <time>2016-06-28T11:34:52Z</time>
      </trkpt>
      <trkpt lat="44.41384" lon="5.5652">
        <ele>829.755127</ele>
        <time>2016-06-28T11:35:04Z</time>
      </trkpt>
      <trkpt lat="44.41379" lon="5.56627">
        <ele>830.7165527</ele>
        <time>2016-06-28T11:35:25Z</time>
      </trkpt>
      <trkpt lat="44.41374" lon="5.56755">
        <ele>832.1584473</ele>
        <time>2016-06-28T11:35:53Z</time>
      </trkpt>
      <trkpt lat="44.41383" lon="5.5684">
        <ele>831.1972656</ele>
        <time>2016-06-28T11:36:08Z</time>
      </trkpt>
      <trkpt lat="44.41392" lon="5.56939">
        <ele>828.7939453</ele>
        <time>2016-06-28T11:36:22Z</time>
      </trkpt>
      <trkpt lat="44.41391" lon="5.56942">
        <ele>827.8322754</ele>
        <time>2016-06-28T11:36:34Z</time>
      </trkpt>
      <trkpt lat="44.4139" lon="5.56944">
        <ele>827.3518066</ele>
        <time>2016-06-28T11:37:03Z</time>
      </trkpt>
      <trkpt lat="44.41391" lon="5.56944">
        <ele>828.3132324</ele>
        <time>2016-06-28T11:38:21Z</time>
      </trkpt>
      <trkpt lat="44.41394" lon="5.56968">
        <ele>828.3132324</ele>
        <time>2016-06-28T11:38:32Z</time>
      </trkpt>
      <trkpt lat="44.41399" lon="5.57059">
        <ele>828.3132324</ele>
        <time>2016-06-28T11:38:49Z</time>
      </trkpt>
      <trkpt lat="44.41405" lon="5.57149">
        <ele>830.2358398</ele>
        <time>2016-06-28T11:39:11Z</time>
      </trkpt>
      <trkpt lat="44.41412" lon="5.57225">
        <ele>833.6003418</ele>
        <time>2016-06-28T11:39:35Z</time>
      </trkpt>
      <trkpt lat="44.41419" lon="5.57298">
        <ele>836.484375</ele>
        <time>2016-06-28T11:40:00Z</time>
      </trkpt>
      <trkpt lat="44.41429" lon="5.57365">
        <ele>839.848877</ele>
        <time>2016-06-28T11:40:24Z</time>
      </trkpt>
      <trkpt lat="44.41439" lon="5.57434">
        <ele>842.7329102</ele>
        <time>2016-06-28T11:40:49Z</time>
      </trkpt>
      <trkpt lat="44.41447" lon="5.57493">
        <ele>845.6169434</ele>
        <time>2016-06-28T11:41:12Z</time>
      </trkpt>
      <trkpt lat="44.41459" lon="5.57546">
        <ele>848.5007324</ele>
        <time>2016-06-28T11:41:33Z</time>
      </trkpt>
      <trkpt lat="44.41476" lon="5.57603">
        <ele>851.8654785</ele>
        <time>2016-06-28T11:41:57Z</time>
      </trkpt>
      <trkpt lat="44.41495" lon="5.57652">
        <ele>854.7492676</ele>
        <time>2016-06-28T11:42:18Z</time>
      </trkpt>
      <trkpt lat="44.41513" lon="5.57702">
        <ele>857.6333008</ele>
        <time>2016-06-28T11:42:39Z</time>
      </trkpt>
      <trkpt lat="44.41525" lon="5.57751">
        <ele>860.517334</ele>
        <time>2016-06-28T11:42:59Z</time>
      </trkpt>
      <trkpt lat="44.41534" lon="5.57812">
        <ele>863.8818359</ele>
        <time>2016-06-28T11:43:24Z</time>
      </trkpt>
      <trkpt lat="44.41534" lon="5.57817">
        <ele>864.8432617</ele>
        <time>2016-06-28T11:43:26Z</time>
      </trkpt>
      <trkpt lat="44.41533" lon="5.57877">
        <ele>867.246582</ele>
        <time>2016-06-28T11:43:50Z</time>
      </trkpt>
      <trkpt lat="44.41523" lon="5.57946">
        <ele>870.1303711</ele>
        <time>2016-06-28T11:44:16Z</time>
      </trkpt>
      <trkpt lat="44.41515" lon="5.58005">
        <ele>872.5336914</ele>
        <time>2016-06-28T11:44:37Z</time>
      </trkpt>
      <trkpt lat="44.41507" lon="5.58079">
        <ele>874.4562988</ele>
        <time>2016-06-28T11:45:01Z</time>
      </trkpt>
      <trkpt lat="44.41512" lon="5.58153">
        <ele>876.3791504</ele>
        <time>2016-06-28T11:45:24Z</time>
      </trkpt>
      <trkpt lat="44.4152" lon="5.58223">
        <ele>877.8210449</ele>
        <time>2016-06-28T11:45:43Z</time>
      </trkpt>
      <trkpt lat="44.41535" lon="5.58325">
        <ele>878.3017578</ele>
        <time>2016-06-28T11:46:07Z</time>
      </trkpt>
      <trkpt lat="44.41549" lon="5.58412">
        <ele>877.8210449</ele>
        <time>2016-06-28T11:46:23Z</time>
      </trkpt>
      <trkpt lat="44.41562" lon="5.58498">
        <ele>877.8210449</ele>
        <time>2016-06-28T11:46:37Z</time>
      </trkpt>
      <trkpt lat="44.4157" lon="5.58551">
        <ele>877.3405762</ele>
        <time>2016-06-28T11:46:45Z</time>
      </trkpt>
      <trkpt lat="44.4159" lon="5.58689">
        <ele>875.4174805</ele>
        <time>2016-06-28T11:47:03Z</time>
      </trkpt>
      <trkpt lat="44.416" lon="5.58757">
        <ele>873.4951172</ele>
        <time>2016-06-28T11:47:10Z</time>
      </trkpt>
      <trkpt lat="44.41627" lon="5.58938">
        <ele>872.0529785</ele>
        <time>2016-06-28T11:47:29Z</time>
      </trkpt>
      <trkpt lat="44.41645" lon="5.59069">
        <ele>870.1303711</ele>
        <time>2016-06-28T11:47:48Z</time>
      </trkpt>
      <trkpt lat="44.41671" lon="5.59251">
        <ele>869.1691895</ele>
        <time>2016-06-28T11:48:13Z</time>
      </trkpt>
      <trkpt lat="44.41697" lon="5.59381">
        <ele>865.8046875</ele>
        <time>2016-06-28T11:48:26Z</time>
      </trkpt>
      <trkpt lat="44.41699" lon="5.59393">
        <ele>865.8046875</ele>
        <time>2016-06-28T11:48:27Z</time>
      </trkpt>
      <trkpt lat="44.41718" lon="5.59499">
        <ele>862.4399414</ele>
        <time>2016-06-28T11:48:35Z</time>
      </trkpt>
      <trkpt lat="44.41723" lon="5.59568">
        <ele>860.9980469</ele>
        <time>2016-06-28T11:48:40Z</time>
      </trkpt>
      <trkpt lat="44.41723" lon="5.5961">
        <ele>859.5559082</ele>
        <time>2016-06-28T11:48:43Z</time>
      </trkpt>
      <trkpt lat="44.41704" lon="5.59845">
        <ele>855.7106934</ele>
        <time>2016-06-28T11:49:01Z</time>
      </trkpt>
      <trkpt lat="44.41702" lon="5.59857">
        <ele>855.7106934</ele>
        <time>2016-06-28T11:49:02Z</time>
      </trkpt>
      <trkpt lat="44.417" lon="5.59882">
        <ele>854.2687988</ele>
        <time>2016-06-28T11:49:04Z</time>
      </trkpt>
      <trkpt lat="44.41672" lon="5.60043">
        <ele>851.3847656</ele>
        <time>2016-06-28T11:49:17Z</time>
      </trkpt>
      <trkpt lat="44.41635" lon="5.60254">
        <ele>848.0202637</ele>
        <time>2016-06-28T11:49:33Z</time>
      </trkpt>
      <trkpt lat="44.41608" lon="5.60415">
        <ele>844.1750488</ele>
        <time>2016-06-28T11:49:45Z</time>
      </trkpt>
      <trkpt lat="44.41605" lon="5.6043">
        <ele>844.1750488</ele>
        <time>2016-06-28T11:49:46Z</time>
      </trkpt>
      <trkpt lat="44.41576" lon="5.60643">
        <ele>840.8100586</ele>
        <time>2016-06-28T11:50:01Z</time>
      </trkpt>
      <trkpt lat="44.41574" lon="5.60837">
        <ele>836.9648438</ele>
        <time>2016-06-28T11:50:14Z</time>
      </trkpt>
      <trkpt lat="44.41572" lon="5.61015">
        <ele>833.1196289</ele>
        <time>2016-06-28T11:50:26Z</time>
      </trkpt>
      <trkpt lat="44.41565" lon="5.61108">
        <ele>829.755127</ele>
        <time>2016-06-28T11:50:33Z</time>
      </trkpt>
      <trkpt lat="44.41564" lon="5.61119">
        <ele>829.755127</ele>
        <time>2016-06-28T11:50:34Z</time>
      </trkpt>
      <trkpt lat="44.41553" lon="5.6122">
        <ele>826.8710938</ele>
        <time>2016-06-28T11:50:44Z</time>
      </trkpt>
      <trkpt lat="44.41551" lon="5.6124">
        <ele>825.909668</ele>
        <time>2016-06-28T11:50:46Z</time>
      </trkpt>
      <trkpt lat="44.41555" lon="5.61327">
        <ele>823.0258789</ele>
        <time>2016-06-28T11:50:56Z</time>
      </trkpt>
      <trkpt lat="44.41556" lon="5.61334">
        <ele>823.0258789</ele>
        <time>2016-06-28T11:50:57Z</time>
      </trkpt>
      <trkpt lat="44.41565" lon="5.61425">
        <ele>821.1032715</ele>
        <time>2016-06-28T11:51:12Z</time>
      </trkpt>
      <trkpt lat="44.41562" lon="5.61436">
        <ele>820.1418457</ele>
        <time>2016-06-28T11:51:15Z</time>
      </trkpt>
      <trkpt lat="44.41562" lon="5.61442">
        <ele>819.661377</ele>
        <time>2016-06-28T11:51:28Z</time>
      </trkpt>
      <trkpt lat="44.41563" lon="5.61443">
        <ele>819.1806641</ele>
        <time>2016-06-28T11:51:43Z</time>
      </trkpt>
      <trkpt lat="44.41564" lon="5.61446">
        <ele>819.661377</ele>
        <time>2016-06-28T11:52:05Z</time>
      </trkpt>
      <trkpt lat="44.41564" lon="5.61446">
        <ele>819.661377</ele>
        <time>2016-06-28T11:52:29Z</time>
      </trkpt>
    </trkseg>
  </trk>
</gpx>